Provisional Data: Starrucca Creek near Stevens Point, PA


Please select a monitoring station.
Please select start date.
Please select start date.

Toggle Unit: C/F Toggle Unit: C/F
Sample Time Temperature (C) Temperature (F) Specific Conductivity (mS/cm) pH   Turbidity (NTU+) DO (mg/L)
10/17/2022 12:00:00 AM 9.64 49.352 0.078 7.24 1.72 10.75
10/17/2022 12:15:00 AM 9.57 49.226 0.078 7.21 1.53 10.76
10/17/2022 12:30:00 AM 9.49 49.082 0.078 7.16 1.44 10.8
10/17/2022 12:45:00 AM 9.42 48.956 0.078 7.16 1.5 10.8
10/17/2022 1:00:00 AM 9.35 48.83 0.078 7.18 1.63 10.82
10/17/2022 1:15:00 AM 9.26 48.668 0.078 7.19 1.51 10.85
10/17/2022 1:30:00 AM 9.2 48.56 0.078 7.18 1.56 10.87
10/17/2022 1:45:00 AM 9.13 48.434 0.078 7.17 1.58 10.89
10/17/2022 2:00:00 AM 9.06 48.308 0.078 7.16 1.56 10.9
10/17/2022 2:15:00 AM 9 48.2 0.078 7.08 1.65 10.93
10/17/2022 2:30:00 AM 8.94 48.092 0.078 7.13 1.5 10.95
10/17/2022 2:45:00 AM 8.87 47.966 0.078 7.15 1.56 10.97
10/17/2022 3:00:00 AM 8.82 47.876 0.078 7.07 1.62 10.99
10/17/2022 3:15:00 AM 8.76 47.768 0.078 7.09 1.47 10.99
10/17/2022 3:30:00 AM 8.7 47.66 0.078 7.13 1.55 11.01
10/17/2022 3:45:00 AM 8.65 47.57 0.078 7.08 1.51 11.02
10/17/2022 4:00:00 AM 8.59 47.462 0.078 7.11 1.67 11.04
10/17/2022 4:15:00 AM 8.53 47.354 0.079 7.14 1.54 11.04
10/17/2022 4:30:00 AM 8.48 47.264 0.079 7.14 1.39 11.07
10/17/2022 4:45:00 AM 8.42 47.156 0.079 7.08 1.51 11.09
10/17/2022 5:00:00 AM 8.37 47.066 0.079 7.15 1.51 11.1
10/17/2022 5:15:00 AM 8.32 46.976 0.079 7.11 1.49 11.12
10/17/2022 5:30:00 AM 8.26 46.868 0.079 7.16 1.49 11.13
10/17/2022 5:45:00 AM 8.21 46.778 0.079 7.13 1.44 11.14
10/17/2022 6:00:00 AM 8.17 46.706 0.079 7.16 1.45 11.16
10/17/2022 6:15:00 AM 8.13 46.634 0.079 7.17 1.5 11.16
10/17/2022 6:30:00 AM 8.1 46.58 0.079 7.1 1.78 11.18
10/17/2022 6:45:00 AM 8.08 46.544 0.079 7.16 1.47 11.18
10/17/2022 7:00:00 AM 8.04 46.472 0.079 7.14 1.47 11.21
10/17/2022 7:15:00 AM 8.03 46.454 0.079 7.19 1.61 11.21
10/17/2022 7:30:00 AM 8.02 46.436 0.079 7.14 1.59 11.23
10/17/2022 7:45:00 AM 8.01 46.418 0.079 7.19 1.59 11.26
10/17/2022 8:00:00 AM 8.02 46.436 0.079 7.21 1.49 11.32
10/17/2022 8:15:00 AM 8.04 46.472 0.079 7.24 1.52 11.42
10/17/2022 8:30:00 AM 8.08 46.544 0.078 7.2 1.53 11.46
10/17/2022 8:45:00 AM 8.11 46.598 0.078 7.25 1.55 11.47
10/17/2022 9:00:00 AM 8.15 46.67 0.078 7.26 1.32 11.47
10/17/2022 9:15:00 AM 8.18 46.724 0.078 7.31 1.34 11.52
10/17/2022 9:30:00 AM 8.24 46.832 0.078 7.35 1.34 11.66
10/17/2022 9:45:00 AM 8.29 46.922 0.078 7.38 1.27 11.74
10/17/2022 10:00:00 AM 8.35 47.03 0.078 7.36 1.4 11.81
10/17/2022 10:15:00 AM 8.42 47.156 0.078 7.44 1.62 11.84
10/17/2022 10:30:00 AM 8.49 47.282 0.078 7.5 1.35 11.91
10/17/2022 10:45:00 AM 8.57 47.426 0.078 7.53 1.33 11.94
10/17/2022 11:00:00 AM 8.65 47.57 0.078 7.57 1.26 11.98
10/17/2022 11:15:00 AM 8.73 47.714 0.077 7.6 1.3 12.01
10/17/2022 11:30:00 AM 8.81 47.858 0.077 7.56 6.76 12
10/17/2022 11:45:00 AM 8.92 48.056 0.077 7.64 1.21 12.04
10/17/2022 12:00:00 PM 9.04 48.272 0.077 7.66 1.09 12.04
10/17/2022 12:15:00 PM 9.14 48.452 0.077 7.72 1.35 12.01
10/17/2022 12:30:00 PM 9.25 48.65 0.077 7.75 1.17 12.01
10/17/2022 12:45:00 PM 9.34 48.812 0.077 7.7 1.11 11.96
10/17/2022 1:00:00 PM 9.42 48.956 0.077 7.77 2.08 11.9
10/17/2022 1:15:00 PM 9.49 49.082 0.077 7.73 1.07 11.78
10/17/2022 1:30:00 PM 9.56 49.208 0.077 7.73 1.14 11.75
10/17/2022 1:45:00 PM 9.62 49.316 0.077 7.7 1.14 11.7
10/17/2022 2:00:00 PM 9.71 49.478 0.077 7.71 1.2 11.7
10/17/2022 2:15:00 PM 9.84 49.712 0.077 7.79 1.16 11.74
10/17/2022 2:30:00 PM 9.92 49.856 0.077 7.72 1.35 11.71
10/17/2022 2:45:00 PM 9.97 49.946 0.077 7.82 1.25 11.67
10/17/2022 3:00:00 PM 10.01 50.018 0.078 7.77 1.22 11.64
10/17/2022 3:15:00 PM 10.07 50.126 0.078 7.8 1.22 11.56
10/17/2022 3:30:00 PM 10.13 50.234 0.078 7.76 1.17 11.56
10/17/2022 3:45:00 PM 10.19 50.342 0.078 7.81 1.13 11.56
10/17/2022 4:00:00 PM 10.23 50.414 0.078 7.72 1.23 11.42
10/17/2022 4:15:00 PM 10.25 50.45 0.078 7.73 1.2 11.26
10/17/2022 4:30:00 PM 10.26 50.468 0.079 7.61 1.79 11.08
10/17/2022 4:45:00 PM 10.27 50.486 0.079 7.61 1.34 11
10/17/2022 5:00:00 PM 10.28 50.504 0.079 7.58 1.27 10.95
10/17/2022 5:15:00 PM 10.28 50.504 0.079 7.55 1.4 10.91
10/17/2022 5:30:00 PM 10.28 50.504 0.079 7.46 1.39 10.89
10/17/2022 5:45:00 PM 10.27 50.486 0.079 7.51 1.59 10.88
10/17/2022 6:00:00 PM 10.25 50.45 0.078 7.41 1.61 10.85
10/17/2022 6:15:00 PM 10.22 50.396 0.077 7.43 1.61 10.8
10/17/2022 6:30:00 PM 10.19 50.342 0.077 7.44 1.67 10.73
10/17/2022 6:45:00 PM 10.18 50.324 0.077 7.34 1.87 10.68
10/17/2022 7:00:00 PM 10.15 50.27 0.076 7.4 1.79 10.66
10/17/2022 7:15:00 PM 10.13 50.234 0.076 7.3 1.73 10.63
10/17/2022 7:30:00 PM 10.1 50.18 0.076 7.36 1.89 10.61
10/17/2022 7:45:00 PM 10.06 50.108 0.076 7.29 1.72 10.62
10/17/2022 8:00:00 PM 10.02 50.036 0.076 7.32 1.68 10.63
10/17/2022 8:15:00 PM 9.99 49.982 0.076 7.3 1.67 10.61
10/17/2022 8:30:00 PM 9.96 49.928 0.076 7.33 1.66 10.63
10/17/2022 8:45:00 PM 9.94 49.892 0.077 7.26 1.64 10.64
10/17/2022 9:00:00 PM 9.92 49.856 0.077 7.31 1.65 10.65
10/17/2022 9:15:00 PM 9.9 49.82 0.077 7.27 1.84 10.66
10/17/2022 9:30:00 PM 9.88 49.784 0.077 7.28 1.55 10.67
10/17/2022 9:45:00 PM 9.86 49.748 0.077 7.28 1.59 10.67
10/17/2022 10:00:00 PM 9.84 49.712 0.077 7.31 1.56 10.67
10/17/2022 10:15:00 PM 9.81 49.658 0.077 7.23 2.12 10.68
10/17/2022 10:30:00 PM 9.78 49.604 0.078 7.31 1.64 10.68
10/17/2022 10:45:00 PM 9.75 49.55 0.078 7.28 1.67 10.69
10/17/2022 11:00:00 PM 9.71 49.478 0.078 7.3 2.19 10.69
10/17/2022 11:15:00 PM 9.67 49.406 0.078 7.23 1.51 10.7
10/17/2022 11:30:00 PM 9.62 49.316 0.078 7.26 1.5 10.72
10/17/2022 11:45:00 PM 9.57 49.226 0.079 7.26 1.56 10.74
10/18/2022 12:00:00 AM 9.52 49.136 0.079 7.3 1.48 10.75
10/18/2022 12:15:00 AM 9.47 49.046 0.079 7.28 1.42 10.75
10/18/2022 12:30:00 AM 9.42 48.956 0.079 7.25 1.46 10.77
10/18/2022 12:45:00 AM 9.37 48.866 0.079 7.28 1.5 10.78
10/18/2022 1:00:00 AM 9.31 48.758 0.079 7.24 1.43 10.8
10/18/2022 1:15:00 AM 9.25 48.65 0.079 7.25 1.52 10.8
10/18/2022 1:30:00 AM 9.18 48.524 0.079 7.25 1.43 10.82
10/18/2022 1:45:00 AM 9.12 48.416 0.079 7.24 1.52 10.85
10/18/2022 2:00:00 AM 9.05 48.29 0.079 7.28 1.41 10.86
10/18/2022 2:15:00 AM 8.98 48.164 0.079 7.27 1.47 10.88
10/18/2022 2:30:00 AM 8.91 48.038 0.079 7.25 1.6 10.89
10/18/2022 2:45:00 AM 8.83 47.894 0.079 7.27 1.47 10.91
10/18/2022 3:00:00 AM 8.77 47.786 0.079 7.24 1.45 10.91
10/18/2022 3:15:00 AM 8.69 47.642 0.079 7.26 1.37 10.95
10/18/2022 3:30:00 AM 8.62 47.516 0.079 7.19 1.42 10.95
10/18/2022 3:45:00 AM 8.54 47.372 0.079 7.24 1.58 10.98
10/18/2022 4:00:00 AM 8.46 47.228 0.079 7.16 1.51 11
10/18/2022 4:15:00 AM 8.38 47.084 0.079 7.21 1.44 11.03
10/18/2022 4:30:00 AM 8.3 46.94 0.079 7.18 1.46 11.05
10/18/2022 4:45:00 AM 8.22 46.796 0.079 7.2 1.44 11.07
10/18/2022 5:00:00 AM 8.15 46.67 0.079 7.19 1.34 11.1
10/18/2022 5:15:00 AM 8.08 46.544 0.079 7.17 1.43 11.12
10/18/2022 5:30:00 AM 8.01 46.418 0.079 7.13 1.57 11.14
10/18/2022 5:45:00 AM 7.93 46.274 0.079 7.16 1.31 11.16
10/18/2022 6:00:00 AM 7.85 46.13 0.079 7.17 1.42 11.19
10/18/2022 6:15:00 AM 7.78 46.004 0.079 7.16 1.68 11.21
10/18/2022 6:30:00 AM 7.71 45.878 0.08 7.16 1.37 11.23
10/18/2022 6:45:00 AM 7.63 45.734 0.08 7.14 1.4 11.26
10/18/2022 7:00:00 AM 7.56 45.608 0.08 7.12 1.31 11.28
10/18/2022 7:15:00 AM 7.48 45.464 0.08 7.16 1.38 11.31
10/18/2022 7:30:00 AM 7.41 45.338 0.08 7.1 1.44 11.35
10/18/2022 7:45:00 AM 7.35 45.23 0.08 7.17 1.36 11.4
10/18/2022 8:00:00 AM 7.29 45.122 0.08 7.18 1.34 11.48
10/18/2022 8:15:00 AM 7.23 45.014 0.08 7.18 1.33 11.56
10/18/2022 8:30:00 AM 7.19 44.942 0.079 7.2 1.37 11.64
10/18/2022 8:45:00 AM 7.16 44.888 0.079 7.24 1.37 11.76
10/18/2022 9:00:00 AM 7.14 44.852 0.079 7.19 1.33 11.85
10/18/2022 9:15:00 AM 7.14 44.852 0.079 7.29 1.33 11.94
10/18/2022 9:30:00 AM 7.17 44.906 0.079 7.27 1.29 12.01
10/18/2022 9:45:00 AM 7.22 44.996 0.079 7.33 1.27 12.09
10/18/2022 10:00:00 AM 7.3 45.14 0.079 7.39 1.33 12.17
10/18/2022 10:15:00 AM 7.4 45.32 0.079 7.43 1.27 12.2
10/18/2022 10:30:00 AM 7.53 45.554 0.078 7.46 1.24 12.23
10/18/2022 10:45:00 AM 7.7 45.86 0.078 7.51 1.42 12.24
10/18/2022 11:00:00 AM 7.87 46.166 0.078 7.59 1.32 12.23
10/18/2022 11:15:00 AM 8.06 46.508 0.078 7.56 1.36 12.22
10/18/2022 11:30:00 AM 8.27 46.886 0.078 7.63 1.3 12.21
10/18/2022 11:45:00 AM 8.45 47.21 0.078 7.66 1.27 12.19
10/18/2022 12:00:00 PM 8.63 47.534 0.078 7.75 1.28 12.19
10/18/2022 12:15:00 PM 8.84 47.912 0.078 7.69 1.19 12.14
10/18/2022 12:30:00 PM 9.27 48.686 0.078 7.78 1.28 12.13
10/18/2022 12:45:00 PM 9.52 49.136 0.078 7.84 1.19 12.07
10/18/2022 1:00:00 PM 9.61 49.298 0.078 7.87 1.22 12
10/18/2022 1:15:00 PM 9.6 49.28 0.078 7.9 1.27 11.98
10/18/2022 1:30:00 PM 9.55 49.19 0.078 7.92 1.24 11.95
10/18/2022 1:45:00 PM 9.58 49.244 0.078 7.83 1.26 11.88
10/18/2022 2:00:00 PM 9.6 49.28 0.078 7.86 1.22 11.78
10/18/2022 2:15:00 PM 9.56 49.208 0.078 7.8 1.34 11.76
10/18/2022 2:30:00 PM 9.54 49.172 0.078 7.85 1.16 11.8
10/18/2022 2:45:00 PM 9.56 49.208 0.077 7.88 1.36 11.86
10/18/2022 3:00:00 PM 9.61 49.298 0.077 7.87 1.33 11.9
10/18/2022 3:15:00 PM 9.63 49.334 0.077 7.92 1.19 11.89
10/18/2022 3:30:00 PM 9.64 49.352 0.077 7.89 1.36 11.85
10/18/2022 3:45:00 PM 9.58 49.244 0.077 7.89 1.21 11.8
10/18/2022 4:00:00 PM 9.63 49.334 0.077 7.85 1.21 11.77
10/18/2022 4:15:00 PM 9.66 49.388 0.078 7.85 1.2 11.67
10/18/2022 4:30:00 PM 9.7 49.46 0.078 7.73 1.2 11.56
10/18/2022 4:45:00 PM 9.69 49.442 0.078 7.74 1.3 11.47
10/18/2022 5:00:00 PM 9.66 49.388 0.078 7.69 1.21 11.44
10/18/2022 5:15:00 PM 9.62 49.316 0.078 7.7 1.31 11.37
10/18/2022 5:30:00 PM 9.56 49.208 0.078 7.6 1.64 11.33
10/18/2022 5:45:00 PM 9.5 49.1 0.078 7.6 1.89 11.23
10/18/2022 6:00:00 PM 9.45 49.01 0.078 7.61 2.03 11.17
10/18/2022 6:15:00 PM 9.38 48.884 0.079 7.55 1.73 11.11
10/18/2022 6:30:00 PM 9.32 48.776 0.079 7.48 1.8 11.05
10/18/2022 6:45:00 PM 9.27 48.686 0.08 7.47 1.85 11.01
10/18/2022 7:00:00 PM 9.23 48.614 0.08 7.41 1.77 10.98
10/18/2022 7:15:00 PM 9.17 48.506 0.08 7.42 1.72 10.96
10/18/2022 7:30:00 PM 9.1 48.38 0.081 7.43 1.91 10.95
10/18/2022 7:45:00 PM 9.03 48.254 0.081 7.39 1.84 10.94
10/18/2022 8:00:00 PM 8.95 48.11 0.082 7.39 2.25 10.95
10/18/2022 8:15:00 PM 8.86 47.948 0.083 7.35 2.83 10.97
10/18/2022 8:30:00 PM 8.78 47.804 0.083 7.36 4.2 10.98
10/18/2022 8:45:00 PM 8.68 47.624 0.083 7.35 5.58 11
10/18/2022 9:00:00 PM 8.59 47.462 0.082 7.23 7.13 11.01
10/18/2022 9:15:00 PM 8.5 47.3 0.081 7.27 7.75 11.03
10/18/2022 9:30:00 PM 8.41 47.138 0.08 7.3 8.03 11.05
10/18/2022 9:45:00 PM 8.33 46.994 0.079 7.19 7.56 11.06
10/18/2022 10:00:00 PM 8.24 46.832 0.079 7.26 7.29 11.09
10/18/2022 10:15:00 PM 8.16 46.688 0.078 7.25 6.98 11.12
10/18/2022 10:30:00 PM 8.08 46.544 0.078 7.24 5.82 11.13
10/18/2022 10:45:00 PM 8 46.4 0.078 7.23 4.71 11.15
10/18/2022 11:00:00 PM 7.92 46.256 0.078 7.2 4.49 11.19
10/18/2022 11:15:00 PM 7.85 46.13 0.078 7.16 4.13 11.2
10/18/2022 11:30:00 PM 7.76 45.968 0.078 7.14 4.3 11.24
10/18/2022 11:45:00 PM 7.69 45.842 0.078 7.13 3.45 11.25
10/19/2022 12:00:00 AM 7.61 45.698 0.078 7.12 3.2 11.28
10/19/2022 12:15:00 AM 7.53 45.554 0.078 7.16 3.21 11.3
10/19/2022 12:30:00 AM 7.45 45.41 0.078 7.11 2.8 11.32
10/19/2022 12:45:00 AM 7.37 45.266 0.078 7.1 2.7 11.35
10/19/2022 1:00:00 AM 7.3 45.14 0.078 7.14 2.83 11.38
10/19/2022 1:15:00 AM 7.23 45.014 0.078 7.13 2.49 11.4
10/19/2022 1:30:00 AM 7.15 44.87 0.078 7.07 2.38 11.43
10/19/2022 1:45:00 AM 7.08 44.744 0.078 7.13 2.44 11.45
10/19/2022 2:00:00 AM 7 44.6 0.078 7.13 2.25 11.48
10/19/2022 2:15:00 AM 6.93 44.474 0.078 7.06 2.12 11.5
10/19/2022 2:30:00 AM 6.86 44.348 0.078 7.13 2.12 11.52
10/19/2022 2:45:00 AM 6.78 44.204 0.078 7.12 1.94 11.54
10/19/2022 3:00:00 AM 6.72 44.096 0.078 7.06 2.03 11.56
10/19/2022 3:15:00 AM 6.65 43.97 0.079 7.09 1.99 11.58
10/19/2022 3:30:00 AM 6.59 43.862 0.079 7.1 2.05 11.59
10/19/2022 3:45:00 AM 6.52 43.736 0.079 7.1 2 11.64
10/19/2022 4:00:00 AM 6.46 43.628 0.079 7.13 2.1 11.64
10/19/2022 4:15:00 AM 6.4 43.52 0.079 7.06 1.99 11.66
10/19/2022 4:30:00 AM 6.33 43.394 0.079 7.12 1.95 11.67
10/19/2022 4:45:00 AM 6.27 43.286 0.079 7.13 1.91 11.7
10/19/2022 5:00:00 AM 6.21 43.178 0.079 7.12 1.8 11.73
10/19/2022 5:15:00 AM 6.15 43.07 0.079 7.11 1.84 11.74
10/19/2022 5:30:00 AM 6.09 42.962 0.079 7.1 1.77 11.77
10/19/2022 5:45:00 AM 6.03 42.854 0.079 7.14 1.7 11.78
10/19/2022 6:00:00 AM 5.97 42.746 0.079 7.09 1.69 11.81
10/19/2022 6:15:00 AM 5.91 42.638 0.079 7.12 1.71 11.83
10/19/2022 6:30:00 AM 5.86 42.548 0.079 7.1 1.6 11.84
10/19/2022 6:45:00 AM 5.83 42.494 0.079 7.11 1.59 11.86
10/19/2022 7:00:00 AM 5.82 42.476 0.079 7.11 1.6 11.86
10/19/2022 7:15:00 AM 5.8 42.44 0.079 7.15 1.58 11.88
10/19/2022 7:30:00 AM 5.77 42.386 0.079 7.16 1.66 11.9
10/19/2022 7:45:00 AM 5.76 42.368 0.079 7.17 1.46 11.94
10/19/2022 8:00:00 AM 5.76 42.368 0.079 7.19 1.54 11.98
10/19/2022 8:15:00 AM 5.77 42.386 0.079 7.17 1.56 12.05
10/19/2022 8:30:00 AM 5.78 42.404 0.079 7.21 1.5 12.12
10/19/2022 8:45:00 AM 5.81 42.458 0.079 7.22 1.5 12.24
10/19/2022 9:00:00 AM 5.84 42.512 0.079 7.24 1.46 12.32
10/19/2022 9:15:00 AM 5.89 42.602 0.079 7.26 1.55 12.43
10/19/2022 9:30:00 AM 5.97 42.746 0.079 7.31 1.46 12.55
10/19/2022 9:45:00 AM 6.05 42.89 0.079 7.39 1.45 12.61
10/19/2022 10:00:00 AM 6.13 43.034 0.078 7.37 1.41 12.68
10/19/2022 10:15:00 AM 6.19 43.142 0.078 7.45 1.42 12.69
10/19/2022 10:30:00 AM 6.24 43.232 0.078 7.47 1.37 12.68
10/19/2022 10:45:00 AM 6.38 43.484 0.078 7.5 1.37 12.7
10/19/2022 11:00:00 AM 6.53 43.754 0.078 7.47 1.45 12.69
10/19/2022 11:15:00 AM 6.59 43.862 0.078 7.52 1.47 12.65
10/19/2022 11:30:00 AM 6.65 43.97 0.078 7.54 1.4 12.63
10/19/2022 11:45:00 AM 6.66 43.988 0.078 7.54 1.32 12.56
10/19/2022 12:00:00 PM 6.72 44.096 0.078 7.55 1.4 12.59
10/19/2022 12:15:00 PM 6.81 44.258 0.078 7.57 1.37 12.58
10/19/2022 12:30:00 PM 6.85 44.33 0.078 7.56 1.49 12.57
10/19/2022 12:45:00 PM 6.9 44.42 0.078 7.63 1.35 12.55
10/19/2022 1:00:00 PM 6.9 44.42 0.078 7.59 1.32 12.52
10/19/2022 1:15:00 PM 6.9 44.42 0.078 7.62 1.36 12.47
10/19/2022 1:30:00 PM 6.91 44.438 0.078 7.52 1.34 12.44
10/19/2022 1:45:00 PM 6.91 44.438 0.078 7.61 1.31 12.45
10/19/2022 2:00:00 PM 6.93 44.474 0.078 7.57 1.32 12.4
10/19/2022 2:15:00 PM 6.96 44.528 0.078 7.61 1.39 12.42
10/19/2022 2:30:00 PM 7 44.6 0.078 7.55 1.39 12.41
10/19/2022 2:45:00 PM 7.04 44.672 0.078 7.56 1.3 12.35
10/19/2022 3:00:00 PM 7.07 44.726 0.078 7.56 1.34 12.33
10/19/2022 3:15:00 PM 7.1 44.78 0.078 7.58 1.33 12.27
10/19/2022 3:30:00 PM 7.12 44.816 0.078 7.53 1.27 12.24
10/19/2022 3:45:00 PM 7.18 44.924 0.078 7.57 1.36 12.29
10/19/2022 4:00:00 PM 7.23 45.014 0.078 7.54 1.35 12.32
10/19/2022 4:15:00 PM 7.28 45.104 0.078 7.56 1.3 12.3
10/19/2022 4:30:00 PM 7.32 45.176 0.078 7.58 1.36 12.29
10/19/2022 4:45:00 PM 7.32 45.176 0.078 7.56 1.4 12.26
10/19/2022 5:00:00 PM 7.34 45.212 0.078 7.57 1.28 12.28
10/19/2022 5:15:00 PM 7.36 45.248 0.078 7.61 1.43 12.24
10/19/2022 5:30:00 PM 7.38 45.284 0.078 7.58 1.38 12.22
10/19/2022 5:45:00 PM 7.38 45.284 0.078 7.57 1.35 12.12
10/19/2022 6:00:00 PM 7.37 45.266 0.078 7.49 1.46 11.99
10/19/2022 6:15:00 PM 7.35 45.23 0.079 7.51 1.34 11.85
10/19/2022 6:30:00 PM 7.33 45.194 0.079 7.4 1.41 11.72
10/19/2022 6:45:00 PM 7.31 45.158 0.079 7.43 1.42 11.62
10/19/2022 7:00:00 PM 7.28 45.104 0.079 7.33 1.42 11.56
10/19/2022 7:15:00 PM 7.24 45.032 0.079 7.38 1.38 11.51
10/19/2022 7:30:00 PM 7.18 44.924 0.079 7.31 1.4 11.5
10/19/2022 7:45:00 PM 7.11 44.798 0.079 7.35 1.46 11.5
10/19/2022 8:00:00 PM 7.07 44.726 0.08 7.3 1.47 11.48
10/19/2022 8:15:00 PM 7.01 44.618 0.08 7.32 1.46 11.48
10/19/2022 8:30:00 PM 6.94 44.492 0.08 7.25 1.43 11.52
10/19/2022 8:45:00 PM 6.89 44.402 0.08 7.3 1.54 11.52
10/19/2022 9:00:00 PM 6.83 44.294 0.08 7.22 1.55 11.53
10/19/2022 9:15:00 PM 6.77 44.186 0.08 7.28 1.49 11.54
10/19/2022 9:30:00 PM 6.72 44.096 0.08 7.27 1.39 11.55
10/19/2022 9:45:00 PM 6.67 44.006 0.08 7.27 1.38 11.57
10/19/2022 10:00:00 PM 6.62 43.916 0.08 7.26 1.4 11.59
10/19/2022 10:15:00 PM 6.62 43.916 0.08 7.27 1.44 11.59
10/19/2022 10:30:00 PM 6.57 43.826 0.08 7.22 1.44 11.62
10/19/2022 10:45:00 PM 6.55 43.79 0.08 7.26 1.41 11.62
10/19/2022 11:00:00 PM 6.54 43.772 0.08 7.25 1.46 11.63
10/19/2022 11:15:00 PM 6.54 43.772 0.08 7.21 1.46 11.65
10/19/2022 11:30:00 PM 6.53 43.754 0.08 7.2 1.5 11.65
10/19/2022 11:45:00 PM 6.53 43.754 0.08 7.25 1.51 11.65
10/20/2022 12:00:00 AM 6.53 43.754 0.081 7.24 1.41 11.66
10/20/2022 12:15:00 AM 6.52 43.736 0.081 7.21 1.54 11.66
10/20/2022 12:30:00 AM 6.52 43.736 0.081 7.24 1.39 11.67
10/20/2022 12:45:00 AM 6.51 43.718 0.081 7.25 1.39 11.69
10/20/2022 1:00:00 AM 6.52 43.736 0.081 7.18 1.44 11.67
10/20/2022 1:15:00 AM 6.52 43.736 0.081 7.24 1.46 11.67
10/20/2022 1:30:00 AM 6.52 43.736 0.081 7.18 1.5 11.67
10/20/2022 1:45:00 AM 6.51 43.718 0.081 7.25 1.49 11.68
10/20/2022 2:00:00 AM 6.51 43.718 0.081 7.24 1.44 11.68
10/20/2022 2:15:00 AM 6.51 43.718 0.081 7.24 1.39 11.68
10/20/2022 2:30:00 AM 6.5 43.7 0.081 7.24 1.46 11.68
10/20/2022 2:45:00 AM 6.48 43.664 0.081 7.24 1.4 11.69
10/20/2022 3:00:00 AM 6.46 43.628 0.081 7.23 1.46 11.67
10/20/2022 3:15:00 AM 6.41 43.538 0.081 7.19 1.4 11.68
10/20/2022 3:30:00 AM 6.37 43.466 0.081 7.22 1.51 11.7
10/20/2022 3:45:00 AM 6.34 43.412 0.081 7.23 1.45 11.7
10/20/2022 4:00:00 AM 6.31 43.358 0.081 7.23 1.42 11.7
10/20/2022 4:15:00 AM 6.25 43.25 0.081 7.23 1.4 11.73
10/20/2022 4:30:00 AM 6.21 43.178 0.081 7.16 1.45 11.76
10/20/2022 4:45:00 AM 6.15 43.07 0.081 7.23 1.39 11.78
10/20/2022 5:00:00 AM 6.12 43.016 0.081 7.14 1.44 11.76
10/20/2022 5:15:00 AM 6.07 42.926 0.081 7.21 1.42 11.79
10/20/2022 5:30:00 AM 6.03 42.854 0.081 7.14 1.51 11.8
10/20/2022 5:45:00 AM 6 42.8 0.081 7.16 1.45 11.78
10/20/2022 6:00:00 AM 5.96 42.728 0.081 7.16 1.43 11.81
10/20/2022 6:15:00 AM 5.94 42.692 0.081 7.19 1.48 11.81
10/20/2022 6:30:00 AM 5.9 42.62 0.081 7.12 1.47 11.83
10/20/2022 6:45:00 AM 5.87 42.566 0.081 7.19 1.36 11.87
10/20/2022 7:00:00 AM 5.84 42.512 0.081 7.19 1.37 11.88
10/20/2022 7:15:00 AM 5.8 42.44 0.081 7.18 1.76 11.89
10/20/2022 7:30:00 AM 5.77 42.386 0.081 7.2 1.48 11.92
10/20/2022 7:45:00 AM 5.75 42.35 0.081 7.13 1.82 11.97
10/20/2022 8:00:00 AM 5.76 42.368 0.081 7.22 1.45 12.1
10/20/2022 8:15:00 AM 5.77 42.386 0.081 7.19 1.37 12.26
10/20/2022 8:30:00 AM 5.82 42.476 0.08 7.24 1.38 12.34
10/20/2022 8:45:00 AM 5.85 42.53 0.08 7.26 1.45 12.48
10/20/2022 9:00:00 AM 5.88 42.584 0.08 7.29 1.34 12.56
10/20/2022 9:15:00 AM 5.93 42.674 0.08 7.32 1.37 12.64
10/20/2022 9:30:00 AM 6 42.8 0.08 7.35 1.52 12.72
10/20/2022 9:45:00 AM 6.12 43.016 0.079 7.38 1.33 12.77
10/20/2022 10:00:00 AM 6.25 43.25 0.079 7.44 1.36 12.87
10/20/2022 10:15:00 AM 6.38 43.484 0.079 7.45 1.28 12.81
10/20/2022 10:30:00 AM 6.5 43.7 0.079 7.55 1.36 12.88
10/20/2022 10:45:00 AM 6.62 43.916 0.079 7.58 1.27 12.88
10/20/2022 11:00:00 AM 6.75 44.15 0.079 7.52 1.21 12.84
10/20/2022 11:15:00 AM 6.89 44.402 0.079 7.61 1.21 12.82
10/20/2022 11:30:00 AM 7.04 44.672 0.079 7.6 1.19 12.8
10/20/2022 11:45:00 AM 7.17 44.906 0.079 7.69 1.16 12.77
10/20/2022 12:00:00 PM 7.31 45.158 0.079 7.73 1.2 12.76
10/20/2022 12:15:00 PM 7.5 45.5 0.078 7.72 1.21 12.72
10/20/2022 12:30:00 PM 7.71 45.878 0.078 7.71 12.24 12.65
10/20/2022 12:45:00 PM 7.98 46.364 0.078 7.74 1.21 12.61
10/20/2022 1:00:00 PM 8.21 46.778 0.078 7.74 1.26 12.5
10/20/2022 1:15:00 PM 8.4 47.12 0.078 7.74 1.22 12.38
10/20/2022 1:30:00 PM 8.54 47.372 0.078 7.78 1.22 12.29
10/20/2022 1:45:00 PM 8.64 47.552 0.079 7.79 1.23 12.26
10/20/2022 2:00:00 PM 8.72 47.696 0.078 7.79 1.23 12.2
10/20/2022 2:15:00 PM 8.81 47.858 0.078 7.69 1.18 12.13
10/20/2022 2:30:00 PM 8.91 48.038 0.078 7.74 1.16 12.1
10/20/2022 2:45:00 PM 8.95 48.11 0.078 7.75 1.16 12.08
10/20/2022 3:00:00 PM 9 48.2 0.078 7.68 1.16 12.03
10/20/2022 3:15:00 PM 9.03 48.254 0.078 7.73 1.29 12.03
10/20/2022 3:30:00 PM 9.03 48.254 0.078 7.78 1.24 12
10/20/2022 3:45:00 PM 8.99 48.182 0.078 7.74 1.22 11.95
10/20/2022 4:00:00 PM 8.95 48.11 0.078 7.68 1.18 11.86
10/20/2022 4:15:00 PM 8.9 48.02 0.079 7.68 1.22 11.8
10/20/2022 4:30:00 PM 8.86 47.948 0.079 7.66 1.19 11.74
10/20/2022 4:45:00 PM 8.83 47.894 0.079 7.56 1.24 11.72
10/20/2022 5:00:00 PM 8.78 47.804 0.079 7.61 1.23 11.63
10/20/2022 5:15:00 PM 8.72 47.696 0.079 7.55 1.2 11.58
10/20/2022 5:30:00 PM 8.67 47.606 0.079 7.52 1.2 11.51
10/20/2022 5:45:00 PM 8.62 47.516 0.079 7.47 1.27 11.43
10/20/2022 6:00:00 PM 8.57 47.426 0.079 7.48 1.18 11.39
10/20/2022 6:15:00 PM 8.51 47.318 0.08 7.43 1.26 11.32
10/20/2022 6:30:00 PM 8.44 47.192 0.08 7.43 1.26 11.23
10/20/2022 6:45:00 PM 8.38 47.084 0.08 7.32 1.24 11.19
10/20/2022 7:00:00 PM 8.31 46.958 0.08 7.38 1.29 11.16
10/20/2022 7:15:00 PM 8.25 46.85 0.08 7.28 1.22 11.14
10/20/2022 7:30:00 PM 8.17 46.706 0.081 7.3 1.23 11.15
10/20/2022 7:45:00 PM 8.11 46.598 0.081 7.31 1.37 11.11
10/20/2022 8:00:00 PM 8.03 46.454 0.081 7.32 1.3 11.14
10/20/2022 8:15:00 PM 7.95 46.31 0.081 7.22 1.4 11.15
10/20/2022 8:30:00 PM 7.89 46.202 0.081 7.29 1.23 11.15
10/20/2022 8:45:00 PM 7.8 46.04 0.081 7.2 1.28 11.17
10/20/2022 9:00:00 PM 7.72 45.896 0.081 7.27 1.25 11.19
10/20/2022 9:15:00 PM 7.65 45.77 0.081 7.19 1.34 11.22
10/20/2022 9:30:00 PM 7.56 45.608 0.081 7.24 1.29 11.25
10/20/2022 9:45:00 PM 7.5 45.5 0.081 7.21 1.33 11.28
10/20/2022 10:00:00 PM 7.41 45.338 0.081 7.21 1.29 11.32
10/20/2022 10:15:00 PM 7.35 45.23 0.081 7.2 1.28 11.34
10/20/2022 10:30:00 PM 7.28 45.104 0.081 7.24 1.27 11.36
10/20/2022 10:45:00 PM 7.2 44.96 0.082 7.24 1.3 11.41
10/20/2022 11:00:00 PM 7.14 44.852 0.082 7.22 1.31 11.41
10/20/2022 11:15:00 PM 7.05 44.69 0.082 7.17 1.34 11.44
10/20/2022 11:30:00 PM 6.97 44.546 0.082 7.22 1.31 11.5
10/20/2022 11:45:00 PM 6.92 44.456 0.082 7.12 1.43 11.5
10/21/2022 12:00:00 AM 6.82 44.276 0.082 7.2 1.29 11.53
10/21/2022 12:15:00 AM 6.76 44.168 0.082 7.11 1.26 11.55
10/21/2022 12:30:00 AM 6.7 44.06 0.082 7.17 1.31 11.57
10/21/2022 12:45:00 AM 6.64 43.952 0.082 7.17 1.27 11.59
10/21/2022 1:00:00 AM 6.61 43.898 0.082 7.11 1.42 11.6
10/21/2022 1:15:00 AM 6.56 43.808 0.082 7.16 1.23 11.65
10/21/2022 1:30:00 AM 6.53 43.754 0.082 7.08 1.27 11.65
10/21/2022 1:45:00 AM 6.5 43.7 0.082 7.12 1.24 11.64
10/21/2022 2:00:00 AM 6.47 43.646 0.082 7.14 1.27 11.66
10/21/2022 2:15:00 AM 6.45 43.61 0.082 7.08 1.23 11.67
10/21/2022 2:30:00 AM 6.41 43.538 0.082 7.1 1.23 11.68
10/21/2022 2:45:00 AM 6.37 43.466 0.082 7.11 1.22 11.67
10/21/2022 3:00:00 AM 6.32 43.376 0.082 7.1 1.23 11.72
10/21/2022 3:15:00 AM 6.3 43.34 0.082 7.14 1.33 11.72
10/21/2022 3:30:00 AM 6.24 43.232 0.082 7.11 1.2 11.73
10/21/2022 3:45:00 AM 6.18 43.124 0.082 7.14 1.18 11.76
10/21/2022 4:00:00 AM 6.13 43.034 0.082 7.13 1.22 11.78
10/21/2022 4:15:00 AM 6.06 42.908 0.082 7.09 1.23 11.76
10/21/2022 4:30:00 AM 6.01 42.818 0.082 7.11 1.23 11.78
10/21/2022 4:45:00 AM 5.94 42.692 0.082 7.09 1.23 11.82
10/21/2022 5:00:00 AM 5.88 42.584 0.082 7.13 1.32 11.82
10/21/2022 5:15:00 AM 5.83 42.494 0.082 7.08 1.22 11.83
10/21/2022 5:30:00 AM 5.77 42.386 0.082 7.09 1.27 11.86
10/21/2022 5:45:00 AM 5.68 42.224 0.082 7.07 1.19 11.9
10/21/2022 6:00:00 AM 5.63 42.134 0.082 7.07 1.25 11.86
10/21/2022 6:15:00 AM 5.56 42.008 0.082 7.11 1.16 11.95
10/21/2022 6:30:00 AM 5.5 41.9 0.082 7.12 1.29 12.01
10/21/2022 6:45:00 AM 5.46 41.828 0.082 7.11 1.23 12
10/21/2022 7:00:00 AM 5.38 41.684 0.082 7.08 1.17 12.05
10/21/2022 7:15:00 AM 5.34 41.612 0.082 7.07 1.31 12.05
10/21/2022 7:30:00 AM 5.28 41.504 0.082 7.12 1.15 12.08
10/21/2022 7:45:00 AM 5.25 41.45 0.082 7.06 1.24 12.14
10/21/2022 8:00:00 AM 5.22 41.396 0.082 7.14 1.18 12.21
10/21/2022 8:15:00 AM 5.17 41.306 0.082 7.08 1.18 12.28
10/21/2022 8:30:00 AM 5.15 41.27 0.082 7.14 1.22 12.44
10/21/2022 8:45:00 AM 5.15 41.27 0.082 7.18 1.19 12.54
10/21/2022 9:00:00 AM 5.12 41.216 0.082 7.21 1.14 12.63
10/21/2022 9:15:00 AM 5.17 41.306 0.082 7.22 1.16 12.71
10/21/2022 9:30:00 AM 5.21 41.378 0.081 7.21 1.11 12.79
10/21/2022 9:45:00 AM 5.26 41.468 0.081 7.29 1.11 12.91
10/21/2022 10:00:00 AM 5.37 41.666 0.081 7.32 1.47 12.9
10/21/2022 10:15:00 AM 5.51 41.918 0.081 7.36 1.14 13.01
10/21/2022 10:30:00 AM 5.65 42.17 0.081 7.38 1.09 13
10/21/2022 10:45:00 AM 5.83 42.494 0.08 7.44 1.08 13.05
10/21/2022 11:00:00 AM 6.05 42.89 0.08 7.4 1.11 13.02
10/21/2022 11:15:00 AM 6.26 43.268 0.08 7.46 1.09 13.04
10/21/2022 11:30:00 AM 6.52 43.736 0.08 7.48 1.16 12.93
10/21/2022 11:45:00 AM 6.77 44.186 0.08 7.55 1.13 12.93
10/21/2022 12:00:00 PM 7.04 44.672 0.08 7.58 1.06 12.83
10/21/2022 12:15:00 PM 7.3 45.14 0.08 7.57 1.1 12.78
10/21/2022 12:30:00 PM 7.59 45.662 0.08 7.58 1.1 12.75
10/21/2022 12:45:00 PM 7.84 46.112 0.08 7.62 1.32 12.68
10/21/2022 1:00:00 PM 8.09 46.562 0.08 7.63 1.06 12.54
10/21/2022 1:15:00 PM 8.31 46.958 0.08 7.63 1.02 12.5
10/21/2022 1:30:00 PM 8.48 47.264 0.08 7.62 1.09 12.38
10/21/2022 1:45:00 PM 8.61 47.498 0.08 7.64 1.04 12.36
10/21/2022 2:00:00 PM 8.72 47.696 0.08 7.72 1.14 12.34
10/21/2022 2:15:00 PM 8.79 47.822 0.08 7.62 1.07 12.23
10/21/2022 2:30:00 PM 8.85 47.93 0.08 7.65 1.09 12.13
10/21/2022 2:45:00 PM 8.89 48.002 0.08 7.71 1.1 12.16
10/21/2022 3:00:00 PM 8.9 48.02 0.08 7.67 1.15 12.04
10/21/2022 3:15:00 PM 8.91 48.038 0.08 7.59 1.1 12.05
10/21/2022 3:30:00 PM 8.91 48.038 0.08 7.59 1.14 11.97
10/21/2022 3:45:00 PM 8.91 48.038 0.08 7.62 1.08 11.94
10/21/2022 4:00:00 PM 8.9 48.02 0.08 7.61 1.07 11.9
10/21/2022 4:15:00 PM 8.88 47.984 0.08 7.55 1.09 11.78
10/21/2022 4:30:00 PM 8.86 47.948 0.08 7.53 1.12 11.81
10/21/2022 4:45:00 PM 8.81 47.858 0.08 7.63 1.13 11.81
10/21/2022 5:00:00 PM 8.79 47.822 0.08 7.58 1.61 11.73
10/21/2022 5:15:00 PM 8.78 47.804 0.08 7.58 1.28 11.64
10/21/2022 5:30:00 PM 8.78 47.804 0.08 7.55 1.44 11.56
10/21/2022 5:45:00 PM 8.77 47.786 0.081 7.57 1.23 11.51
10/21/2022 6:00:00 PM 8.75 47.75 0.081 7.53 1.22 11.43
10/21/2022 6:15:00 PM 8.72 47.696 0.081 7.51 1.41 11.37
10/21/2022 6:30:00 PM 8.69 47.642 0.082 7.39 1.32 11.29
10/21/2022 6:45:00 PM 8.63 47.534 0.082 7.39 1.6 11.24
10/21/2022 7:00:00 PM 8.57 47.426 0.082 7.37 1.31 11.2
10/21/2022 7:15:00 PM 8.5 47.3 0.083 7.38 1.36 11.18
10/21/2022 7:30:00 PM 8.43 47.174 0.082 7.37 1.31 11.17
10/21/2022 7:45:00 PM 8.34 47.012 0.082 7.27 1.39 11.19
10/21/2022 8:00:00 PM 8.24 46.832 0.082 7.34 1.37 11.21
10/21/2022 8:15:00 PM 8.15 46.67 0.081 7.24 1.29 11.19
10/21/2022 8:30:00 PM 8.06 46.508 0.081 7.31 1.34 11.23
10/21/2022 8:45:00 PM 7.97 46.346 0.081 7.29 1.38 11.23
10/21/2022 9:00:00 PM 7.87 46.166 0.081 7.24 1.39 11.27
10/21/2022 9:15:00 PM 7.79 46.022 0.081 7.21 1.31 11.29
10/21/2022 9:30:00 PM 7.71 45.878 0.081 7.26 1.28 11.29
10/21/2022 9:45:00 PM 7.62 45.716 0.082 7.2 1.46 11.34
10/21/2022 10:00:00 PM 7.56 45.608 0.082 7.22 1.38 11.33
10/21/2022 10:15:00 PM 7.49 45.482 0.083 7.19 1.34 11.34
10/21/2022 10:30:00 PM 7.42 45.356 0.084 7.19 1.46 11.39
10/21/2022 10:45:00 PM 7.34 45.212 0.084 7.23 1.33 11.36
10/21/2022 11:00:00 PM 7.27 45.086 0.085 7.21 1.4 11.42
10/21/2022 11:15:00 PM 7.19 44.942 0.085 7.21 1.34 11.43
10/21/2022 11:30:00 PM 7.12 44.816 0.085 7.22 1.43 11.49
10/21/2022 11:45:00 PM 7.03 44.654 0.086 7.12 1.37 11.47
10/22/2022 12:00:00 AM 6.98 44.564 0.086 7.19 1.34 11.48
10/22/2022 12:15:00 AM 6.9 44.42 0.086 7.11 1.33 11.5
10/22/2022 12:30:00 AM 6.83 44.294 0.087 7.15 1.4 11.57
10/22/2022 12:45:00 AM 6.75 44.15 0.087 7.15 1.36 11.59
10/22/2022 1:00:00 AM 6.7 44.06 0.087 7.18 1.34 11.62
10/22/2022 1:15:00 AM 6.61 43.898 0.087 7.13 1.29 11.63
10/22/2022 1:30:00 AM 6.57 43.826 0.087 7.15 1.26 11.6
10/22/2022 1:45:00 AM 6.49 43.682 0.088 7.13 1.36 11.68
10/22/2022 2:00:00 AM 6.43 43.574 0.088 7.14 1.35 11.69
10/22/2022 2:15:00 AM 6.37 43.466 0.088 7.14 1.26 11.69
10/22/2022 2:30:00 AM 6.29 43.322 0.088 7.14 1.27 11.73
10/22/2022 2:45:00 AM 6.23 43.214 0.088 7.14 1.37 11.76
10/22/2022 3:00:00 AM 6.19 43.142 0.087 7.04 1.27 11.78
10/22/2022 3:15:00 AM 6.13 43.034 0.087 7.09 1.27 11.77
10/22/2022 3:30:00 AM 6.08 42.944 0.087 7.1 1.29 11.8
10/22/2022 3:45:00 AM 6.01 42.818 0.087 7.04 1.27 11.82
10/22/2022 4:00:00 AM 5.96 42.728 0.087 7.09 1.21 11.85
10/22/2022 4:15:00 AM 5.9 42.62 0.087 7.06 1.28 11.87
10/22/2022 4:30:00 AM 5.85 42.53 0.087 7.05 1.35 11.87
10/22/2022 4:45:00 AM 5.79 42.422 0.087 7.09 1.31 11.93
10/22/2022 5:00:00 AM 5.75 42.35 0.086 7.09 1.39 11.9
10/22/2022 5:15:00 AM 5.71 42.278 0.086 7.08 1.29 11.94
10/22/2022 5:30:00 AM 5.65 42.17 0.086 7.09 1.22 11.98
10/22/2022 5:45:00 AM 5.62 42.116 0.086 7.08 1.28 11.95
10/22/2022 6:00:00 AM 5.57 42.026 0.086 7.03 1.29 11.99
10/22/2022 6:15:00 AM 5.52 41.936 0.086 7.05 1.28 12.01
10/22/2022 6:30:00 AM 5.48 41.864 0.086 7.06 1.45 12.02
10/22/2022 6:45:00 AM 5.43 41.774 0.086 7.06 1.22 12.06
10/22/2022 7:00:00 AM 5.42 41.756 0.085 7.09 1.32 12.04
10/22/2022 7:15:00 AM 5.34 41.612 0.085 7.05 1.29 12.08
10/22/2022 7:30:00 AM 5.31 41.558 0.085 7.08 1.3 12.11
10/22/2022 7:45:00 AM 5.29 41.522 0.085 7.09 1.32 12.14
10/22/2022 8:00:00 AM 5.25 41.45 0.085 7.12 1.25 12.22
10/22/2022 8:15:00 AM 5.22 41.396 0.085 7.08 1.2 12.34
10/22/2022 8:30:00 AM 5.21 41.378 0.085 7.14 1.24 12.43
10/22/2022 8:45:00 AM 5.23 41.414 0.084 7.16 1.25 12.55
10/22/2022 9:00:00 AM 5.24 41.432 0.084 7.19 1.25 12.64
10/22/2022 9:15:00 AM 5.27 41.486 0.084 7.2 1.19 12.76
10/22/2022 9:30:00 AM 5.34 41.612 0.084 7.26 1.2 12.87
10/22/2022 9:45:00 AM 5.41 41.738 0.084 7.22 1.37 12.96
10/22/2022 10:00:00 AM 5.55 41.99 0.083 7.3 1.2 13.01
10/22/2022 10:15:00 AM 5.69 42.242 0.083 7.34 1.2 13.1
10/22/2022 10:30:00 AM 5.88 42.584 0.083 7.41 1.21 13.1
10/22/2022 10:45:00 AM 6.08 42.944 0.083 7.45 1.2 13.05
10/22/2022 11:00:00 AM 6.31 43.358 0.082 7.48 1.16 13.08
10/22/2022 11:15:00 AM 6.55 43.79 0.082 7.52 1.15 13.04
10/22/2022 11:30:00 AM 6.83 44.294 0.082 7.51 1.15 12.97
10/22/2022 11:45:00 AM 7.11 44.798 0.082 7.57 1.14 12.9
10/22/2022 12:00:00 PM 7.38 45.284 0.082 7.62 1.17 12.85
10/22/2022 12:15:00 PM 7.72 45.896 0.082 7.56 1.12 12.72
10/22/2022 12:30:00 PM 8.03 46.454 0.081 7.62 1.12 12.71
10/22/2022 12:45:00 PM 8.34 47.012 0.081 7.68 1.14 12.6
10/22/2022 1:00:00 PM 8.61 47.498 0.081 7.66 1.21 12.53
10/22/2022 1:15:00 PM 8.88 47.984 0.081 7.68 1.12 12.46
10/22/2022 1:30:00 PM 9.07 48.326 0.081 7.76 1.16 12.4
10/22/2022 1:45:00 PM 9.25 48.65 0.081 7.7 1.18 12.3
10/22/2022 2:00:00 PM 9.4 48.92 0.081 7.78 1.18 12.25
10/22/2022 2:15:00 PM 9.52 49.136 0.081 7.7 1.26 12.15
10/22/2022 2:30:00 PM 9.61 49.298 0.081 7.76 1.16 12.09
10/22/2022 2:45:00 PM 9.68 49.424 0.081 7.71 1.31 12.07
10/22/2022 3:00:00 PM 9.72 49.496 0.081 7.75 1.16 11.98
10/22/2022 3:15:00 PM 9.75 49.55 0.081 7.69 1.22 11.96
10/22/2022 3:30:00 PM 9.78 49.604 0.081 7.71 1.15 11.9
10/22/2022 3:45:00 PM 9.81 49.658 0.081 7.7 1.2 11.85
10/22/2022 4:00:00 PM 9.82 49.676 0.081 7.73 1.27 11.77
10/22/2022 4:15:00 PM 9.81 49.658 0.081 7.62 1.19 11.69
10/22/2022 4:30:00 PM 9.81 49.658 0.081 7.65 1.21 11.6
10/22/2022 4:45:00 PM 9.79 49.622 0.081 7.61 1.19 11.54
10/22/2022 5:00:00 PM 9.77 49.586 0.081 7.59 1.2 11.46
10/22/2022 5:15:00 PM 9.74 49.532 0.081 7.47 1.26 11.37
10/22/2022 5:30:00 PM 9.72 49.496 0.081 7.51 1.22 11.32
10/22/2022 5:45:00 PM 9.71 49.478 0.081 7.42 1.23 11.21
10/22/2022 6:00:00 PM 9.7 49.46 0.081 7.45 1.27 11.15
10/22/2022 6:15:00 PM 9.67 49.406 0.081 7.37 1.29 11.04
10/22/2022 6:30:00 PM 9.64 49.352 0.082 7.4 1.27 10.98
10/22/2022 6:45:00 PM 9.59 49.262 0.082 7.3 1.3 10.88
10/22/2022 7:00:00 PM 9.54 49.172 0.082 7.35 1.3 10.84
10/22/2022 7:15:00 PM 9.47 49.046 0.082 7.33 1.28 10.83
10/22/2022 7:30:00 PM 9.41 48.938 0.082 7.22 1.31 10.81
10/22/2022 7:45:00 PM 9.36 48.848 0.083 7.29 1.48 10.81
10/22/2022 8:00:00 PM 9.31 48.758 0.083 7.21 1.28 10.82
10/22/2022 8:15:00 PM 9.25 48.65 0.083 7.22 1.39 10.83
10/22/2022 8:30:00 PM 9.19 48.542 0.083 7.22 1.39 10.85
10/22/2022 8:45:00 PM 9.13 48.434 0.083 7.25 1.62 10.85
10/22/2022 9:00:00 PM 9.05 48.29 0.083 7.25 1.3 10.84
10/22/2022 9:15:00 PM 8.99 48.182 0.083 7.22 1.34 10.9
10/22/2022 9:30:00 PM 8.93 48.074 0.083 7.24 1.37 10.91
10/22/2022 9:45:00 PM 8.86 47.948 0.083 7.22 1.38 10.93
10/22/2022 10:00:00 PM 8.79 47.822 0.083 7.21 1.42 10.96
10/22/2022 10:15:00 PM 8.72 47.696 0.083 7.17 1.29 10.99
10/22/2022 10:30:00 PM 8.65 47.57 0.083 7.21 1.36 10.98
10/22/2022 10:45:00 PM 8.57 47.426 0.083 7.15 1.35 11.03
10/22/2022 11:00:00 PM 8.5 47.3 0.083 7.16 1.36 11.04
10/22/2022 11:15:00 PM 8.41 47.138 0.083 7.21 1.31 11.06
10/22/2022 11:30:00 PM 8.32 46.976 0.083 7.12 1.28 11.11
10/22/2022 11:45:00 PM 8.25 46.85 0.083 7.21 1.35 11.16
10/23/2022 12:00:00 AM 8.18 46.724 0.083 7.2 1.41 11.17
10/23/2022 12:15:00 AM 8.09 46.562 0.083 7.12 1.35 11.18
10/23/2022 12:30:00 AM 8.02 46.436 0.084 7.14 1.33 11.19
10/23/2022 12:45:00 AM 7.94 46.292 0.084 7.14 1.28 11.24
10/23/2022 1:00:00 AM 7.87 46.166 0.084 7.17 1.38 11.27
10/23/2022 1:15:00 AM 7.82 46.076 0.084 7.17 1.39 11.25
10/23/2022 1:30:00 AM 7.76 45.968 0.084 7.11 1.35 11.27
10/23/2022 1:45:00 AM 7.68 45.824 0.084 7.15 1.43 11.3
10/23/2022 2:00:00 AM 7.62 45.716 0.084 7.11 1.4 11.33
10/23/2022 2:15:00 AM 7.54 45.572 0.084 7.14 1.36 11.36
10/23/2022 2:30:00 AM 7.49 45.482 0.084 7.11 1.34 11.36
10/23/2022 2:45:00 AM 7.42 45.356 0.084 7.16 1.35 11.4
10/23/2022 3:00:00 AM 7.36 45.248 0.084 7.08 1.34 11.42
10/23/2022 3:15:00 AM 7.3 45.14 0.084 7.15 1.34 11.44
10/23/2022 3:30:00 AM 7.24 45.032 0.084 7.08 1.33 11.47
10/23/2022 3:45:00 AM 7.17 44.906 0.084 7.14 1.45 11.49
10/23/2022 4:00:00 AM 7.1 44.78 0.084 7.13 1.34 11.5
10/23/2022 4:15:00 AM 7.04 44.672 0.084 7.08 1.31 11.53
10/23/2022 4:30:00 AM 6.97 44.546 0.084 7.14 1.29 11.55
10/23/2022 4:45:00 AM 6.92 44.456 0.084 7.1 1.29 11.53
10/23/2022 5:00:00 AM 6.85 44.33 0.084 7.07 1.32 11.57
10/23/2022 5:15:00 AM 6.79 44.222 0.084 7.11 1.37 11.59
10/23/2022 5:30:00 AM 6.74 44.132 0.084 7.02 1.26 11.59
10/23/2022 5:45:00 AM 6.69 44.042 0.084 7.1 1.35 11.65
10/23/2022 6:00:00 AM 6.63 43.934 0.084 7 1.28 11.64
10/23/2022 6:15:00 AM 6.59 43.862 0.084 7.07 1.36 11.64
10/23/2022 6:30:00 AM 6.52 43.736 0.084 7 1.3 11.73
10/23/2022 6:45:00 AM 6.48 43.664 0.084 7.02 1.28 11.73
10/23/2022 7:00:00 AM 6.43 43.574 0.084 7.06 1.29 11.74
10/23/2022 7:15:00 AM 6.38 43.484 0.084 7.02 1.29 11.74
10/23/2022 7:30:00 AM 6.32 43.376 0.084 7.07 1.28 11.78
10/23/2022 7:45:00 AM 6.29 43.322 0.084 7.07 1.86 11.83
10/23/2022 8:00:00 AM 6.26 43.268 0.084 7.02 1.47 11.89
10/23/2022 8:15:00 AM 6.24 43.232 0.084 7.11 1.44 12.03
10/23/2022 8:30:00 AM 6.23 43.214 0.084 7.06 2.22 12.21
10/23/2022 8:45:00 AM 6.24 43.232 0.084 7.15 1.42 12.37
10/23/2022 9:00:00 AM 6.26 43.268 0.083 7.15 1.36 12.53
10/23/2022 9:15:00 AM 6.28 43.304 0.083 7.25 1.29 12.8
10/23/2022 9:30:00 AM 6.33 43.394 0.083 7.3 1.37 12.87
10/23/2022 9:45:00 AM 6.4 43.52 0.083 7.34 1.32 12.98
10/23/2022 10:00:00 AM 6.5 43.7 0.082 7.37 1.35 13.04
10/23/2022 10:15:00 AM 6.59 43.862 0.082 7.43 1.36 13.12
10/23/2022 10:30:00 AM 6.7 44.06 0.082 7.49 1.27 13.15
10/23/2022 10:45:00 AM 6.83 44.294 0.082 7.55 1.29 13.15
10/23/2022 11:00:00 AM 6.96 44.528 0.082 7.6 1.31 13.12
10/23/2022 11:15:00 AM 7.11 44.798 0.081 7.59 1.34 13.14
10/23/2022 11:30:00 AM 7.29 45.122 0.081 7.69 1.29 13.12
10/23/2022 11:45:00 AM 7.47 45.446 0.081 7.68 1.22 13.07
10/23/2022 12:00:00 PM 7.64 45.752 0.081 7.78 1.3 13.06
10/23/2022 12:15:00 PM 7.81 46.058 0.081 7.88 1.35 13.01
10/23/2022 12:30:00 PM 7.96 46.328 0.081 7.83 1.31 12.95
10/23/2022 12:45:00 PM 8.1 46.58 0.081 7.9 1.29 12.88
10/23/2022 1:00:00 PM 8.23 46.814 0.081 7.94 1.29 12.85
10/23/2022 1:15:00 PM 8.37 47.066 0.081 7.96 1.28 12.82
10/23/2022 1:30:00 PM 8.56 47.408 0.08 8.05 1.27 12.76
10/23/2022 1:45:00 PM 8.74 47.732 0.08 8.01 1.29 12.68
10/23/2022 2:00:00 PM 8.94 48.092 0.08 8.09 1.24 12.67
10/23/2022 2:15:00 PM 9.12 48.416 0.08 8.15 1.22 12.53
10/23/2022 2:30:00 PM 9.25 48.65 0.08 8.09 1.24 12.5
10/23/2022 2:45:00 PM 9.36 48.848 0.08 8.18 1.26 12.47
10/23/2022 3:00:00 PM 9.46 49.028 0.08 8.17 1.31 12.39
10/23/2022 3:15:00 PM 9.58 49.244 0.08 8.17 1.26 12.41
10/23/2022 3:30:00 PM 9.64 49.352 0.08 8.19 1.33 12.33
10/23/2022 3:45:00 PM 9.71 49.478 0.08 8.18 1.42 12.2
10/23/2022 4:00:00 PM 9.8 49.64 0.079 8.24 4.84 12.14
10/23/2022 4:15:00 PM 9.88 49.784 0.079 8.17 1.25 12
10/23/2022 4:30:00 PM 9.97 49.946 0.08 8.06 1.28 11.94
10/23/2022 4:45:00 PM 10.04 50.072 0.08 8.07 1.41 11.83
10/23/2022 5:00:00 PM 10.07 50.126 0.08 7.88 1.39 11.59
10/23/2022 5:15:00 PM 10.09 50.162 0.08 7.72 1.25 11.43
10/23/2022 5:30:00 PM 10.09 50.162 0.081 7.65 1.35 11.27
10/23/2022 5:45:00 PM 10.07 50.126 0.081 7.61 1.26 11.16
10/23/2022 6:00:00 PM 10.05 50.09 0.081 7.56 1.31 11.04
10/23/2022 6:15:00 PM 10.04 50.072 0.081 7.47 1.24 10.94
10/23/2022 6:30:00 PM 10.03 50.054 0.082 7.42 1.27 10.87
10/23/2022 6:45:00 PM 10.02 50.036 0.082 7.42 1.31 10.74
10/23/2022 7:00:00 PM 10.01 50.018 0.082 7.31 1.34 10.71
10/23/2022 7:15:00 PM 10.01 50.018 0.083 7.36 1.51 10.68
10/23/2022 7:30:00 PM 10 50 0.083 7.28 1.55 10.63
10/23/2022 7:45:00 PM 10 50 0.083 7.32 1.28 10.64
10/23/2022 8:00:00 PM 9.99 49.982 0.083 7.22 1.38 10.64
10/23/2022 8:15:00 PM 9.99 49.982 0.083 7.28 1.42 10.66
10/23/2022 8:30:00 PM 9.99 49.982 0.084 7.2 1.34 10.6
10/23/2022 8:45:00 PM 9.99 49.982 0.084 7.26 1.28 10.62
10/23/2022 9:00:00 PM 9.99 49.982 0.084 7.24 1.32 10.59
10/23/2022 9:15:00 PM 9.99 49.982 0.084 7.24 1.35 10.6
10/23/2022 9:30:00 PM 9.98 49.964 0.084 7.15 1.37 10.59
10/23/2022 9:45:00 PM 9.97 49.946 0.084 7.19 1.32 10.58
10/23/2022 10:00:00 PM 9.96 49.928 0.084 7.14 1.39 10.55
10/23/2022 10:15:00 PM 9.95 49.91 0.084 7.17 1.36 10.6
10/23/2022 10:30:00 PM 9.94 49.892 0.084 7.21 1.39 10.6
10/23/2022 10:45:00 PM 9.92 49.856 0.084 7.11 1.39 10.6
10/23/2022 11:00:00 PM 9.89 49.802 0.084 7.2 1.44 10.61
10/23/2022 11:15:00 PM 9.88 49.784 0.084 7.11 1.36 10.6
10/23/2022 11:30:00 PM 9.86 49.748 0.084 7.19 1.34 10.62
10/23/2022 11:45:00 PM 9.84 49.712 0.084 7.19 1.34 10.62
10/24/2022 12:00:00 AM 9.82 49.676 0.085 7.18 1.53 10.66
10/24/2022 12:15:00 AM 9.8 49.64 0.085 7.11 1.56 10.61
10/24/2022 12:30:00 AM 9.77 49.586 0.085 7.18 1.39 10.65
10/24/2022 12:45:00 AM 9.75 49.55 0.085 7.18 1.35 10.66
10/24/2022 1:00:00 AM 9.73 49.514 0.085 7.17 1.35 10.67
10/24/2022 1:15:00 AM 9.72 49.496 0.085 7.16 1.38 10.69
10/24/2022 1:30:00 AM 9.72 49.496 0.085 7.17 1.31 10.65
10/24/2022 1:45:00 AM 9.71 49.478 0.085 7.18 1.47 10.7
10/24/2022 2:00:00 AM 9.71 49.478 0.085 7.09 1.33 10.66
10/24/2022 2:15:00 AM 9.71 49.478 0.085 7.15 1.42 10.68
10/24/2022 2:30:00 AM 9.71 49.478 0.085 7.17 1.37 10.7
10/24/2022 2:45:00 AM 9.7 49.46 0.085 7.16 1.4 10.67
10/24/2022 3:00:00 AM 9.7 49.46 0.085 7.17 1.44 10.66
10/24/2022 3:15:00 AM 9.7 49.46 0.085 7.15 1.39 10.69
10/24/2022 3:30:00 AM 9.71 49.478 0.085 7.09 1.32 10.68
10/24/2022 3:45:00 AM 9.7 49.46 0.085 7.15 1.47 10.67
10/24/2022 4:00:00 AM 9.71 49.478 0.085 7.16 1.45 10.7
10/24/2022 4:15:00 AM 9.71 49.478 0.084 7.15 1.46 10.68
10/24/2022 4:30:00 AM 9.71 49.478 0.084 7.15 1.39 10.67
10/24/2022 4:45:00 AM 9.72 49.496 0.084 7.14 1.32 10.66
10/24/2022 5:00:00 AM 9.72 49.496 0.085 7.16 1.36 10.66
10/24/2022 5:15:00 AM 9.72 49.496 0.085 7.08 1.35 10.68
10/24/2022 5:30:00 AM 9.72 49.496 0.085 7.15 1.5 10.63
10/24/2022 5:45:00 AM 9.73 49.514 0.085 7.09 1.38 10.7
10/24/2022 6:00:00 AM 9.73 49.514 0.084 7.16 1.75 10.61
10/24/2022 6:15:00 AM 9.75 49.55 0.082 7.16 1.93 10.63
10/24/2022 6:30:00 AM 9.75 49.55 0.082 7.1 1.82 10.66
10/24/2022 6:45:00 AM 9.76 49.568 0.083 7.14 8.72 10.62
10/24/2022 7:00:00 AM 9.76 49.568 0.083 7.16 6.53 10.6
10/24/2022 7:15:00 AM 9.76 49.568 0.083 7.11 3.59 10.64
10/24/2022 7:30:00 AM 9.76 49.568 0.083 7.12 2.65 10.61
10/24/2022 7:45:00 AM 9.76 49.568 0.083 7.11 2.19 10.64
10/24/2022 8:00:00 AM 9.77 49.586 0.083 7.17 1.95 10.69
10/24/2022 8:15:00 AM 9.78 49.604 0.082 7.12 1.86 10.72
10/24/2022 8:30:00 AM 9.79 49.622 0.082 7.14 1.66 10.77
10/24/2022 8:45:00 AM 9.8 49.64 0.083 7.16 1.74 10.83
10/24/2022 9:00:00 AM 9.82 49.676 0.083 7.18 2.14 10.93
10/24/2022 9:15:00 AM 9.85 49.73 0.083 7.23 2.4 11.02
10/24/2022 9:30:00 AM 9.87 49.766 0.083 7.2 2.55 11.2
10/24/2022 9:45:00 AM 9.91 49.838 0.082 7.25 2.39 11.28
10/24/2022 10:00:00 AM 9.96 49.928 0.082 7.33 2.08 11.47
10/24/2022 10:15:00 AM 10 50 0.081 7.35 1.96 11.61
10/24/2022 10:30:00 AM 10.07 50.126 0.081 7.42 1.81 11.79
10/24/2022 10:45:00 AM 10.14 50.252 0.081 7.48 1.82 11.89
10/24/2022 11:00:00 AM 10.21 50.378 0.08 7.49 1.78 11.98
10/24/2022 11:15:00 AM 10.26 50.468 0.08 7.58 2.48 11.97
10/24/2022 11:30:00 AM 10.35 50.63 0.08 7.61 3.12 12.01
10/24/2022 11:45:00 AM 10.47 50.846 0.08 7.74 3.17 12.07
10/24/2022 12:00:00 PM 10.57 51.026 0.08 7.78 3.01 12.16
10/24/2022 12:15:00 PM 10.69 51.242 0.08 7.88 2.58 12.12
10/24/2022 12:30:00 PM 10.79 51.422 0.08 7.96 2.46 12.09
10/24/2022 12:45:00 PM 10.87 51.566 0.08 7.97 2.37 12.11
10/24/2022 1:00:00 PM 10.96 51.728 0.08 8.14 2.42 12.09
10/24/2022 1:15:00 PM 11.02 51.836 0.08 8.19 4.64 12.04
10/24/2022 1:30:00 PM 11.08 51.944 0.08 8.24 2.22 12
10/24/2022 1:45:00 PM 11.13 52.034 0.08 8.2 2.41 11.97
10/24/2022 2:00:00 PM 11.18 52.124 0.08 8.26 2.37 11.87
10/24/2022 2:15:00 PM 11.23 52.214 0.08 8.16 2.18 11.84
10/24/2022 2:30:00 PM 11.32 52.376 0.08 8.32 2.23 11.88
10/24/2022 2:45:00 PM 11.39 52.502 0.08 8.34 2.45 11.82
10/24/2022 3:00:00 PM 11.48 52.664 0.08 8.36 2.34 11.85
10/24/2022 3:15:00 PM 11.55 52.79 0.08 8.43 2.29 11.84
10/24/2022 3:30:00 PM 11.6 52.88 0.08 8.38 2.07 11.8
10/24/2022 3:45:00 PM 11.64 52.952 0.08 8.44 1.99 11.73
10/24/2022 4:00:00 PM 11.68 53.024 0.08 8.47 1.9 11.7
10/24/2022 4:15:00 PM 11.75 53.15 0.08 8.45 2.02 11.7
10/24/2022 4:30:00 PM 11.79 53.222 0.08 8.44 1.85 11.63
10/24/2022 4:45:00 PM 11.82 53.276 0.08 8.39 1.87 11.52
10/24/2022 5:00:00 PM 11.84 53.312 0.08 8.23 1.68 11.36
10/24/2022 5:15:00 PM 11.87 53.366 0.08 8.12 1.61 11.25
10/24/2022 5:30:00 PM 11.9 53.42 0.08 8.04 1.77 11.08
10/24/2022 5:45:00 PM 11.93 53.474 0.08 7.86 1.91 10.95
10/24/2022 6:00:00 PM 11.91 53.438 0.081 7.79 2.81 10.76
10/24/2022 6:15:00 PM 11.88 53.384 0.081 7.69 1.93 10.6
10/24/2022 6:30:00 PM 11.85 53.33 0.081 7.62 1.63 10.48
10/24/2022 6:45:00 PM 11.82 53.276 0.082 7.58 1.61 10.4
10/24/2022 7:00:00 PM 11.8 53.24 0.082 7.52 1.7 10.32
10/24/2022 7:15:00 PM 11.77 53.186 0.082 7.48 1.62 10.29
10/24/2022 7:30:00 PM 11.75 53.15 0.082 7.38 1.82 10.27
10/24/2022 7:45:00 PM 11.72 53.096 0.082 7.41 1.65 10.26
10/24/2022 8:00:00 PM 11.71 53.078 0.082 7.39 1.65 10.24
10/24/2022 8:15:00 PM 11.69 53.042 0.082 7.36 1.6 10.23
10/24/2022 8:30:00 PM 11.69 53.042 0.082 7.28 1.65 10.23
10/24/2022 8:45:00 PM 11.68 53.024 0.082 7.3 1.61 10.24
10/24/2022 9:00:00 PM 11.67 53.006 0.082 7.27 1.59 10.24
10/24/2022 9:15:00 PM 11.66 52.988 0.082 7.32 1.49 10.23
10/24/2022 9:30:00 PM 11.65 52.97 0.082 7.25 1.46 10.25
10/24/2022 9:45:00 PM 11.64 52.952 0.083 7.29 1.69 10.27
10/24/2022 10:00:00 PM 11.63 52.934 0.083 7.31 1.64 10.26
10/24/2022 10:15:00 PM 11.62 52.916 0.083 7.24 1.54 10.26
10/24/2022 10:30:00 PM 11.61 52.898 0.083 7.25 1.58 10.27
10/24/2022 10:45:00 PM 11.59 52.862 0.083 7.27 1.51 10.26
10/24/2022 11:00:00 PM 11.56 52.808 0.083 7.26 1.67 10.28
10/24/2022 11:15:00 PM 11.53 52.754 0.083 7.26 1.52 10.3
10/24/2022 11:30:00 PM 11.5 52.7 0.083 7.23 1.48 10.3
10/24/2022 11:45:00 PM 11.47 52.646 0.083 7.26 1.51 10.32
10/25/2022 12:00:00 AM 11.46 52.628 0.083 7.28 1.55 10.31
10/25/2022 12:15:00 AM 11.45 52.61 0.083 7.29 1.62 10.33
10/25/2022 12:30:00 AM 11.44 52.592 0.083 7.2 1.81 10.29
10/25/2022 12:45:00 AM 11.43 52.574 0.083 7.3 1.74 10.33
10/25/2022 1:00:00 AM 11.42 52.556 0.083 7.27 1.49 10.33
10/25/2022 1:15:00 AM 11.41 52.538 0.083 7.28 1.64 10.35
10/25/2022 1:30:00 AM 11.4 52.52 0.083 7.29 1.62 10.32
10/25/2022 1:45:00 AM 11.39 52.502 0.083 7.26 1.51 10.36
10/25/2022 2:00:00 AM 11.39 52.502 0.083 7.28 1.53 10.34
10/25/2022 2:15:00 AM 11.38 52.484 0.083 7.28 1.47 10.34
10/25/2022 2:30:00 AM 11.36 52.448 0.083 7.27 1.52 10.35
10/25/2022 2:45:00 AM 11.35 52.43 0.083 7.21 1.44 10.36
10/25/2022 3:00:00 AM 11.33 52.394 0.083 7.23 1.48 10.35
10/25/2022 3:15:00 AM 11.31 52.358 0.083 7.24 1.47 10.36
10/25/2022 3:30:00 AM 11.31 52.358 0.083 7.23 1.44 10.36
10/25/2022 3:45:00 AM 11.3 52.34 0.083 7.19 1.57 10.35
10/25/2022 4:00:00 AM 11.29 52.322 0.083 7.17 1.51 10.35
10/25/2022 4:15:00 AM 11.29 52.322 0.083 7.22 1.62 10.36
10/25/2022 4:30:00 AM 11.29 52.322 0.083 7.13 1.5 10.36
10/25/2022 4:45:00 AM 11.27 52.286 0.083 7.21 1.58 10.35
10/25/2022 5:00:00 AM 11.25 52.25 0.083 7.18 1.45 10.37
10/25/2022 5:15:00 AM 11.24 52.232 0.083 7.2 1.58 10.35
10/25/2022 5:30:00 AM 11.22 52.196 0.083 7.13 1.54 10.38
10/25/2022 5:45:00 AM 11.22 52.196 0.083 7.15 1.51 10.37
10/25/2022 6:00:00 AM 11.22 52.196 0.083 7.16 1.45 10.38
10/25/2022 6:15:00 AM 11.22 52.196 0.083 7.2 1.39 10.35
10/25/2022 6:30:00 AM 11.22 52.196 0.083 7.13 1.49 10.37
10/25/2022 6:45:00 AM 11.22 52.196 0.083 7.15 1.48 10.37
10/25/2022 7:00:00 AM 11.21 52.178 0.083 7.2 4.77 10.36
10/25/2022 7:15:00 AM 11.21 52.178 0.083 7.2 1.55 10.37
10/25/2022 7:30:00 AM 11.2 52.16 0.083 7.13 1.5 10.39
10/25/2022 7:45:00 AM 11.2 52.16 0.083 7.2 1.62 10.45
10/25/2022 8:00:00 AM 11.2 52.16 0.083 7.21 1.51 10.5
10/25/2022 8:15:00 AM 11.21 52.178 0.083 7.22 1.51 10.54
10/25/2022 8:30:00 AM 11.22 52.196 0.083 7.16 1.5 10.64
10/25/2022 8:45:00 AM 11.23 52.214 0.083 7.26 1.47 10.8
10/25/2022 9:00:00 AM 11.25 52.25 0.083 7.22 1.57 10.93
10/25/2022 9:15:00 AM 11.28 52.304 0.082 7.3 1.4 11.13
10/25/2022 9:30:00 AM 11.33 52.394 0.082 7.34 1.43 11.32
10/25/2022 9:45:00 AM 11.39 52.502 0.082 7.41 1.39 11.46
10/25/2022 10:00:00 AM 11.47 52.646 0.081 7.51 1.33 11.61
10/25/2022 10:15:00 AM 11.59 52.862 0.081 7.58 1.49 11.72
10/25/2022 10:30:00 AM 11.71 53.078 0.081 7.69 1.44 11.77
10/25/2022 10:45:00 AM 11.81 53.258 0.081 7.71 1.46 11.81
10/25/2022 11:00:00 AM 11.89 53.402 0.08 7.86 1.45 11.78
10/25/2022 11:15:00 AM 11.96 53.528 0.08 7.84 1.33 11.72
10/25/2022 11:30:00 AM 12.08 53.744 0.08 7.97 1.36 11.75
10/25/2022 11:45:00 AM 12.2 53.96 0.08 7.94 1.44 11.75
10/25/2022 12:00:00 PM 12.33 54.194 0.08 8.09 1.31 11.71
10/25/2022 12:15:00 PM 12.44 54.392 0.08 8.18 1.55 11.69
10/25/2022 12:30:00 PM 12.57 54.626 0.08 8.24 1.44 11.64
10/25/2022 12:45:00 PM 12.73 54.914 0.079 8.33 1.38 11.64
10/25/2022 1:00:00 PM 12.86 55.148 0.079 8.36 1.34 11.58
10/25/2022 1:15:00 PM 12.99 55.382 0.079 8.38 1.42 11.56
10/25/2022 1:30:00 PM 13.2 55.76 0.079 8.51 1.41 11.56
10/25/2022 1:45:00 PM 13.42 56.156 0.079 8.56 2.36 11.48
10/25/2022 2:00:00 PM 13.6 56.48 0.079 8.63 1.39 11.43
10/25/2022 2:15:00 PM 13.73 56.714 0.079 8.71 1.27 11.39
10/25/2022 2:30:00 PM 13.84 56.912 0.079 8.73 1.46 11.31
10/25/2022 2:45:00 PM 13.94 57.092 0.079 8.64 1.39 11.2
10/25/2022 3:00:00 PM 14.08 57.344 0.078 8.71 1.45 11.14
10/25/2022 3:15:00 PM 14.19 57.542 0.079 8.74 1.39 11.03
10/25/2022 3:30:00 PM 14.27 57.686 0.079 8.67 1.37 10.89
10/25/2022 3:45:00 PM 14.33 57.794 0.079 8.65 1.43 10.84
10/25/2022 4:00:00 PM 14.37 57.866 0.079 8.47 1.33 10.75
10/25/2022 4:15:00 PM 14.41 57.938 0.079 8.48 1.53 10.68
10/25/2022 4:30:00 PM 14.41 57.938 0.079 8.4 1.36 10.59
10/25/2022 4:45:00 PM 14.39 57.902 0.079 8.19 1.37 10.42
10/25/2022 5:00:00 PM 14.36 57.848 0.08 8.01 1.27 10.3
10/25/2022 5:15:00 PM 14.34 57.812 0.08 7.92 1.5 10.16
10/25/2022 5:30:00 PM 14.3 57.74 0.08 7.79 1.35 10.06
10/25/2022 5:45:00 PM 14.27 57.686 0.081 7.72 1.45 9.98
10/25/2022 6:00:00 PM 14.24 57.632 0.081 7.65 1.3 9.91
10/25/2022 6:15:00 PM 14.2 57.56 0.081 7.6 1.42 9.84
10/25/2022 6:30:00 PM 14.15 57.47 0.082 7.6 1.35 9.74
10/25/2022 6:45:00 PM 14.1 57.38 0.082 7.5 1.33 9.68
10/25/2022 7:00:00 PM 14.06 57.308 0.082 7.45 1.46 9.61
10/25/2022 7:15:00 PM 14.03 57.254 0.082 7.42 1.39 9.59
10/25/2022 7:30:00 PM 14.01 57.218 0.083 7.39 1.48 9.56
10/25/2022 7:45:00 PM 13.98 57.164 0.083 7.4 1.47 9.55
10/25/2022 8:00:00 PM 13.97 57.146 0.083 7.4 1.43 9.54
10/25/2022 8:15:00 PM 13.95 57.11 0.083 7.38 1.41 9.55
10/25/2022 8:30:00 PM 13.94 57.092 0.083 7.31 1.45 9.57
10/25/2022 8:45:00 PM 13.94 57.092 0.083 7.32 1.42 9.5
10/25/2022 9:00:00 PM 13.93 57.074 0.083 7.34 1.5 9.52
10/25/2022 9:15:00 PM 13.94 57.092 0.083 7.29 1.38 9.55
10/25/2022 9:30:00 PM 13.94 57.092 0.083 7.29 1.46 9.54
10/25/2022 9:45:00 PM 13.93 57.074 0.083 7.33 1.47 9.55
10/25/2022 10:00:00 PM 13.92 57.056 0.083 7.32 1.45 9.54
10/25/2022 10:15:00 PM 13.9 57.02 0.083 7.23 1.42 9.57
10/25/2022 10:30:00 PM 13.89 57.002 0.083 7.26 1.56 9.58
10/25/2022 10:45:00 PM 13.86 56.948 0.083 7.24 1.67 9.54
10/25/2022 11:00:00 PM 13.84 56.912 0.083 7.23 1.46 9.54
10/25/2022 11:15:00 PM 13.82 56.876 0.083 7.28 1.47 9.59
10/25/2022 11:30:00 PM 13.79 56.822 0.083 7.19 1.51 9.57
10/25/2022 11:45:00 PM 13.76 56.768 0.083 7.25 1.44 9.57
10/26/2022 12:00:00 AM 13.73 56.714 0.083 7.23 1.51 9.57
10/26/2022 12:15:00 AM 13.7 56.66 0.083 7.24 1.43 9.6
10/26/2022 12:30:00 AM 13.67 56.606 0.083 7.2 1.42 9.6
10/26/2022 12:45:00 AM 13.65 56.57 0.083 7.17 1.48 9.59
10/26/2022 1:00:00 AM 13.6 56.48 0.083 7.19 1.64 9.6
10/26/2022 1:15:00 AM 13.56 56.408 0.083 7.21 1.48 9.57
10/26/2022 1:30:00 AM 13.52 56.336 0.083 7.21 1.55 9.6
10/26/2022 1:45:00 AM 13.48 56.264 0.083 7.21 1.51 9.64
10/26/2022 2:00:00 AM 13.44 56.192 0.084 7.21 1.63 9.63
10/26/2022 2:15:00 AM 13.41 56.138 0.084 7.16 1.54 9.66
10/26/2022 2:30:00 AM 13.38 56.084 0.084 7.21 1.5 9.66
10/26/2022 2:45:00 AM 13.37 56.066 0.084 7.21 1.54 9.64
10/26/2022 3:00:00 AM 13.36 56.048 0.084 7.15 1.63 9.68
10/26/2022 3:15:00 AM 13.34 56.012 0.084 7.2 1.52 9.68
10/26/2022 3:30:00 AM 13.34 56.012 0.083 7.13 1.43 9.65
10/26/2022 3:45:00 AM 13.33 55.994 0.083 7.2 1.46 9.66
10/26/2022 4:00:00 AM 13.32 55.976 0.083 7.2 1.42 9.66
10/26/2022 4:15:00 AM 13.32 55.976 0.083 7.12 1.51 9.66
10/26/2022 4:30:00 AM 13.3 55.94 0.083 7.19 1.48 9.68
10/26/2022 4:45:00 AM 13.27 55.886 0.084 7.12 1.59 9.65
10/26/2022 5:00:00 AM 13.25 55.85 0.084 7.13 1.59 9.65
10/26/2022 5:15:00 AM 13.24 55.832 0.084 7.14 1.54 9.69
10/26/2022 5:30:00 AM 13.24 55.832 0.084 7.15 1.75 9.69
10/26/2022 5:45:00 AM 13.24 55.832 0.083 7.19 1.45 9.7
10/26/2022 6:00:00 AM 13.23 55.814 0.083 7.18 1.51 9.65
10/26/2022 6:15:00 AM 13.23 55.814 0.083 7.15 1.59 9.68
10/26/2022 6:30:00 AM 13.22 55.796 0.083 7.18 1.51 9.68
10/26/2022 6:45:00 AM 13.22 55.796 0.083 7.16 1.56 9.69
10/26/2022 7:00:00 AM 13.22 55.796 0.083 7.13 1.56 9.67
10/26/2022 7:15:00 AM 13.23 55.814 0.083 7.13 1.59 9.67
10/26/2022 7:30:00 AM 13.23 55.814 0.083 7.14 1.55 9.7
10/26/2022 7:45:00 AM 13.22 55.796 0.083 7.19 1.47 9.72
10/26/2022 8:00:00 AM 13.22 55.796 0.083 7.13 1.56 9.79
10/26/2022 8:15:00 AM 13.23 55.814 0.083 7.16 1.56 9.85
10/26/2022 8:30:00 AM 13.24 55.832 0.083 7.22 1.49 9.97
10/26/2022 8:45:00 AM 13.27 55.886 0.083 7.21 1.5 10.2
10/26/2022 9:00:00 AM 13.3 55.94 0.083 7.29 1.5 10.26
10/26/2022 9:15:00 AM 13.33 55.994 0.083 7.27 1.46 10.39
10/26/2022 9:30:00 AM 13.37 56.066 0.083 7.37 1.52 10.42
10/26/2022 9:45:00 AM 13.42 56.156 0.082 7.42 1.59 10.59
10/26/2022 10:00:00 AM 13.46 56.228 0.078 7.41 3.78 10.56
10/26/2022 10:15:00 AM 13.5 56.3 0.082 7.45 1.49 10.65
10/26/2022 10:30:00 AM 13.55 56.39 0.082 7.52 1.44 10.68
10/26/2022 10:45:00 AM 13.6 56.48 0.082 7.57 1.47 10.79
10/26/2022 11:00:00 AM 13.67 56.606 0.081 7.61 1.42 10.94
10/26/2022 11:15:00 AM 13.7 56.66 0.081 7.63 1.62 10.9
10/26/2022 11:30:00 AM 13.78 56.804 0.081 7.78 1.51 11.01
10/26/2022 11:45:00 AM 13.82 56.876 0.081 7.8 1.5 10.93
10/26/2022 12:00:00 PM 13.89 57.002 0.08 7.84 1.49 11.05
10/26/2022 12:15:00 PM 13.98 57.164 0.08 8.01 1.68 11.13
10/26/2022 12:30:00 PM 14.09 57.362 0.08 8.15 1.92 11.17
10/26/2022 12:45:00 PM 14.23 57.614 0.08 8.2 1.85 11.22
10/26/2022 1:00:00 PM 14.47 58.046 0.08 8.41 1.61 11.24
10/26/2022 1:15:00 PM 14.67 58.406 0.08 8.43 1.55 11.18
10/26/2022 1:30:00 PM 14.88 58.784 0.079 8.55 1.54 11.16
10/26/2022 1:45:00 PM 15.05 59.09 0.079 8.65 1.47 11.06
10/26/2022 2:00:00 PM 15 59 0.079 8.57 1.55 10.8
10/26/2022 2:15:00 PM 15.04 59.072 0.079 8.57 1.64 10.78
10/26/2022 2:30:00 PM 15.05 59.09 0.079 8.61 1.51 10.75
10/26/2022 2:45:00 PM 15.11 59.198 0.079 8.55 1.53 10.54
10/26/2022 3:00:00 PM 15.14 59.252 0.08 8.45 1.64 10.41
10/26/2022 3:15:00 PM 15.11 59.198 0.08 8.25 1.55 10.24
10/26/2022 3:30:00 PM 15.05 59.09 0.08 8.16 1.61 10.25
10/26/2022 3:45:00 PM 15 59 0.08 8.12 1.5 10.28
10/26/2022 4:00:00 PM 14.94 58.892 0.08 8.06 1.56 10.28
10/26/2022 4:15:00 PM 14.91 58.838 0.08 8.05 1.51 10.32
10/26/2022 4:30:00 PM 14.87 58.766 0.08 7.97 1.63 10.25
10/26/2022 4:45:00 PM 14.86 58.748 0.08 7.94 1.59 10.16
10/26/2022 5:00:00 PM 14.83 58.694 0.08 7.81 1.62 10.04
10/26/2022 5:15:00 PM 14.81 58.658 0.081 7.76 1.71 9.96
10/26/2022 5:30:00 PM 14.78 58.604 0.081 7.75 1.71 9.86
10/26/2022 5:45:00 PM 14.76 58.568 0.081 7.69 1.64 9.79
10/26/2022 6:00:00 PM 14.73 58.514 0.081 7.63 1.6 9.67
10/26/2022 6:15:00 PM 14.69 58.442 0.082 7.59 1.55 9.59
10/26/2022 6:30:00 PM 14.63 58.334 0.082 7.48 1.81 9.54
10/26/2022 6:45:00 PM 14.57 58.226 0.082 7.48 1.73 9.52
10/26/2022 7:00:00 PM 14.5 58.1 0.082 7.45 1.85 9.51
10/26/2022 7:15:00 PM 14.43 57.974 0.082 7.47 1.95 9.51
10/26/2022 7:30:00 PM 14.37 57.866 0.082 7.45 1.8 9.51
10/26/2022 7:45:00 PM 14.31 57.758 0.082 7.36 1.89 9.52
10/26/2022 8:00:00 PM 14.25 57.65 0.083 7.42 1.84 9.53
10/26/2022 8:15:00 PM 14.19 57.542 0.083 7.34 1.87 9.54
10/26/2022 8:30:00 PM 14.11 57.398 0.083 7.36 2.28 9.57
10/26/2022 8:45:00 PM 14.03 57.254 0.083 7.38 1.8 9.59
10/26/2022 9:00:00 PM 13.95 57.11 0.083 7.38 1.89 9.61
10/26/2022 9:15:00 PM 13.87 56.966 0.083 7.37 1.83 9.62
10/26/2022 9:30:00 PM 13.8 56.84 0.083 7.36 1.97 9.64
10/26/2022 9:45:00 PM 13.72 56.696 0.083 7.34 1.99 9.65
10/26/2022 10:00:00 PM 13.64 56.552 0.083 7.35 1.87 9.69
10/26/2022 10:15:00 PM 13.57 56.426 0.083 7.34 2.01 9.72
10/26/2022 10:30:00 PM 13.51 56.318 0.083 7.27 1.92 9.74
10/26/2022 10:45:00 PM 13.45 56.21 0.083 7.33 2.14 9.76
10/26/2022 11:00:00 PM 13.39 56.102 0.083 7.33 1.85 9.78
10/26/2022 11:15:00 PM 13.34 56.012 0.083 7.32 3.7 9.79
10/26/2022 11:30:00 PM 13.29 55.922 0.083 7.24 1.98 9.81
10/26/2022 11:45:00 PM 13.25 55.85 0.082 7.31 2.03 9.82
10/27/2022 12:00:00 AM 13.21 55.778 0.082 7.24 1.89 9.83
10/27/2022 12:15:00 AM 13.16 55.688 0.082 7.26 1.83 9.85
10/27/2022 12:30:00 AM 13.11 55.598 0.082 7.26 1.96 9.86
10/27/2022 12:45:00 AM 13.07 55.526 0.082 7.3 1.96 9.88
10/27/2022 1:00:00 AM 13.03 55.454 0.082 7.23 1.93 9.88
10/27/2022 1:15:00 AM 12.99 55.382 0.082 7.25 1.97 9.9
10/27/2022 1:30:00 AM 12.95 55.31 0.082 7.25 1.91 9.91
10/27/2022 1:45:00 AM 12.91 55.238 0.082 7.28 1.96 9.92
10/27/2022 2:00:00 AM 12.87 55.166 0.082 7.25 1.93 9.94
10/27/2022 2:15:00 AM 12.84 55.112 0.082 7.27 1.85 9.94
10/27/2022 2:30:00 AM 12.8 55.04 0.082 7.29 1.91 9.96
10/27/2022 2:45:00 AM 12.76 54.968 0.082 7.21 2.01 9.97
10/27/2022 3:00:00 AM 12.71 54.878 0.082 7.28 1.91 9.99
10/27/2022 3:15:00 AM 12.64 54.752 0.082 7.26 1.93 10
10/27/2022 3:30:00 AM 12.58 54.644 0.082 7.19 2.17 10.02
10/27/2022 3:45:00 AM 12.51 54.518 0.082 7.2 1.93 10.03
10/27/2022 4:00:00 AM 12.45 54.41 0.082 7.19 2.02 10.06
10/27/2022 4:15:00 AM 12.38 54.284 0.082 7.22 1.88 10.07
10/27/2022 4:30:00 AM 12.32 54.176 0.082 7.21 2.05 10.09
10/27/2022 4:45:00 AM 12.23 54.014 0.082 7.21 1.98 10.12
10/27/2022 5:00:00 AM 12.17 53.906 0.082 7.14 2.15 10.14
10/27/2022 5:15:00 AM 12.12 53.816 0.082 7.15 1.93 10.15
10/27/2022 5:30:00 AM 12.07 53.726 0.082 7.2 1.9 10.17
10/27/2022 5:45:00 AM 12.01 53.618 0.082 7.14 1.97 10.2
10/27/2022 6:00:00 AM 11.97 53.546 0.082 7.2 2.08 10.22
10/27/2022 6:15:00 AM 11.9 53.42 0.082 7.2 2 10.23
10/27/2022 6:30:00 AM 11.83 53.294 0.082 7.18 1.96 10.25
10/27/2022 6:45:00 AM 11.77 53.186 0.082 7.18 2.01 10.27
10/27/2022 7:00:00 AM 11.7 53.06 0.082 7.17 2.03 10.29
10/27/2022 7:15:00 AM 11.63 52.934 0.082 7.17 2 10.32
10/27/2022 7:30:00 AM 11.57 52.826 0.082 7.21 1.93 10.35
10/27/2022 7:45:00 AM 11.51 52.718 0.082 7.21 1.98 10.39
10/27/2022 8:00:00 AM 11.45 52.61 0.082 7.21 1.93 10.45
10/27/2022 8:15:00 AM 11.4 52.52 0.082 7.24 1.84 10.55
10/27/2022 8:30:00 AM 11.35 52.43 0.082 7.26 1.9 10.64
10/27/2022 8:45:00 AM 11.3 52.34 0.081 7.21 1.88 10.7
10/27/2022 9:00:00 AM 11.26 52.268 0.081 7.3 1.75 10.81
10/27/2022 9:15:00 AM 11.23 52.214 0.081 7.34 2.09 10.97
10/27/2022 9:30:00 AM 11.22 52.196 0.081 7.34 1.82 11.14
10/27/2022 9:45:00 AM 11.19 52.142 0.081 7.43 1.75 11.27
10/27/2022 10:00:00 AM 11.19 52.142 0.08 7.45 1.67 11.38
10/27/2022 10:15:00 AM 11.19 52.142 0.08 7.53 1.77 11.52
10/27/2022 10:30:00 AM 11.2 52.16 0.08 7.64 1.68 11.65
10/27/2022 10:45:00 AM 11.19 52.142 0.08 7.73 1.79 11.73
10/27/2022 11:00:00 AM 11.21 52.178 0.08 7.77 1.6 11.84
10/27/2022 11:15:00 AM 11.27 52.286 0.079 7.93 1.68 11.92
10/27/2022 11:30:00 AM 11.32 52.376 0.079 8 1.66 11.97
10/27/2022 11:45:00 AM 11.37 52.466 0.079 8.13 1.68 12
10/27/2022 12:00:00 PM 11.43 52.574 0.079 8.22 1.68 12
10/27/2022 12:15:00 PM 11.54 52.772 0.079 8.3 1.71 12.02
10/27/2022 12:30:00 PM 11.61 52.898 0.079 8.35 1.6 11.99
10/27/2022 12:45:00 PM 11.68 53.024 0.079 8.43 1.6 11.97
10/27/2022 1:00:00 PM 11.67 53.006 0.078 8.5 1.61 11.97
10/27/2022 1:15:00 PM 11.72 53.096 0.078 8.56 1.61 11.91
10/27/2022 1:30:00 PM 11.82 53.276 0.078 8.52 1.62 11.84
10/27/2022 1:45:00 PM 11.93 53.474 0.078 8.59 1.65 11.79
10/27/2022 2:00:00 PM 12 53.6 0.078 8.6 1.7 11.73
10/27/2022 2:15:00 PM 12 53.6 0.078 8.6 1.68 11.65
10/27/2022 2:30:00 PM 11.97 53.546 0.078 8.56 1.75 11.6
10/27/2022 2:45:00 PM 11.96 53.528 0.078 8.52 1.9 11.54
10/27/2022 3:00:00 PM 11.95 53.51 0.078 8.42 1.63 11.49
10/27/2022 3:15:00 PM 11.92 53.456 0.078 8.38 1.65 11.44
10/27/2022 3:30:00 PM 11.9 53.42 0.079 8.3 1.63 11.41
10/27/2022 3:45:00 PM 11.84 53.312 0.079 8.25 1.59 11.37
10/27/2022 4:00:00 PM 11.79 53.222 0.079 8.18 1.53 11.31
10/27/2022 4:15:00 PM 11.71 53.078 0.079 8.06 1.47 11.21
10/27/2022 4:30:00 PM 11.62 52.916 0.079 7.94 1.52 11.18
10/27/2022 4:45:00 PM 11.54 52.772 0.079 7.89 1.58 11.1
10/27/2022 5:00:00 PM 11.47 52.646 0.079 7.79 1.53 11.02
10/27/2022 5:15:00 PM 11.41 52.538 0.08 7.78 1.48 10.97
10/27/2022 5:30:00 PM 11.35 52.43 0.08 7.71 1.55 10.92
10/27/2022 5:45:00 PM 11.3 52.34 0.08 7.64 1.53 10.89
10/27/2022 6:00:00 PM 11.23 52.214 0.08 7.64 1.59 10.83
10/27/2022 6:15:00 PM 11.15 52.07 0.08 7.54 1.47 10.77
10/27/2022 6:30:00 PM 11.07 51.926 0.081 7.5 1.6 10.7
10/27/2022 6:45:00 PM 10.99 51.782 0.081 7.49 1.59 10.66
10/27/2022 7:00:00 PM 10.92 51.656 0.081 7.46 1.65 10.64
10/27/2022 7:15:00 PM 10.85 51.53 0.081 7.34 1.65 10.63
10/27/2022 7:30:00 PM 10.78 51.404 0.081 7.38 1.69 10.64
10/27/2022 7:45:00 PM 10.71 51.278 0.081 7.35 1.61 10.63
10/27/2022 8:00:00 PM 10.62 51.116 0.081 7.3 1.65 10.66
10/27/2022 8:15:00 PM 10.55 50.99 0.082 7.31 1.73 10.67
10/27/2022 8:30:00 PM 10.46 50.828 0.082 7.32 1.59 10.69
10/27/2022 8:45:00 PM 10.39 50.702 0.082 7.25 1.57 10.7
10/27/2022 9:00:00 PM 10.28 50.504 0.082 7.28 1.84 10.75
10/27/2022 9:15:00 PM 10.19 50.342 0.082 7.24 1.49 10.78
10/27/2022 9:30:00 PM 10.09 50.162 0.082 7.25 1.64 10.81
10/27/2022 9:45:00 PM 10 50 0.082 7.19 1.64 10.82
10/27/2022 10:00:00 PM 9.9 49.82 0.082 7.19 1.63 10.86
10/27/2022 10:15:00 PM 9.8 49.64 0.082 7.21 1.62 10.89
10/27/2022 10:30:00 PM 9.7 49.46 0.082 7.18 1.59 10.92
10/27/2022 10:45:00 PM 9.61 49.298 0.082 7.2 1.76 10.93
10/27/2022 11:00:00 PM 9.51 49.118 0.082 7.18 1.67 10.95
10/27/2022 11:15:00 PM 9.41 48.938 0.082 7.18 1.69 10.99
10/27/2022 11:30:00 PM 9.33 48.794 0.082 7.17 3.36 11.02
10/27/2022 11:45:00 PM 9.24 48.632 0.082 7.16 1.62 11.04
10/28/2022 12:00:00 AM 9.14 48.452 0.082 7.16 1.78 11.08
10/28/2022 12:15:00 AM 9.05 48.29 0.082 7.11 1.54 11.12
10/28/2022 12:30:00 AM 8.96 48.128 0.082 7.15 1.58 11.13
10/28/2022 12:45:00 AM 8.86 47.948 0.083 7.11 1.61 11.18
10/28/2022 1:00:00 AM 8.77 47.786 0.083 7.15 1.64 11.21
10/28/2022 1:15:00 AM 8.68 47.624 0.083 7.09 1.68 11.23
10/28/2022 1:30:00 AM 8.6 47.48 0.083 7.12 1.57 11.24
10/28/2022 1:45:00 AM 8.5 47.3 0.083 7.15 1.55 11.29
10/28/2022 2:00:00 AM 8.43 47.174 0.083 7.08 1.61 11.31
10/28/2022 2:15:00 AM 8.35 47.03 0.083 7.11 1.64 11.33
10/28/2022 2:30:00 AM 8.26 46.868 0.083 7.11 1.61 11.35
10/28/2022 2:45:00 AM 8.19 46.742 0.083 7.1 1.66 11.38
10/28/2022 3:00:00 AM 8.1 46.58 0.083 7.11 1.6 11.43
10/28/2022 3:15:00 AM 8.02 46.436 0.083 7.11 1.6 11.43
10/28/2022 3:30:00 AM 7.95 46.31 0.083 7.14 1.57 11.45
10/28/2022 3:45:00 AM 7.88 46.184 0.083 7.08 1.58 11.46
10/28/2022 4:00:00 AM 7.8 46.04 0.083 7.14 1.6 11.5
10/28/2022 4:15:00 AM 7.74 45.932 0.083 7.15 1.54 11.53
10/28/2022 4:30:00 AM 7.69 45.842 0.083 7.09 1.49 11.53
10/28/2022 4:45:00 AM 7.58 45.644 0.083 7.14 1.61 11.58
10/28/2022 5:00:00 AM 7.52 45.536 0.083 7.12 1.56 11.58
10/28/2022 5:15:00 AM 7.45 45.41 0.083 7.11 1.55 11.61
10/28/2022 5:30:00 AM 7.4 45.32 0.083 7.15 1.6 11.64
10/28/2022 5:45:00 AM 7.37 45.266 0.083 7.1 1.51 11.64
10/28/2022 6:00:00 AM 7.33 45.194 0.083 7.16 1.56 11.65
10/28/2022 6:15:00 AM 7.28 45.104 0.083 7.17 1.55 11.68
10/28/2022 6:30:00 AM 7.25 45.05 0.083 7.12 1.58 11.69
10/28/2022 6:45:00 AM 7.2 44.96 0.083 7.18 1.47 11.71
10/28/2022 7:00:00 AM 7.16 44.888 0.083 7.15 1.5 11.72
10/28/2022 7:15:00 AM 7.12 44.816 0.083 7.2 1.59 11.74
10/28/2022 7:30:00 AM 7.09 44.762 0.083 7.19 1.5 11.74
10/28/2022 7:45:00 AM 7.06 44.708 0.083 7.18 7.33 11.79
10/28/2022 8:00:00 AM 7.03 44.654 0.083 7.18 1.39 11.88
10/28/2022 8:15:00 AM 7 44.6 0.082 7.23 1.29 11.96
10/28/2022 8:30:00 AM 6.99 44.582 0.082 7.23 1.32 12.09
10/28/2022 8:45:00 AM 6.99 44.582 0.082 7.25 1.27 12.22
10/28/2022 9:00:00 AM 6.96 44.528 0.082 7.3 1.29 12.39
10/28/2022 9:15:00 AM 6.96 44.528 0.082 7.38 1.33 12.58
10/28/2022 9:30:00 AM 7 44.6 0.081 7.43 1.24 12.77
10/28/2022 9:45:00 AM 7.01 44.618 0.081 7.47 1.26 12.97
10/28/2022 10:00:00 AM 7.04 44.672 0.081 7.56 1.28 13.08
10/28/2022 10:15:00 AM 7.1 44.78 0.081 7.65 1.21 13.17
10/28/2022 10:30:00 AM 7.18 44.924 0.08 7.68 1.24 13.23
10/28/2022 10:45:00 AM 7.28 45.104 0.08 7.79 1.24 13.25
10/28/2022 11:00:00 AM 7.41 45.338 0.08 7.87 1.18 13.24
10/28/2022 11:15:00 AM 7.54 45.572 0.08 7.94 1.21 13.24
10/28/2022 11:30:00 AM 7.68 45.824 0.08 7.94 1.22 13.19
10/28/2022 11:45:00 AM 7.89 46.202 0.08 8.06 1.22 13.17
10/28/2022 12:00:00 PM 8.1 46.58 0.08 8.15 1.28 13.13
10/28/2022 12:15:00 PM 8.32 46.976 0.079 8.18 1.17 13.07
10/28/2022 12:30:00 PM 8.5 47.3 0.079 8.24 1.21 13.01
10/28/2022 12:45:00 PM 8.7 47.66 0.079 8.24 1.25 12.92
10/28/2022 1:00:00 PM 8.86 47.948 0.079 8.32 1.25 12.87
10/28/2022 1:15:00 PM 9.01 48.218 0.079 8.34 1.26 12.81
10/28/2022 1:30:00 PM 9.14 48.452 0.079 8.37 1.23 12.77
10/28/2022 1:45:00 PM 9.24 48.632 0.079 8.38 1.18 12.69
10/28/2022 2:00:00 PM 9.35 48.83 0.079 8.37 1.19 12.62
10/28/2022 2:15:00 PM 9.43 48.974 0.079 8.42 1.26 12.55
10/28/2022 2:30:00 PM 9.47 49.046 0.079 8.37 1.21 12.48
10/28/2022 2:45:00 PM 9.49 49.082 0.079 8.35 1.19 12.42
10/28/2022 3:00:00 PM 9.48 49.064 0.079 8.3 1.22 12.36
10/28/2022 3:15:00 PM 9.49 49.082 0.079 8.29 1.27 12.31
10/28/2022 3:30:00 PM 9.51 49.118 0.079 8.25 1.19 12.29
10/28/2022 3:45:00 PM 9.51 49.118 0.079 8.21 1.28 12.21
10/28/2022 4:00:00 PM 9.5 49.1 0.079 8.16 1.23 12.19
10/28/2022 4:15:00 PM 9.51 49.118 0.079 8.16 1.3 12.16
10/28/2022 4:30:00 PM 9.54 49.172 0.079 8.13 1.25 12.14
10/28/2022 4:45:00 PM 9.57 49.226 0.079 8.12 1.33 12.14
10/28/2022 5:00:00 PM 9.58 49.244 0.079 8.06 1.22 12.05
10/28/2022 5:15:00 PM 9.58 49.244 0.08 7.96 1.23 11.93
10/28/2022 5:30:00 PM 9.56 49.208 0.08 7.84 1.22 11.8
10/28/2022 5:45:00 PM 9.54 49.172 0.08 7.8 1.28 11.65
10/28/2022 6:00:00 PM 9.51 49.118 0.08 7.71 1.28 11.47
10/28/2022 6:15:00 PM 9.48 49.064 0.081 7.65 1.38 11.34
10/28/2022 6:30:00 PM 9.46 49.028 0.081 7.51 1.34 11.23
10/28/2022 6:45:00 PM 9.44 48.992 0.081 7.5 1.32 11.16
10/28/2022 7:00:00 PM 9.41 48.938 0.081 7.47 1.26 11.1
10/28/2022 7:15:00 PM 9.38 48.884 0.082 7.47 1.33 11.06
10/28/2022 7:30:00 PM 9.35 48.83 0.082 7.45 1.35 11.06
10/28/2022 7:45:00 PM 9.3 48.74 0.082 7.36 1.25 11.02
10/28/2022 8:00:00 PM 9.25 48.65 0.082 7.39 1.41 11.03
10/28/2022 8:15:00 PM 9.19 48.542 0.082 7.39 1.37 11.04
10/28/2022 8:30:00 PM 9.13 48.434 0.082 7.33 1.36 11.06
10/28/2022 8:45:00 PM 9.07 48.326 0.082 7.35 1.36 11.06
10/28/2022 9:00:00 PM 9 48.2 0.082 7.34 1.32 11.08
10/28/2022 9:15:00 PM 8.92 48.056 0.082 7.33 1.34 11.11
10/28/2022 9:30:00 PM 8.84 47.912 0.083 7.28 1.41 11.13
10/28/2022 9:45:00 PM 8.77 47.786 0.083 7.31 1.3 11.15
10/28/2022 10:00:00 PM 8.67 47.606 0.083 7.31 1.36 11.18
10/28/2022 10:15:00 PM 8.6 47.48 0.083 7.31 1.35 11.22
10/28/2022 10:30:00 PM 8.52 47.336 0.083 7.28 1.35 11.24
10/28/2022 10:45:00 PM 8.44 47.192 0.083 7.29 1.33 11.25
10/28/2022 11:00:00 PM 8.36 47.048 0.083 7.24 1.35 11.27
10/28/2022 11:15:00 PM 8.29 46.922 0.083 7.21 1.41 11.28
10/28/2022 11:30:00 PM 8.2 46.76 0.083 7.25 1.35 11.31
10/28/2022 11:45:00 PM 8.12 46.616 0.083 7.17 1.37 11.31
10/29/2022 12:00:00 AM 8.04 46.472 0.083 7.19 1.39 11.38
10/29/2022 12:15:00 AM 7.97 46.346 0.083 7.21 1.3 11.4
10/29/2022 12:30:00 AM 7.9 46.22 0.083 7.2 1.31 11.43
10/29/2022 12:45:00 AM 7.84 46.112 0.083 7.17 1.42 11.42
10/29/2022 1:00:00 AM 7.76 45.968 0.083 7.15 1.44 11.46
10/29/2022 1:15:00 AM 7.68 45.824 0.083 7.13 1.31 11.48
10/29/2022 1:30:00 AM 7.6 45.68 0.083 7.15 1.31 11.51
10/29/2022 1:45:00 AM 7.52 45.536 0.083 7.15 1.29 11.53
10/29/2022 2:00:00 AM 7.45 45.41 0.083 7.12 1.36 11.54
10/29/2022 2:15:00 AM 7.39 45.302 0.083 7.09 1.38 11.56
10/29/2022 2:30:00 AM 7.29 45.122 0.083 7.15 1.43 11.61
10/29/2022 2:45:00 AM 7.22 44.996 0.084 7.15 1.32 11.65
10/29/2022 3:00:00 AM 7.15 44.87 0.084 7.14 1.36 11.67
10/29/2022 3:15:00 AM 7.09 44.762 0.084 7.14 1.29 11.68
10/29/2022 3:30:00 AM 7.03 44.654 0.084 7.12 1.29 11.69
10/29/2022 3:45:00 AM 6.96 44.528 0.083 7.09 1.32 11.68
10/29/2022 4:00:00 AM 6.89 44.402 0.084 7.11 1.28 11.75
10/29/2022 4:15:00 AM 6.81 44.258 0.084 7.11 1.34 11.76
10/29/2022 4:30:00 AM 6.74 44.132 0.084 7.14 1.29 11.79
10/29/2022 4:45:00 AM 6.68 44.024 0.084 7.13 1.28 11.8
10/29/2022 5:00:00 AM 6.62 43.916 0.084 7.12 1.31 11.82
10/29/2022 5:15:00 AM 6.54 43.772 0.084 7.11 1.25 11.86
10/29/2022 5:30:00 AM 6.47 43.646 0.084 7.1 1.31 11.89
10/29/2022 5:45:00 AM 6.41 43.538 0.084 7.11 1.29 11.89
10/29/2022 6:00:00 AM 6.34 43.412 0.084 7.1 1.34 11.91
10/29/2022 6:15:00 AM 6.28 43.304 0.084 7.11 1.35 11.91
10/29/2022 6:30:00 AM 6.21 43.178 0.084 7.13 1.29 11.97
10/29/2022 6:45:00 AM 6.13 43.034 0.084 7.09 1.31 11.97
10/29/2022 7:00:00 AM 6.08 42.944 0.084 7.13 1.26 11.96
10/29/2022 7:15:00 AM 6.01 42.818 0.084 7.11 1.26 12.04
10/29/2022 7:30:00 AM 5.95 42.71 0.084 7.1 2.05 12.04
10/29/2022 7:45:00 AM 5.89 42.602 0.084 7.11 1.24 12.11
10/29/2022 8:00:00 AM 5.83 42.494 0.084 7.13 1.23 12.19
10/29/2022 8:15:00 AM 5.78 42.404 0.084 7.13 1.29 12.3
10/29/2022 8:30:00 AM 5.74 42.332 0.083 7.15 1.39 12.43
10/29/2022 8:45:00 AM 5.71 42.278 0.083 7.18 1.74 12.57
10/29/2022 9:00:00 AM 5.7 42.26 0.083 7.2 1.22 12.72
10/29/2022 9:15:00 AM 5.7 42.26 0.083 7.28 1.37 12.87
10/29/2022 9:30:00 AM 5.72 42.296 0.083 7.31 1.29 13.04
10/29/2022 9:45:00 AM 5.77 42.386 0.082 7.33 1.25 13.17
10/29/2022 10:00:00 AM 5.86 42.548 0.082 7.45 1.67 13.27
10/29/2022 10:15:00 AM 5.96 42.728 0.082 7.45 1.81 13.33
10/29/2022 10:30:00 AM 6.09 42.962 0.082 7.52 1.24 13.39
10/29/2022 10:45:00 AM 6.25 43.25 0.081 7.6 1.28 13.45
10/29/2022 11:00:00 AM 6.45 43.61 0.081 7.64 1.26 13.45
10/29/2022 11:15:00 AM 6.65 43.97 0.081 7.7 1.26 13.4
10/29/2022 11:30:00 AM 6.87 44.366 0.081 7.79 1.19 13.38
10/29/2022 11:45:00 AM 7.12 44.816 0.081 7.9 1.2 13.36
10/29/2022 12:00:00 PM 7.35 45.23 0.081 7.94 1.17 13.28
10/29/2022 12:15:00 PM 7.61 45.698 0.08 7.92 1.17 13.23
10/29/2022 12:30:00 PM 7.84 46.112 0.08 8.02 1.23 13.16
10/29/2022 12:45:00 PM 8.07 46.526 0.08 8.07 1.15 13.09
10/29/2022 1:00:00 PM 8.3 46.94 0.08 8.05 1.18 13
10/29/2022 1:15:00 PM 8.5 47.3 0.08 8.12 1.26 12.95
10/29/2022 1:30:00 PM 8.66 47.588 0.08 8.16 1.12 12.86
10/29/2022 1:45:00 PM 8.77 47.786 0.08 8.18 1.28 12.78
10/29/2022 2:00:00 PM 8.88 47.984 0.08 8.19 1.22 12.69
10/29/2022 2:15:00 PM 8.95 48.11 0.08 8.13 1.21 12.62
10/29/2022 2:30:00 PM 9 48.2 0.08 8.18 1.26 12.59
10/29/2022 2:45:00 PM 9.04 48.272 0.08 8.18 1.27 12.53
10/29/2022 3:00:00 PM 9.07 48.326 0.08 8.12 1.24 12.44
10/29/2022 3:15:00 PM 9.1 48.38 0.08 8.02 1.28 12.39
10/29/2022 3:30:00 PM 9.12 48.416 0.08 8.06 1.24 12.35
10/29/2022 3:45:00 PM 9.13 48.434 0.08 7.97 1.22 12.24
10/29/2022 4:00:00 PM 9.13 48.434 0.08 7.95 1.25 12.21
10/29/2022 4:15:00 PM 9.12 48.416 0.08 7.93 1.22 12.12
10/29/2022 4:30:00 PM 9.1 48.38 0.08 7.84 1.23 11.98
10/29/2022 4:45:00 PM 9.08 48.344 0.08 7.81 1.26 11.91
10/29/2022 5:00:00 PM 9.04 48.272 0.081 7.71 1.27 11.81
10/29/2022 5:15:00 PM 9 48.2 0.081 7.66 1.35 11.68
10/29/2022 5:30:00 PM 8.99 48.182 0.081 7.61 1.26 11.66
10/29/2022 5:45:00 PM 8.96 48.128 0.081 7.61 1.32 11.59
10/29/2022 6:00:00 PM 8.93 48.074 0.081 7.56 1.3 11.49
10/29/2022 6:15:00 PM 8.88 47.984 0.081 7.5 1.27 11.42
10/29/2022 6:30:00 PM 8.81 47.858 0.082 7.49 1.28 11.31
10/29/2022 6:45:00 PM 8.73 47.714 0.082 7.45 1.28 11.27
10/29/2022 7:00:00 PM 8.65 47.57 0.082 7.36 1.4 11.22
10/29/2022 7:15:00 PM 8.58 47.444 0.082 7.4 1.44 11.23
10/29/2022 7:30:00 PM 8.51 47.318 0.082 7.38 1.36 11.21
10/29/2022 7:45:00 PM 8.44 47.192 0.082 7.36 1.3 11.21
10/29/2022 8:00:00 PM 8.36 47.048 0.083 7.34 1.44 11.24
10/29/2022 8:15:00 PM 8.29 46.922 0.083 7.32 1.38 11.24
10/29/2022 8:30:00 PM 8.21 46.778 0.083 7.32 1.35 11.24
10/29/2022 8:45:00 PM 8.14 46.652 0.083 7.31 1.37 11.21
10/29/2022 9:00:00 PM 8.06 46.508 0.083 7.25 1.36 11.3
10/29/2022 9:15:00 PM 7.98 46.364 0.083 7.29 1.33 11.32
10/29/2022 9:30:00 PM 7.89 46.202 0.083 7.21 1.3 11.29
10/29/2022 9:45:00 PM 7.81 46.058 0.083 7.27 1.33 11.34
10/29/2022 10:00:00 PM 7.71 45.878 0.083 7.29 1.35 11.43
10/29/2022 10:15:00 PM 7.63 45.734 0.083 7.19 1.33 11.42
10/29/2022 10:30:00 PM 7.55 45.59 0.083 7.23 1.31 11.43
10/29/2022 10:45:00 PM 7.44 45.392 0.083 7.26 1.36 11.5
10/29/2022 11:00:00 PM 7.35 45.23 0.084 7.26 1.39 11.54
10/29/2022 11:15:00 PM 7.27 45.086 0.084 7.18 1.32 11.54
10/29/2022 11:30:00 PM 7.18 44.924 0.084 7.24 1.31 11.56
10/29/2022 11:45:00 PM 7.1 44.78 0.084 7.23 1.4 11.59
10/30/2022 12:00:00 AM 7.01 44.618 0.084 7.16 1.37 11.58
10/30/2022 12:15:00 AM 6.94 44.492 0.084 7.2 1.35 11.63
10/30/2022 12:30:00 AM 6.86 44.348 0.084 7.19 1.23 11.61
10/30/2022 12:45:00 AM 6.77 44.186 0.084 7.2 1.39 11.72
10/30/2022 1:00:00 AM 6.68 44.024 0.084 7.19 1.33 11.75
10/30/2022 1:15:00 AM 6.61 43.898 0.084 7.09 1.31 11.74
10/30/2022 1:30:00 AM 6.53 43.754 0.084 7.17 1.33 11.79
10/30/2022 1:45:00 AM 6.46 43.628 0.084 7.09 1.31 11.81
10/30/2022 2:00:00 AM 6.38 43.484 0.084 7.15 1.29 11.81
10/30/2022 2:15:00 AM 6.33 43.394 0.084 7.07 1.32 11.83
10/30/2022 2:30:00 AM 6.23 43.214 0.084 7.13 1.29 11.88
10/30/2022 2:45:00 AM 6.15 43.07 0.084 7.09 1.3 11.93
10/30/2022 3:00:00 AM 6.1 42.98 0.084 7.1 1.4 11.89
10/30/2022 3:15:00 AM 6.03 42.854 0.084 7.08 1.32 11.95
10/30/2022 3:30:00 AM 5.96 42.728 0.084 7.11 1.41 11.97
10/30/2022 3:45:00 AM 5.89 42.602 0.084 7.11 1.31 11.99
10/30/2022 4:00:00 AM 5.83 42.494 0.084 7.07 1.27 12.01
10/30/2022 4:15:00 AM 5.76 42.368 0.084 7.1 1.27 12
10/30/2022 4:30:00 AM 5.7 42.26 0.084 7.1 1.28 12.03
10/30/2022 4:45:00 AM 5.62 42.116 0.084 7.11 1.31 12.09
10/30/2022 5:00:00 AM 5.57 42.026 0.084 7.06 1.29 12.09
10/30/2022 5:15:00 AM 5.51 41.918 0.084 7.09 1.28 12.12
10/30/2022 5:30:00 AM 5.42 41.756 0.084 7.07 1.31 12.16
10/30/2022 5:45:00 AM 5.36 41.648 0.084 7.08 1.28 12.18
10/30/2022 6:00:00 AM 5.29 41.522 0.084 7.08 1.31 12.22
10/30/2022 6:15:00 AM 5.25 41.45 0.084 7.07 1.32 12.23
10/30/2022 6:30:00 AM 5.17 41.306 0.084 7.08 1.33 12.24
10/30/2022 6:45:00 AM 5.11 41.198 0.084 7.08 1.3 12.26
10/30/2022 7:00:00 AM 5.07 41.126 0.084 7.09 1.29 12.27
10/30/2022 7:15:00 AM 5 41 0.084 7.12 1.28 12.31
10/30/2022 7:30:00 AM 4.94 40.892 0.084 7.07 4.72 12.34
10/30/2022 7:45:00 AM 4.87 40.766 0.084 7.09 1.39 12.4
10/30/2022 8:00:00 AM 4.82 40.676 0.084 7.14 1.14 12.51
10/30/2022 8:15:00 AM 4.78 40.604 0.084 7.1 1.17 12.55
10/30/2022 8:30:00 AM 4.74 40.532 0.084 7.17 1.2 12.72
10/30/2022 8:45:00 AM 4.71 40.478 0.083 7.2 1.21 12.89
10/30/2022 9:00:00 AM 4.7 40.46 0.083 7.24 1.12 13.09
10/30/2022 9:15:00 AM 4.73 40.514 0.083 7.28 1.11 13.24
10/30/2022 9:30:00 AM 4.76 40.568 0.083 7.3 1.11 13.4
10/30/2022 9:45:00 AM 4.84 40.712 0.082 7.39 1.13 13.52
10/30/2022 10:00:00 AM 4.9 40.82 0.082 7.45 1.15 13.59
10/30/2022 10:15:00 AM 5.01 41.018 0.082 7.53 1.15 13.75
10/30/2022 10:30:00 AM 5.13 41.234 0.082 7.59 1.13 13.79
10/30/2022 10:45:00 AM 5.29 41.522 0.081 7.64 1.13 13.79
10/30/2022 11:00:00 AM 5.46 41.828 0.081 7.72 1.1 13.8
10/30/2022 11:15:00 AM 5.67 42.206 0.081 7.75 1.09 13.75
10/30/2022 11:30:00 AM 5.86 42.548 0.08 7.89 1.1 13.75
10/30/2022 11:45:00 AM 6.1 42.98 0.08 7.9 1.1 13.66
10/30/2022 12:00:00 PM 6.36 43.448 0.08 7.94 1.16 13.58
10/30/2022 12:15:00 PM 6.6 43.88 0.08 8.01 1.16 13.49
10/30/2022 12:30:00 PM 6.87 44.366 0.08 8.06 1.12 13.42
10/30/2022 12:45:00 PM 7.12 44.816 0.08 8.1 1.07 13.35
10/30/2022 1:00:00 PM 7.4 45.32 0.08 8.18 1.11 13.29
10/30/2022 1:15:00 PM 7.62 45.716 0.08 8.28 1.11 13.18
10/30/2022 1:30:00 PM 7.79 46.022 0.08 8.17 1.12 13.08
10/30/2022 1:45:00 PM 7.93 46.274 0.08 8.24 1.11 12.94
10/30/2022 2:00:00 PM 8.05 46.49 0.08 8.32 1.13 12.97
10/30/2022 2:15:00 PM 8.15 46.67 0.08 8.25 1.1 12.88
10/30/2022 2:30:00 PM 8.23 46.814 0.08 8.24 1.17 12.8
10/30/2022 2:45:00 PM 8.28 46.904 0.08 8.34 1.11 12.77
10/30/2022 3:00:00 PM 8.3 46.94 0.08 8.2 1.14 12.7
10/30/2022 3:15:00 PM 8.32 46.976 0.08 8.24 1.13 12.62
10/30/2022 3:30:00 PM 8.32 46.976 0.08 8.24 1.15 12.63
10/30/2022 3:45:00 PM 8.35 47.03 0.08 8.2 1.16 12.58
10/30/2022 4:00:00 PM 8.37 47.066 0.08 8.24 1.14 12.56
10/30/2022 4:15:00 PM 8.4 47.12 0.08 8.18 1.11 12.51
10/30/2022 4:30:00 PM 8.43 47.174 0.08 8.22 1.16 12.44
10/30/2022 4:45:00 PM 8.42 47.156 0.08 8.1 1.15 12.38
10/30/2022 5:00:00 PM 8.4 47.12 0.08 7.99 1.3 12.22
10/30/2022 5:15:00 PM 8.38 47.084 0.08 7.86 1.24 12.11
10/30/2022 5:30:00 PM 8.38 47.084 0.08 7.86 1.18 12.01
10/30/2022 5:45:00 PM 8.38 47.084 0.08 7.69 1.15 11.83
10/30/2022 6:00:00 PM 8.36 47.048 0.081 7.71 1.21 11.71
10/30/2022 6:15:00 PM 8.32 46.976 0.081 7.63 1.26 11.57
10/30/2022 6:30:00 PM 8.27 46.886 0.081 7.58 1.21 11.47
10/30/2022 6:45:00 PM 8.21 46.778 0.082 7.47 1.2 11.38
10/30/2022 7:00:00 PM 8.14 46.652 0.082 7.49 1.24 11.34
10/30/2022 7:15:00 PM 8.09 46.562 0.082 7.41 1.22 11.28
10/30/2022 7:30:00 PM 8.03 46.454 0.082 7.37 1.3 11.26
10/30/2022 7:45:00 PM 7.97 46.346 0.082 7.38 1.26 11.27
10/30/2022 8:00:00 PM 7.9 46.22 0.082 7.4 1.29 11.31
10/30/2022 8:15:00 PM 7.83 46.094 0.083 7.3 1.24 11.27
10/30/2022 8:30:00 PM 7.78 46.004 0.083 7.35 1.24 11.31
10/30/2022 8:45:00 PM 7.71 45.878 0.083 7.34 1.23 11.32
10/30/2022 9:00:00 PM 7.66 45.788 0.083 7.26 1.27 11.32
10/30/2022 9:15:00 PM 7.6 45.68 0.083 7.32 1.28 11.35
10/30/2022 9:30:00 PM 7.54 45.572 0.083 7.32 1.3 11.37
10/30/2022 9:45:00 PM 7.49 45.482 0.083 7.23 1.27 11.38
10/30/2022 10:00:00 PM 7.44 45.392 0.083 7.29 1.32 11.38
10/30/2022 10:15:00 PM 7.39 45.302 0.083 7.21 1.24 11.39
10/30/2022 10:30:00 PM 7.34 45.212 0.083 7.28 1.31 11.41
10/30/2022 10:45:00 PM 7.29 45.122 0.083 7.21 1.25 11.44
10/30/2022 11:00:00 PM 7.24 45.032 0.083 7.28 1.29 11.48
10/30/2022 11:15:00 PM 7.18 44.924 0.084 7.27 1.21 11.47
10/30/2022 11:30:00 PM 7.13 44.834 0.084 7.26 1.25 11.52
10/30/2022 11:45:00 PM 7.08 44.744 0.084 7.27 1.27 11.55
10/31/2022 12:00:00 AM 7.02 44.636 0.084 7.2 1.25 11.52
10/31/2022 12:15:00 AM 6.96 44.528 0.084 7.22 1.24 11.57
10/31/2022 12:30:00 AM 6.92 44.456 0.084 7.21 1.28 11.56
10/31/2022 12:45:00 AM 6.86 44.348 0.084 7.24 1.24 11.6
10/31/2022 1:00:00 AM 6.81 44.258 0.084 7.24 1.22 11.6
10/31/2022 1:15:00 AM 6.76 44.168 0.084 7.18 1.27 11.65
10/31/2022 1:30:00 AM 6.71 44.078 0.084 7.2 1.26 11.63
10/31/2022 1:45:00 AM 6.66 43.988 0.084 7.23 1.26 11.64
10/31/2022 2:00:00 AM 6.6 43.88 0.084 7.23 1.26 11.67
10/31/2022 2:15:00 AM 6.53 43.754 0.084 7.24 1.21 11.71
10/31/2022 2:30:00 AM 6.52 43.736 0.084 7.15 1.22 11.7
10/31/2022 2:45:00 AM 6.51 43.718 0.084 7.21 1.28 11.68
10/31/2022 3:00:00 AM 6.49 43.682 0.084 7.16 1.17 11.75
10/31/2022 3:15:00 AM 6.5 43.7 0.084 7.22 1.25 11.74
10/31/2022 3:30:00 AM 6.5 43.7 0.084 7.21 1.24 11.72
10/31/2022 3:45:00 AM 6.5 43.7 0.084 7.18 1.19 11.7
10/31/2022 4:00:00 AM 6.48 43.664 0.084 7.17 1.2 11.71
10/31/2022 4:15:00 AM 6.46 43.628 0.084 7.17 1.19 11.76
10/31/2022 4:30:00 AM 6.44 43.592 0.084 7.2 1.21 11.74
10/31/2022 4:45:00 AM 6.4 43.52 0.084 7.16 1.19 11.72
10/31/2022 5:00:00 AM 6.38 43.484 0.084 7.2 1.22 11.76
10/31/2022 5:15:00 AM 6.35 43.43 0.084 7.14 1.2 11.76
10/31/2022 5:30:00 AM 6.31 43.358 0.084 7.18 1.29 11.76
10/31/2022 5:45:00 AM 6.29 43.322 0.084 7.15 1.15 11.77
10/31/2022 6:00:00 AM 6.26 43.268 0.084 7.2 1.25 11.79
10/31/2022 6:15:00 AM 6.22 43.196 0.084 7.19 1.25 11.78
10/31/2022 6:30:00 AM 6.19 43.142 0.084 7.12 1.24 11.81
10/31/2022 6:45:00 AM 6.13 43.034 0.084 7.14 1.21 11.84
10/31/2022 7:00:00 AM 6.1 42.98 0.084 7.19 1.26 11.84
10/31/2022 7:15:00 AM 6.07 42.926 0.084 7.19 1.23 11.84
10/31/2022 7:30:00 AM 6.04 42.872 0.084 7.19 1.28 11.87
10/31/2022 7:45:00 AM 6.03 42.854 0.084 7.11 1.2 11.88
10/31/2022 8:00:00 AM 5.99 42.782 0.084 7.19 1.31 11.97
10/31/2022 8:15:00 AM 5.97 42.746 0.084 7.21 1.19 12.11
10/31/2022 8:30:00 AM 5.97 42.746 0.084 7.16 1.2 12.24
10/31/2022 8:45:00 AM 5.98 42.764 0.084 7.23 1.22 12.45
10/31/2022 9:00:00 AM 6.01 42.818 0.083 7.3 1.21 12.57
10/31/2022 9:15:00 AM 6.07 42.926 0.083 7.33 1.17 12.81
10/31/2022 9:30:00 AM 6.12 43.016 0.083 7.42 1.21 12.96
10/31/2022 9:45:00 AM 6.21 43.178 0.083 7.42 1.17 13.11
10/31/2022 10:00:00 AM 6.31 43.358 0.082 7.55 1.19 13.16
10/31/2022 10:15:00 AM 6.47 43.646 0.082 7.59 1.17 13.27
10/31/2022 10:30:00 AM 6.65 43.97 0.082 7.71 1.26 13.35
10/31/2022 10:45:00 AM 6.81 44.258 0.081 7.76 1.18 13.34
10/31/2022 11:00:00 AM 7.03 44.654 0.081 7.92 1.16 13.39
10/31/2022 11:15:00 AM 7.25 45.05 0.081 8.06 1.19 13.42
10/31/2022 11:30:00 AM 7.44 45.392 0.08 8.15 1.21 13.34
10/31/2022 11:45:00 AM 7.62 45.716 0.08 8.22 1.19 13.3
10/31/2022 12:00:00 PM 7.78 46.004 0.08 8.38 1.16 13.23
10/31/2022 12:15:00 PM 7.9 46.22 0.08 8.41 1.16 13.15
10/31/2022 12:30:00 PM 8.07 46.526 0.08 8.48 1.19 13.15
10/31/2022 12:45:00 PM 8.2 46.76 0.08 8.62 1.2 13.07
10/31/2022 1:00:00 PM 8.33 46.994 0.08 8.51 1.13 12.97
10/31/2022 1:15:00 PM 8.49 47.282 0.08 8.65 1.15 12.96
10/31/2022 1:30:00 PM 8.6 47.48 0.079 8.7 1.31 12.91
10/31/2022 1:45:00 PM 8.7 47.66 0.079 8.73 1.26 12.84
10/31/2022 2:00:00 PM 8.78 47.804 0.079 8.8 1.23 12.73
10/31/2022 2:15:00 PM 8.87 47.966 0.079 8.81 1.25 12.73
10/31/2022 2:30:00 PM 8.93 48.074 0.079 8.85 1.17 12.63
10/31/2022 2:45:00 PM 9 48.2 0.079 8.84 1.17 12.57
10/31/2022 3:00:00 PM 9.08 48.344 0.079 8.87 1.14 12.51
10/31/2022 3:15:00 PM 9.17 48.506 0.079 8.85 1.29 12.49
10/31/2022 3:30:00 PM 9.25 48.65 0.079 8.9 1.26 12.41
10/31/2022 3:45:00 PM 9.33 48.794 0.079 8.94 1.3 12.39
10/31/2022 4:00:00 PM 9.36 48.848 0.079 8.86 1.26 12.19
10/31/2022 4:15:00 PM 9.4 48.92 0.079 8.78 1.29 12.08
10/31/2022 4:30:00 PM 9.44 48.992 0.079 8.72 1.21 12.01
10/31/2022 4:45:00 PM 9.47 49.046 0.079 8.57 1.27 11.86
10/31/2022 5:00:00 PM 9.51 49.118 0.079 8.44 1.25 11.77
10/31/2022 5:15:00 PM 9.54 49.172 0.08 8.23 1.24 11.63
10/31/2022 5:30:00 PM 9.56 49.208 0.08 8.09 1.22 11.49
10/31/2022 5:45:00 PM 9.57 49.226 0.08 7.92 1.31 11.36
10/31/2022 6:00:00 PM 9.58 49.244 0.081 7.86 1.26 11.2
10/31/2022 6:15:00 PM 9.58 49.244 0.081 7.76 1.27 11.08
10/31/2022 6:30:00 PM 9.59 49.262 0.082 7.62 1.22 10.97
10/31/2022 6:45:00 PM 9.59 49.262 0.082 7.59 1.2 10.91
10/31/2022 7:00:00 PM 9.59 49.262 0.082 7.58 1.31 10.85
10/31/2022 7:15:00 PM 9.59 49.262 0.083 7.52 1.32 10.82
10/31/2022 7:30:00 PM 9.59 49.262 0.083 7.51 1.24 10.8
10/31/2022 7:45:00 PM 9.58 49.244 0.083 7.49 1.32 10.76
10/31/2022 8:00:00 PM 9.59 49.262 0.083 7.46 1.28 10.75
10/31/2022 8:15:00 PM 9.59 49.262 0.083 7.44 1.27 10.71
10/31/2022 8:30:00 PM 9.58 49.244 0.083 7.36 1.25 10.75
10/31/2022 8:45:00 PM 9.59 49.262 0.083 7.41 1.26 10.71
10/31/2022 9:00:00 PM 9.6 49.28 0.084 7.4 1.38 10.71
10/31/2022 9:15:00 PM 9.61 49.298 0.084 7.37 1.24 10.72
10/31/2022 9:30:00 PM 9.63 49.334 0.084 7.36 1.16 10.76
10/31/2022 9:45:00 PM 9.64 49.352 0.084 7.37 1.27 10.73
10/31/2022 10:00:00 PM 9.65 49.37 0.084 7.34 1.28 10.71
10/31/2022 10:15:00 PM 9.66 49.388 0.084 7.31 1.34 10.71
10/31/2022 10:30:00 PM 9.66 49.388 0.084 7.35 1.24 10.71
10/31/2022 10:45:00 PM 9.67 49.406 0.084 7.33 1.32 10.72
10/31/2022 11:00:00 PM 9.68 49.424 0.084 7.34 1.21 10.71
10/31/2022 11:15:00 PM 9.69 49.442 0.084 7.34 1.26 10.73
10/31/2022 11:30:00 PM 9.69 49.442 0.084 7.26 1.22 10.7
10/31/2022 11:45:00 PM 9.7 49.46 0.084 7.33 1.28 10.7
11/1/2022 12:00:00 AM 9.7 49.46 0.084 7.31 1.29 10.72
11/1/2022 12:15:00 AM 9.7 49.46 0.084 7.31 1.27 10.69
11/1/2022 12:30:00 AM 9.71 49.478 0.085 7.31 1.24 10.71
11/1/2022 12:45:00 AM 9.72 49.496 0.085 7.3 1.34 10.68
11/1/2022 1:00:00 AM 9.73 49.514 0.085 7.3 1.33 10.69
11/1/2022 1:15:00 AM 9.74 49.532 0.085 7.3 1.37 10.67
11/1/2022 1:30:00 AM 9.75 49.55 0.085 7.27 1.35 10.69
11/1/2022 1:45:00 AM 9.76 49.568 0.085 7.24 1.35 10.66
11/1/2022 2:00:00 AM 9.77 49.586 0.085 7.27 1.31 10.69
11/1/2022 2:15:00 AM 9.78 49.604 0.085 7.28 1.3 10.68
11/1/2022 2:30:00 AM 9.79 49.622 0.085 7.26 1.28 10.7
11/1/2022 2:45:00 AM 9.8 49.64 0.085 7.23 1.28 10.68
11/1/2022 3:00:00 AM 9.82 49.676 0.085 7.22 1.29 10.65
11/1/2022 3:15:00 AM 9.83 49.694 0.085 7.23 1.28 10.65
11/1/2022 3:30:00 AM 9.84 49.712 0.085 7.26 1.32 10.68
11/1/2022 3:45:00 AM 9.85 49.73 0.085 7.25 1.32 10.68
11/1/2022 4:00:00 AM 9.86 49.748 0.085 7.22 1.31 10.65
11/1/2022 4:15:00 AM 9.87 49.766 0.085 7.21 1.36 10.68
11/1/2022 4:30:00 AM 9.88 49.784 0.085 7.23 1.31 10.67
11/1/2022 4:45:00 AM 9.89 49.802 0.085 7.21 1.24 10.68
11/1/2022 5:00:00 AM 9.9 49.82 0.085 7.2 1.27 10.66
11/1/2022 5:15:00 AM 9.91 49.838 0.085 7.25 1.33 10.66
11/1/2022 5:30:00 AM 9.92 49.856 0.085 7.2 1.39 10.61
11/1/2022 5:45:00 AM 9.92 49.856 0.085 7.19 1.27 10.64
11/1/2022 6:00:00 AM 9.92 49.856 0.085 7.2 1.4 10.67
11/1/2022 6:15:00 AM 9.92 49.856 0.085 7.23 1.35 10.64
11/1/2022 6:30:00 AM 9.93 49.874 0.085 7.15 1.35 10.6
11/1/2022 6:45:00 AM 9.93 49.874 0.085 7.21 1.37 10.63
11/1/2022 7:00:00 AM 9.94 49.892 0.085 7.22 1.31 10.66
11/1/2022 7:15:00 AM 9.95 49.91 0.085 7.23 1.3 10.66
11/1/2022 7:30:00 AM 9.96 49.928 0.085 7.21 1.36 10.63
11/1/2022 7:45:00 AM 9.96 49.928 0.085 7.2 1.38 10.63
11/1/2022 8:00:00 AM 9.97 49.946 0.085 7.18 1.31 10.68
11/1/2022 8:15:00 AM 9.98 49.964 0.085 7.24 1.33 10.76
11/1/2022 8:30:00 AM 9.99 49.982 0.085 7.24 1.29 10.88
11/1/2022 8:45:00 AM 10.02 50.036 0.085 7.29 1.31 11.01
11/1/2022 9:00:00 AM 10.05 50.09 0.085 7.32 1.39 11.19
11/1/2022 9:15:00 AM 10.07 50.126 0.085 7.29 1.38 11.27
11/1/2022 9:30:00 AM 10.09 50.162 0.085 7.37 1.35 11.32
11/1/2022 9:45:00 AM 10.12 50.216 0.084 7.42 1.37 11.46
11/1/2022 10:00:00 AM 10.16 50.288 0.084 7.38 1.33 11.64
11/1/2022 10:15:00 AM 10.2 50.36 0.084 7.5 1.26 11.77
11/1/2022 10:30:00 AM 10.23 50.414 0.084 7.51 1.31 11.81
11/1/2022 10:45:00 AM 10.27 50.486 0.084 7.59 1.38 11.8
11/1/2022 11:00:00 AM 10.3 50.54 0.083 7.56 1.31 11.86
11/1/2022 11:15:00 AM 10.34 50.612 0.083 7.67 1.33 11.88
11/1/2022 11:30:00 AM 10.39 50.702 0.083 7.69 1.33 11.94
11/1/2022 11:45:00 AM 10.44 50.792 0.083 7.8 1.36 12.01
11/1/2022 12:00:00 PM 10.48 50.864 0.083 7.8 1.6 11.95
11/1/2022 12:15:00 PM 10.53 50.954 0.083 7.89 1.37 12.01
11/1/2022 12:30:00 PM 10.56 51.008 0.083 7.88 1.38 11.98
11/1/2022 12:45:00 PM 10.6 51.08 0.082 8.02 1.33 12.01
11/1/2022 1:00:00 PM 10.63 51.134 0.082 8.03 1.3 11.96
11/1/2022 1:15:00 PM 10.64 51.152 0.082 8.04 1.47 11.8
11/1/2022 1:30:00 PM 10.65 51.17 0.082 7.98 1.41 11.66
11/1/2022 1:45:00 PM 10.66 51.188 0.082 7.93 1.48 11.54
11/1/2022 2:00:00 PM 10.68 51.224 0.083 7.86 1.5 11.46
11/1/2022 2:15:00 PM 10.7 51.26 0.082 7.84 1.46 11.47
11/1/2022 2:30:00 PM 10.73 51.314 0.082 7.87 1.39 11.58
11/1/2022 2:45:00 PM 10.77 51.386 0.082 7.89 1.45 11.67
11/1/2022 3:00:00 PM 10.79 51.422 0.083 7.81 1.39 11.61
11/1/2022 3:15:00 PM 10.81 51.458 0.083 7.88 1.34 11.59
11/1/2022 3:30:00 PM 10.84 51.512 0.083 7.9 1.44 11.7
11/1/2022 3:45:00 PM 10.87 51.566 0.083 7.97 1.39 11.77
11/1/2022 4:00:00 PM 10.92 51.656 0.082 8.02 1.31 11.85
11/1/2022 4:15:00 PM 10.97 51.746 0.082 8.2 1.35 11.94
11/1/2022 4:30:00 PM 11.04 51.872 0.081 8.28 1.6 11.92
11/1/2022 4:45:00 PM 11.08 51.944 0.08 8.26 1.41 11.88
11/1/2022 5:00:00 PM 11.08 51.944 0.08 8.19 1.5 11.7
11/1/2022 5:15:00 PM 11.05 51.89 0.079 8.05 1.62 11.5
11/1/2022 5:30:00 PM 11.01 51.818 0.079 7.95 1.72 11.3
11/1/2022 5:45:00 PM 10.98 51.764 0.078 7.81 1.67 11.13
11/1/2022 6:00:00 PM 10.97 51.746 0.078 7.71 1.73 10.95
11/1/2022 6:15:00 PM 10.96 51.728 0.078 7.57 1.79 10.82
11/1/2022 6:30:00 PM 10.93 51.674 0.078 7.56 1.69 10.73
11/1/2022 6:45:00 PM 10.91 51.638 0.078 7.45 1.81 10.65
11/1/2022 7:00:00 PM 10.89 51.602 0.079 7.43 1.74 10.59
11/1/2022 7:15:00 PM 10.86 51.548 0.079 7.39 1.65 10.59
11/1/2022 7:30:00 PM 10.85 51.53 0.08 7.39 1.79 10.55
11/1/2022 7:45:00 PM 10.84 51.512 0.08 7.34 1.63 10.53
11/1/2022 8:00:00 PM 10.83 51.494 0.081 7.33 1.66 10.52
11/1/2022 8:15:00 PM 10.82 51.476 0.081 7.3 1.56 10.52
11/1/2022 8:30:00 PM 10.81 51.458 0.082 7.28 1.59 10.5
11/1/2022 8:45:00 PM 10.8 51.44 0.082 7.31 1.51 10.51
11/1/2022 9:00:00 PM 10.81 51.458 0.083 7.24 1.57 10.51
11/1/2022 9:15:00 PM 10.82 51.476 0.083 7.29 1.48 10.51
11/1/2022 9:30:00 PM 10.82 51.476 0.083 7.27 1.65 10.51
11/1/2022 9:45:00 PM 10.82 51.476 0.083 7.26 1.56 10.5
11/1/2022 10:00:00 PM 10.81 51.458 0.084 7.27 1.65 10.49
11/1/2022 10:15:00 PM 10.78 51.404 0.084 7.26 1.55 10.51
11/1/2022 10:30:00 PM 10.75 51.35 0.084 7.26 1.54 10.51
11/1/2022 10:45:00 PM 10.72 51.296 0.084 7.2 1.49 10.53
11/1/2022 11:00:00 PM 10.69 51.242 0.084 7.24 1.53 10.53
11/1/2022 11:15:00 PM 10.66 51.188 0.084 7.28 1.87 10.54
11/1/2022 11:30:00 PM 10.62 51.116 0.084 7.21 1.56 10.55
11/1/2022 11:45:00 PM 10.57 51.026 0.084 7.27 1.56 10.57
11/2/2022 12:00:00 AM 10.53 50.954 0.084 7.27 1.5 10.58
11/2/2022 12:15:00 AM 10.49 50.882 0.084 7.28 1.47 10.59
11/2/2022 12:30:00 AM 10.44 50.792 0.084 7.27 1.47 10.61
11/2/2022 12:45:00 AM 10.39 50.702 0.084 7.27 1.55 10.62
11/2/2022 1:00:00 AM 10.34 50.612 0.084 7.26 1.42 10.63
11/2/2022 1:15:00 AM 10.29 50.522 0.084 7.26 1.44 10.65
11/2/2022 1:30:00 AM 10.25 50.45 0.084 7.24 1.5 10.64
11/2/2022 1:45:00 AM 10.23 50.414 0.084 7.19 1.59 10.67
11/2/2022 2:00:00 AM 10.22 50.396 0.084 7.24 1.47 10.66
11/2/2022 2:15:00 AM 10.2 50.36 0.084 7.24 1.44 10.66
11/2/2022 2:30:00 AM 10.19 50.342 0.084 7.23 1.56 10.67
11/2/2022 2:45:00 AM 10.16 50.288 0.084 7.23 1.48 10.71
11/2/2022 3:00:00 AM 10.14 50.252 0.084 7.17 1.49 10.68
11/2/2022 3:15:00 AM 10.14 50.252 0.084 7.19 1.45 10.7
11/2/2022 3:30:00 AM 10.14 50.252 0.084 7.23 1.53 10.7
11/2/2022 3:45:00 AM 10.13 50.234 0.084 7.23 1.49 10.7
11/2/2022 4:00:00 AM 10.12 50.216 0.084 7.22 1.43 10.7
11/2/2022 4:15:00 AM 10.08 50.144 0.084 7.15 1.45 10.7
11/2/2022 4:30:00 AM 10.03 50.054 0.084 7.22 1.57 10.74
11/2/2022 4:45:00 AM 9.98 49.964 0.084 7.21 1.46 10.71
11/2/2022 5:00:00 AM 9.94 49.892 0.084 7.15 1.61 10.72
11/2/2022 5:15:00 AM 9.9 49.82 0.084 7.21 1.45 10.77
11/2/2022 5:30:00 AM 9.86 49.748 0.084 7.16 1.51 10.73
11/2/2022 5:45:00 AM 9.8 49.64 0.084 7.2 1.52 10.79
11/2/2022 6:00:00 AM 9.76 49.568 0.084 7.14 1.39 10.8
11/2/2022 6:15:00 AM 9.73 49.514 0.084 7.21 1.41 10.81
11/2/2022 6:30:00 AM 9.7 49.46 0.084 7.15 1.47 10.82
11/2/2022 6:45:00 AM 9.68 49.424 0.084 7.15 1.41 10.83
11/2/2022 7:00:00 AM 9.65 49.37 0.084 7.15 1.49 10.85
11/2/2022 7:15:00 AM 9.64 49.352 0.084 7.2 1.45 10.82
11/2/2022 7:30:00 AM 9.62 49.316 0.084 7.2 1.44 10.85
11/2/2022 7:45:00 AM 9.59 49.262 0.084 7.21 1.41 10.92
11/2/2022 8:00:00 AM 9.56 49.208 0.084 7.18 1.54 10.97
11/2/2022 8:15:00 AM 9.53 49.154 0.084 7.22 1.44 11.09
11/2/2022 8:30:00 AM 9.5 49.1 0.084 7.22 1.58 11.17
11/2/2022 8:45:00 AM 9.5 49.1 0.084 7.27 1.35 11.36
11/2/2022 9:00:00 AM 9.51 49.118 0.084 7.29 1.39 11.53
11/2/2022 9:15:00 AM 9.53 49.154 0.083 7.35 1.39 11.78
11/2/2022 9:30:00 AM 9.54 49.172 0.083 7.38 1.38 11.97
11/2/2022 9:45:00 AM 9.58 49.244 0.083 7.5 1.46 12.21
11/2/2022 10:00:00 AM 9.65 49.37 0.082 7.59 1.43 12.35
11/2/2022 10:15:00 AM 9.74 49.532 0.082 7.67 1.41 12.44
11/2/2022 10:30:00 AM 9.85 49.73 0.082 7.67 1.38 12.46
11/2/2022 10:45:00 AM 9.99 49.982 0.081 7.87 1.36 12.5
11/2/2022 11:00:00 AM 10.14 50.252 0.081 7.89 1.36 12.49
11/2/2022 11:15:00 AM 10.33 50.594 0.081 8.02 1.33 12.49
11/2/2022 11:30:00 AM 10.49 50.882 0.081 8.14 1.39 12.44
11/2/2022 11:45:00 AM 10.69 51.242 0.08 8.3 1.3 12.44
11/2/2022 12:00:00 PM 10.88 51.584 0.08 8.35 1.39 12.38
11/2/2022 12:15:00 PM 11.08 51.944 0.08 8.46 1.34 12.36
11/2/2022 12:30:00 PM 11.29 52.322 0.08 8.53 1.4 12.25
11/2/2022 12:45:00 PM 11.48 52.664 0.08 8.52 1.37 12.2
11/2/2022 1:00:00 PM 11.67 53.006 0.08 8.67 1.35 12.16
11/2/2022 1:15:00 PM 11.81 53.258 0.08 8.7 1.34 12.1
11/2/2022 1:30:00 PM 11.93 53.474 0.079 8.74 1.37 12.04
11/2/2022 1:45:00 PM 12.03 53.654 0.079 8.79 1.34 11.99
11/2/2022 2:00:00 PM 12.08 53.744 0.079 8.75 1.45 11.85
11/2/2022 2:15:00 PM 12.12 53.816 0.079 8.71 1.42 11.75
11/2/2022 2:30:00 PM 12.15 53.87 0.079 8.8 1.4 11.78
11/2/2022 2:45:00 PM 12.16 53.888 0.079 8.79 1.93 11.73
11/2/2022 3:00:00 PM 12.16 53.888 0.079 8.71 1.58 11.64
11/2/2022 3:15:00 PM 12.15 53.87 0.079 8.67 1.41 11.58
11/2/2022 3:30:00 PM 12.14 53.852 0.079 8.66 1.41 11.54
11/2/2022 3:45:00 PM 12.11 53.798 0.079 8.57 1.51 11.47
11/2/2022 4:00:00 PM 12.09 53.762 0.079 8.46 1.41 11.34
11/2/2022 4:15:00 PM 12.06 53.708 0.079 8.4 1.33 11.29
11/2/2022 4:30:00 PM 12.02 53.636 0.08 8.28 1.36 11.21
11/2/2022 4:45:00 PM 11.98 53.564 0.08 8.14 1.4 11.07
11/2/2022 5:00:00 PM 11.93 53.474 0.08 8.04 1.41 11.03
11/2/2022 5:15:00 PM 11.89 53.402 0.08 7.87 1.37 10.84
11/2/2022 5:30:00 PM 11.86 53.348 0.08 7.88 1.44 10.87
11/2/2022 5:45:00 PM 11.82 53.276 0.081 7.71 1.41 10.77
11/2/2022 6:00:00 PM 11.77 53.186 0.081 7.72 1.38 10.67
11/2/2022 6:15:00 PM 11.7 53.06 0.082 7.56 1.43 10.55
11/2/2022 6:30:00 PM 11.62 52.916 0.082 7.58 1.5 10.43
11/2/2022 6:45:00 PM 11.55 52.79 0.083 7.46 1.4 10.42
11/2/2022 7:00:00 PM 11.47 52.646 0.083 7.46 1.47 10.39
11/2/2022 7:15:00 PM 11.39 52.502 0.083 7.46 1.44 10.34
11/2/2022 7:30:00 PM 11.31 52.358 0.083 7.42 1.52 10.37
11/2/2022 7:45:00 PM 11.23 52.214 0.083 7.34 1.6 10.36
11/2/2022 8:00:00 PM 11.15 52.07 0.084 7.38 1.45 10.35
11/2/2022 8:15:00 PM 11.07 51.926 0.084 7.34 1.46 10.4
11/2/2022 8:30:00 PM 10.98 51.764 0.084 7.36 1.63 10.38
11/2/2022 8:45:00 PM 10.9 51.62 0.084 7.31 1.54 10.4
11/2/2022 9:00:00 PM 10.82 51.476 0.084 7.33 1.48 10.43
11/2/2022 9:15:00 PM 10.73 51.314 0.084 7.28 1.5 10.47
11/2/2022 9:30:00 PM 10.64 51.152 0.084 7.25 1.59 10.49
11/2/2022 9:45:00 PM 10.55 50.99 0.084 7.31 1.42 10.53
11/2/2022 10:00:00 PM 10.46 50.828 0.084 7.3 1.44 10.55
11/2/2022 10:15:00 PM 10.37 50.666 0.085 7.21 1.49 10.58
11/2/2022 10:30:00 PM 10.29 50.522 0.085 7.28 1.42 10.59
11/2/2022 10:45:00 PM 10.19 50.342 0.085 7.29 1.55 10.68
11/2/2022 11:00:00 PM 10.1 50.18 0.085 7.26 1.46 10.66
11/2/2022 11:15:00 PM 10.01 50.018 0.085 7.24 1.52 10.69
11/2/2022 11:30:00 PM 9.91 49.838 0.085 7.2 1.46 10.76
11/2/2022 11:45:00 PM 9.83 49.694 0.085 7.23 1.47 10.75
11/3/2022 12:00:00 AM 9.74 49.532 0.085 7.24 1.51 10.77
11/3/2022 12:15:00 AM 9.66 49.388 0.085 7.18 2.17 10.8
11/3/2022 12:30:00 AM 9.57 49.226 0.085 7.18 1.47 10.8
11/3/2022 12:45:00 AM 9.49 49.082 0.085 7.24 1.46 10.88
11/3/2022 1:00:00 AM 9.4 48.92 0.085 7.16 1.43 10.9
11/3/2022 1:15:00 AM 9.34 48.812 0.085 7.16 1.49 10.88
11/3/2022 1:30:00 AM 9.25 48.65 0.085 7.2 1.48 10.96
11/3/2022 1:45:00 AM 9.17 48.506 0.085 7.18 1.45 10.98
11/3/2022 2:00:00 AM 9.1 48.38 0.085 7.19 1.53 10.98
11/3/2022 2:15:00 AM 9.02 48.236 0.085 7.16 1.46 10.98
11/3/2022 2:30:00 AM 8.94 48.092 0.085 7.17 1.52 11.03
11/3/2022 2:45:00 AM 8.86 47.948 0.085 7.15 1.57 11.06
11/3/2022 3:00:00 AM 8.78 47.804 0.085 7.16 1.43 11.1
11/3/2022 3:15:00 AM 8.71 47.678 0.085 7.06 1.48 11.07
11/3/2022 3:30:00 AM 8.64 47.552 0.085 7.11 1.44 11.13
11/3/2022 3:45:00 AM 8.57 47.426 0.085 7.11 1.42 11.11
11/3/2022 4:00:00 AM 8.48 47.264 0.085 7.07 1.37 11.16
11/3/2022 4:15:00 AM 8.41 47.138 0.085 7.06 1.51 11.21
11/3/2022 4:30:00 AM 8.35 47.03 0.085 7.08 1.44 11.24
11/3/2022 4:45:00 AM 8.29 46.922 0.085 7.07 1.43 11.23
11/3/2022 5:00:00 AM 8.21 46.778 0.085 7.06 1.39 11.26
11/3/2022 5:15:00 AM 8.14 46.652 0.085 7.07 1.49 11.28
11/3/2022 5:30:00 AM 8.08 46.544 0.085 7.03 1.99 11.28
11/3/2022 5:45:00 AM 8.02 46.436 0.085 7.05 1.46 11.3
11/3/2022 6:00:00 AM 7.96 46.328 0.085 7.07 1.43 11.32
11/3/2022 6:15:00 AM 7.88 46.184 0.085 7.08 1.42 11.33
11/3/2022 6:30:00 AM 7.83 46.094 0.085 7.07 1.4 11.39
11/3/2022 6:45:00 AM 7.76 45.968 0.085 7.07 1.42 11.4
11/3/2022 7:00:00 AM 7.7 45.86 0.085 7.08 1.44 11.41
11/3/2022 7:15:00 AM 7.64 45.752 0.085 7.04 1.43 11.45
11/3/2022 7:30:00 AM 7.6 45.68 0.085 7.04 1.48 11.43
11/3/2022 7:45:00 AM 7.53 45.554 0.085 7.05 1.46 11.52
11/3/2022 8:00:00 AM 7.48 45.464 0.085 7.07 1.49 11.57
11/3/2022 8:15:00 AM 7.45 45.41 0.085 7.1 1.4 11.66
11/3/2022 8:30:00 AM 7.39 45.302 0.085 7.09 1.43 11.8
11/3/2022 8:45:00 AM 7.35 45.23 0.085 7.13 1.42 11.97
11/3/2022 9:00:00 AM 7.33 45.194 0.084 7.2 1.42 12.14
11/3/2022 9:15:00 AM 7.34 45.212 0.084 7.25 1.42 12.4
11/3/2022 9:30:00 AM 7.37 45.266 0.084 7.31 1.39 12.54
11/3/2022 9:45:00 AM 7.41 45.338 0.084 7.38 1.38 12.72
11/3/2022 10:00:00 AM 7.5 45.5 0.083 7.44 1.38 12.87
11/3/2022 10:15:00 AM 7.61 45.698 0.083 7.53 1.49 12.99
11/3/2022 10:30:00 AM 7.73 45.914 0.083 7.63 1.38 13.06
11/3/2022 10:45:00 AM 7.89 46.202 0.082 7.78 1.36 13.1
11/3/2022 11:00:00 AM 8.07 46.526 0.082 7.87 1.35 13.1
11/3/2022 11:15:00 AM 8.28 46.904 0.082 7.98 1.4 13.08
11/3/2022 11:30:00 AM 8.5 47.3 0.082 8.1 1.39 13.06
11/3/2022 11:45:00 AM 8.74 47.732 0.081 8.11 1.37 12.97
11/3/2022 12:00:00 PM 8.98 48.164 0.081 8.23 1.34 12.86
11/3/2022 12:15:00 PM 9.24 48.632 0.081 8.36 1.36 12.88
11/3/2022 12:30:00 PM 9.47 49.046 0.081 8.4 1.45 12.75
11/3/2022 12:45:00 PM 9.72 49.496 0.081 8.53 1.38 12.76
11/3/2022 1:00:00 PM 9.93 49.874 0.081 8.61 1.37 12.67
11/3/2022 1:15:00 PM 10.11 50.198 0.081 8.62 1.43 12.58
11/3/2022 1:30:00 PM 10.26 50.468 0.081 8.62 1.55 12.5
11/3/2022 1:45:00 PM 10.39 50.702 0.08 8.62 1.36 12.41
11/3/2022 2:00:00 PM 10.49 50.882 0.08 8.69 1.46 12.38
11/3/2022 2:15:00 PM 10.53 50.954 0.08 8.65 1.37 12.23
11/3/2022 2:30:00 PM 10.58 51.044 0.08 8.63 1.36 12.22
11/3/2022 2:45:00 PM 10.6 51.08 0.08 8.66 1.34 12.13
11/3/2022 3:00:00 PM 10.61 51.098 0.08 8.61 1.41 12.1
11/3/2022 3:15:00 PM 10.61 51.098 0.08 8.6 1.36 12.03
11/3/2022 3:30:00 PM 10.61 51.098 0.08 8.57 1.37 11.94
11/3/2022 3:45:00 PM 10.6 51.08 0.08 8.5 1.39 11.92
11/3/2022 4:00:00 PM 10.57 51.026 0.08 8.41 1.37 11.77
11/3/2022 4:15:00 PM 10.55 50.99 0.08 8.39 1.38 11.71
11/3/2022 4:30:00 PM 10.52 50.936 0.08 8.21 1.51 11.59
11/3/2022 4:45:00 PM 10.48 50.864 0.081 8.07 1.42 11.52
11/3/2022 5:00:00 PM 10.44 50.792 0.081 7.98 1.36 11.4
11/3/2022 5:15:00 PM 10.41 50.738 0.081 7.83 1.37 11.3
11/3/2022 5:30:00 PM 10.39 50.702 0.081 7.82 1.46 11.23
11/3/2022 5:45:00 PM 10.36 50.648 0.081 7.75 1.38 11.14
11/3/2022 6:00:00 PM 10.33 50.594 0.082 7.69 1.41 11.03
11/3/2022 6:15:00 PM 10.28 50.504 0.082 7.58 1.46 10.95
11/3/2022 6:30:00 PM 10.22 50.396 0.083 7.57 1.43 10.83
11/3/2022 6:45:00 PM 10.15 50.27 0.083 7.53 1.45 10.8
11/3/2022 7:00:00 PM 10.08 50.144 0.083 7.49 1.46 10.76
11/3/2022 7:15:00 PM 10.02 50.036 0.083 7.4 1.45 10.73
11/3/2022 7:30:00 PM 9.96 49.928 0.084 7.38 1.48 10.75
11/3/2022 7:45:00 PM 9.91 49.838 0.084 7.38 1.41 10.73
11/3/2022 8:00:00 PM 9.85 49.73 0.084 7.38 1.42 10.7
11/3/2022 8:15:00 PM 9.78 49.604 0.084 7.37 1.51 10.74
11/3/2022 8:30:00 PM 9.72 49.496 0.084 7.29 1.46 10.77
11/3/2022 8:45:00 PM 9.67 49.406 0.084 7.29 1.4 10.73
11/3/2022 9:00:00 PM 9.61 49.298 0.084 7.32 1.48 10.72
11/3/2022 9:15:00 PM 9.52 49.136 0.084 7.32 1.44 10.78
11/3/2022 9:30:00 PM 9.45 49.01 0.084 7.32 1.45 10.78
11/3/2022 9:45:00 PM 9.38 48.884 0.084 7.22 1.49 10.79
11/3/2022 10:00:00 PM 9.3 48.74 0.085 7.26 1.43 10.86
11/3/2022 10:15:00 PM 9.23 48.614 0.085 7.29 1.45 10.86
11/3/2022 10:30:00 PM 9.14 48.452 0.085 7.29 1.44 10.88
11/3/2022 10:45:00 PM 9.06 48.308 0.085 7.2 1.43 10.93
11/3/2022 11:00:00 PM 8.98 48.164 0.085 7.24 1.42 10.95
11/3/2022 11:15:00 PM 8.9 48.02 0.085 7.27 1.46 10.98
11/3/2022 11:30:00 PM 8.82 47.876 0.085 7.2 1.56 11.01
11/3/2022 11:45:00 PM 8.72 47.696 0.085 7.26 1.43 11.06
11/4/2022 12:00:00 AM 8.64 47.552 0.085 7.23 1.5 11.05
11/4/2022 12:15:00 AM 8.57 47.426 0.085 7.19 1.44 11.05
11/4/2022 12:30:00 AM 8.5 47.3 0.085 7.25 1.41 11.11
11/4/2022 12:45:00 AM 8.41 47.138 0.085 7.23 1.45 11.11
11/4/2022 1:00:00 AM 8.36 47.048 0.085 7.14 1.5 11.12
11/4/2022 1:15:00 AM 8.27 46.886 0.085 7.21 1.48 11.14
11/4/2022 1:30:00 AM 8.21 46.778 0.085 7.18 1.46 11.18
11/4/2022 1:45:00 AM 8.14 46.652 0.085 7.18 1.49 11.19
11/4/2022 2:00:00 AM 8.08 46.544 0.085 7.17 1.48 11.2
11/4/2022 2:15:00 AM 8 46.4 0.085 7.15 1.45 11.26
11/4/2022 2:30:00 AM 7.97 46.346 0.085 7.14 1.46 11.24
11/4/2022 2:45:00 AM 7.88 46.184 0.085 7.13 1.44 11.28
11/4/2022 3:00:00 AM 7.84 46.112 0.085 7.15 1.52 11.33
11/4/2022 3:15:00 AM 7.76 45.968 0.086 7.15 1.44 11.34
11/4/2022 3:30:00 AM 7.72 45.896 0.085 7.1 1.51 11.31
11/4/2022 3:45:00 AM 7.67 45.806 0.085 7.12 1.48 11.33
11/4/2022 4:00:00 AM 7.61 45.698 0.086 7.07 1.58 11.37
11/4/2022 4:15:00 AM 7.53 45.554 0.086 7.11 1.41 11.39
11/4/2022 4:30:00 AM 7.48 45.464 0.086 7.08 1.51 11.44
11/4/2022 4:45:00 AM 7.43 45.374 0.086 7.1 1.46 11.44
11/4/2022 5:00:00 AM 7.36 45.248 0.086 7.08 1.47 11.48
11/4/2022 5:15:00 AM 7.33 45.194 0.086 7.12 1.42 11.5
11/4/2022 5:30:00 AM 7.26 45.068 0.086 7.08 1.4 11.48
11/4/2022 5:45:00 AM 7.24 45.032 0.086 7.12 1.45 11.5
11/4/2022 6:00:00 AM 7.16 44.888 0.086 7.06 1.4 11.54
11/4/2022 6:15:00 AM 7.12 44.816 0.086 7.1 1.4 11.54
11/4/2022 6:30:00 AM 7.06 44.708 0.086 7.08 1.4 11.56
11/4/2022 6:45:00 AM 7.02 44.636 0.086 7.12 1.45 11.56
11/4/2022 7:00:00 AM 6.98 44.564 0.086 7.11 1.45 11.56
11/4/2022 7:15:00 AM 6.94 44.492 0.086 7.12 1.45 11.6
11/4/2022 7:30:00 AM 6.89 44.402 0.086 7.14 2.02 11.64
11/4/2022 7:45:00 AM 6.86 44.348 0.086 7.06 1.6 11.65
11/4/2022 8:00:00 AM 6.82 44.276 0.086 7.11 1.43 11.71
11/4/2022 8:15:00 AM 6.79 44.222 0.086 7.12 1.43 11.86
11/4/2022 8:30:00 AM 6.78 44.204 0.085 7.18 1.42 12.02
11/4/2022 8:45:00 AM 6.78 44.204 0.085 7.19 1.46 12.24
11/4/2022 9:00:00 AM 6.8 44.24 0.085 7.26 1.44 12.46
11/4/2022 9:15:00 AM 6.83 44.294 0.085 7.34 1.47 12.68
11/4/2022 9:30:00 AM 6.88 44.384 0.085 7.36 1.4 12.86
11/4/2022 9:45:00 AM 6.96 44.528 0.084 7.49 1.41 13.05
11/4/2022 10:00:00 AM 7.05 44.69 0.084 7.58 1.42 13.16
11/4/2022 10:15:00 AM 7.18 44.924 0.084 7.66 1.63 13.25
11/4/2022 10:30:00 AM 7.33 45.194 0.083 7.79 1.4 13.28
11/4/2022 10:45:00 AM 7.53 45.554 0.083 7.83 1.51 13.25
11/4/2022 11:00:00 AM 7.75 45.95 0.083 7.94 1.39 13.21
11/4/2022 11:15:00 AM 7.99 46.382 0.083 8.06 1.44 13.19
11/4/2022 11:30:00 AM 8.21 46.778 0.082 8.19 1.4 13.17
11/4/2022 11:45:00 AM 8.45 47.21 0.082 8.29 1.35 13.1
11/4/2022 12:00:00 PM 8.7 47.66 0.082 8.33 1.39 13
11/4/2022 12:15:00 PM 9 48.2 0.082 8.42 1.36 12.91
11/4/2022 12:30:00 PM 9.28 48.704 0.082 8.42 1.46 12.8
11/4/2022 12:45:00 PM 9.54 49.172 0.082 8.52 1.35 12.76
11/4/2022 1:00:00 PM 9.8 49.64 0.082 8.61 1.41 12.69
11/4/2022 1:15:00 PM 10.02 50.036 0.082 8.66 1.39 12.6
11/4/2022 1:30:00 PM 10.15 50.27 0.081 8.64 1.37 12.53
11/4/2022 1:45:00 PM 10.32 50.576 0.081 8.7 1.35 12.46
11/4/2022 2:00:00 PM 10.47 50.846 0.081 8.74 1.43 12.38
11/4/2022 2:15:00 PM 10.57 51.026 0.081 8.77 1.47 12.29
11/4/2022 2:30:00 PM 10.67 51.206 0.081 8.79 1.38 12.23
11/4/2022 2:45:00 PM 10.74 51.332 0.081 8.75 1.42 12.16
11/4/2022 3:00:00 PM 10.79 51.422 0.081 8.7 1.38 12.05
11/4/2022 3:15:00 PM 10.85 51.53 0.081 8.73 1.39 12.04
11/4/2022 3:30:00 PM 10.87 51.566 0.081 8.7 1.43 11.97
11/4/2022 3:45:00 PM 10.9 51.62 0.081 8.7 1.37 11.89
11/4/2022 4:00:00 PM 10.91 51.638 0.081 8.65 1.44 11.81
11/4/2022 4:15:00 PM 10.92 51.656 0.081 8.62 1.46 11.74
11/4/2022 4:30:00 PM 10.92 51.656 0.081 8.51 1.41 11.65
11/4/2022 4:45:00 PM 10.92 51.656 0.081 8.4 1.59 11.52
11/4/2022 5:00:00 PM 10.9 51.62 0.081 8.24 1.44 11.41
11/4/2022 5:15:00 PM 10.9 51.62 0.082 8.1 1.44 11.24
11/4/2022 5:30:00 PM 10.9 51.62 0.082 8 1.41 11.16
11/4/2022 5:45:00 PM 10.89 51.602 0.082 7.8 1.44 10.99
11/4/2022 6:00:00 PM 10.88 51.584 0.082 7.78 1.47 10.84
11/4/2022 6:15:00 PM 10.84 51.512 0.083 7.7 1.43 10.7
11/4/2022 6:30:00 PM 10.8 51.44 0.083 7.65 1.43 10.65
11/4/2022 6:45:00 PM 10.77 51.386 0.084 7.56 1.5 10.54
11/4/2022 7:00:00 PM 10.73 51.314 0.084 7.46 1.47 10.54
11/4/2022 7:15:00 PM 10.7 51.26 0.084 7.47 1.44 10.46
11/4/2022 7:30:00 PM 10.67 51.206 0.085 7.45 1.48 10.45
11/4/2022 7:45:00 PM 10.63 51.134 0.085 7.43 1.46 10.41
11/4/2022 8:00:00 PM 10.58 51.044 0.085 7.35 1.46 10.48
11/4/2022 8:15:00 PM 10.52 50.936 0.085 7.35 1.43 10.47
11/4/2022 8:30:00 PM 10.47 50.846 0.085 7.36 1.45 10.45
11/4/2022 8:45:00 PM 10.42 50.756 0.085 7.36 1.47 10.51
11/4/2022 9:00:00 PM 10.37 50.666 0.085 7.34 1.46 10.49
11/4/2022 9:15:00 PM 10.33 50.594 0.086 7.32 1.53 10.45
11/4/2022 9:30:00 PM 10.27 50.486 0.086 7.32 1.44 10.52
11/4/2022 9:45:00 PM 10.23 50.414 0.086 7.31 1.49 10.54
11/4/2022 10:00:00 PM 10.18 50.324 0.086 7.3 1.44 10.55
11/4/2022 10:15:00 PM 10.13 50.234 0.086 7.24 1.46 10.56
11/4/2022 10:30:00 PM 10.09 50.162 0.086 7.25 1.49 10.58
11/4/2022 10:45:00 PM 10.06 50.108 0.086 7.26 1.52 10.61
11/4/2022 11:00:00 PM 10.04 50.072 0.086 7.24 1.5 10.58
11/4/2022 11:15:00 PM 10.02 50.036 0.087 7.24 1.47 10.61
11/4/2022 11:30:00 PM 10.01 50.018 0.087 7.28 1.54 10.61
11/4/2022 11:45:00 PM 9.99 49.982 0.087 7.28 1.52 10.65
11/5/2022 12:00:00 AM 9.99 49.982 0.087 7.28 1.56 10.65
11/5/2022 12:15:00 AM 9.99 49.982 0.087 7.23 1.49 10.65
11/5/2022 12:30:00 AM 9.99 49.982 0.087 7.26 1.51 10.63
11/5/2022 12:45:00 AM 10 50 0.087 7.23 1.49 10.67
11/5/2022 1:00:00 AM 10.01 50.018 0.087 7.26 1.51 10.64
11/5/2022 1:15:00 AM 10.01 50.018 0.087 7.22 1.53 10.62
11/5/2022 1:30:00 AM 10.01 50.018 0.087 7.27 1.49 10.6
11/5/2022 1:45:00 AM 10.02 50.036 0.087 7.19 1.52 10.6
11/5/2022 2:00:00 AM 10.03 50.054 0.087 7.27 1.44 10.61
11/5/2022 2:15:00 AM 10.05 50.09 0.087 7.19 1.52 10.61
11/5/2022 2:30:00 AM 10.08 50.144 0.087 7.27 1.44 10.63
11/5/2022 2:45:00 AM 10.09 50.162 0.087 7.2 1.5 10.56
11/5/2022 3:00:00 AM 10.11 50.198 0.087 7.26 1.56 10.59
11/5/2022 3:15:00 AM 10.14 50.252 0.087 7.22 1.54 10.6
11/5/2022 3:30:00 AM 10.17 50.306 0.087 7.26 1.47 10.57
11/5/2022 3:45:00 AM 10.21 50.378 0.087 7.2 1.49 10.59
11/5/2022 4:00:00 AM 10.25 50.45 0.087 7.21 1.53 10.56
11/5/2022 4:15:00 AM 10.28 50.504 0.087 7.26 1.55 10.58
11/5/2022 4:30:00 AM 10.32 50.576 0.087 7.27 1.5 10.59
11/5/2022 4:45:00 AM 10.35 50.63 0.087 7.19 1.51 10.52
11/5/2022 5:00:00 AM 10.39 50.702 0.087 7.26 1.49 10.53
11/5/2022 5:15:00 AM 10.42 50.756 0.087 7.24 1.55 10.52
11/5/2022 5:30:00 AM 10.43 50.774 0.087 7.19 1.46 10.51
11/5/2022 5:45:00 AM 10.46 50.828 0.087 7.22 1.48 10.49
11/5/2022 6:00:00 AM 10.49 50.882 0.088 7.19 1.48 10.45
11/5/2022 6:15:00 AM 10.53 50.954 0.088 7.21 1.49 10.5
11/5/2022 6:30:00 AM 10.56 51.008 0.088 7.22 1.66 10.46
11/5/2022 6:45:00 AM 10.61 51.098 0.089 7.22 1.52 10.46
11/5/2022 7:00:00 AM 10.65 51.17 0.088 7.21 1.54 10.46
11/5/2022 7:15:00 AM 10.69 51.242 0.088 7.22 1.56 10.44
11/5/2022 7:30:00 AM 10.73 51.314 0.088 7.22 1.52 10.41
11/5/2022 7:45:00 AM 10.76 51.368 0.088 7.21 1.49 10.4
11/5/2022 8:00:00 AM 10.8 51.44 0.088 7.22 1.6 10.45
11/5/2022 8:15:00 AM 10.84 51.512 0.087 7.25 1.49 10.42
11/5/2022 8:30:00 AM 10.88 51.584 0.087 7.18 1.5 10.47
11/5/2022 8:45:00 AM 10.93 51.674 0.087 7.28 1.5 10.54
11/5/2022 9:00:00 AM 10.98 51.764 0.087 7.29 1.4 10.56
11/5/2022 9:15:00 AM 11.04 51.872 0.087 7.32 1.5 10.73
11/5/2022 9:30:00 AM 11.1 51.98 0.087 7.36 1.48 10.95
11/5/2022 9:45:00 AM 11.16 52.088 0.086 7.32 1.42 11
11/5/2022 10:00:00 AM 11.21 52.178 0.086 7.39 1.52 11.11
11/5/2022 10:15:00 AM 11.26 52.268 0.086 7.44 1.55 11.15
11/5/2022 10:30:00 AM 11.32 52.376 0.086 7.45 1.44 11.21
11/5/2022 10:45:00 AM 11.39 52.502 0.086 7.51 1.48 11.31
11/5/2022 11:00:00 AM 11.45 52.61 0.085 7.56 1.48 11.42
11/5/2022 11:15:00 AM 11.53 52.754 0.085 7.61 1.43 11.51
11/5/2022 11:30:00 AM 11.62 52.916 0.085 7.59 1.48 11.63
11/5/2022 11:45:00 AM 11.71 53.078 0.085 7.76 1.41 11.76
11/5/2022 12:00:00 PM 11.83 53.294 0.084 7.88 1.45 11.88
11/5/2022 12:15:00 PM 11.92 53.456 0.084 7.94 1.5 11.88
11/5/2022 12:30:00 PM 12.03 53.654 0.084 8.14 1.49 11.91
11/5/2022 12:45:00 PM 12.12 53.816 0.084 8.16 1.55 11.85
11/5/2022 1:00:00 PM 12.19 53.942 0.083 8.15 1.44 11.76
11/5/2022 1:15:00 PM 12.34 54.212 0.083 8.38 1.43 11.86
11/5/2022 1:30:00 PM 12.51 54.518 0.083 8.49 1.59 11.92
11/5/2022 1:45:00 PM 12.62 54.716 0.083 8.57 1.48 11.84
11/5/2022 2:00:00 PM 12.74 54.932 0.082 8.62 1.48 11.83
11/5/2022 2:15:00 PM 12.82 55.076 0.082 8.72 1.52 11.75
11/5/2022 2:30:00 PM 12.9 55.22 0.082 8.68 1.59 11.65
11/5/2022 2:45:00 PM 12.97 55.346 0.082 8.8 1.47 11.58
11/5/2022 3:00:00 PM 13.04 55.472 0.082 8.75 1.45 11.45
11/5/2022 3:15:00 PM 13.08 55.544 0.082 8.83 1.5 11.27
11/5/2022 3:30:00 PM 13.11 55.598 0.082 8.75 1.44 11.03
11/5/2022 3:45:00 PM 13.13 55.634 0.082 8.52 1.59 10.9
11/5/2022 4:00:00 PM 13.17 55.706 0.082 8.51 1.99 10.88
11/5/2022 4:15:00 PM 13.21 55.778 0.082 8.51 1.41 11.01
11/5/2022 4:30:00 PM 13.26 55.868 0.082 8.6 1.45 11.06
11/5/2022 4:45:00 PM 13.29 55.922 0.082 8.61 1.4 11.03
11/5/2022 5:00:00 PM 13.3 55.94 0.082 8.39 1.34 10.83
11/5/2022 5:15:00 PM 13.29 55.922 0.082 8.23 1.39 10.65
11/5/2022 5:30:00 PM 13.29 55.922 0.083 8.1 1.42 10.46
11/5/2022 5:45:00 PM 13.26 55.868 0.083 7.88 1.42 10.27
11/5/2022 6:00:00 PM 13.25 55.85 0.084 7.77 1.43 10.12
11/5/2022 6:15:00 PM 13.23 55.814 0.084 7.7 1.45 10.01
11/5/2022 6:30:00 PM 13.22 55.796 0.084 7.62 1.44 9.91
11/5/2022 6:45:00 PM 13.18 55.724 0.084 7.58 1.47 9.81
11/5/2022 7:00:00 PM 13.15 55.67 0.084 7.54 1.41 9.8
11/5/2022 7:15:00 PM 13.11 55.598 0.085 7.44 1.54 9.74
11/5/2022 7:30:00 PM 13.08 55.544 0.085 7.48 1.56 9.75
11/5/2022 7:45:00 PM 13.07 55.526 0.085 7.45 1.46 9.76
11/5/2022 8:00:00 PM 13.05 55.49 0.085 7.39 1.37 9.71
11/5/2022 8:15:00 PM 13.02 55.436 0.085 7.31 1.49 9.72
11/5/2022 8:30:00 PM 13 55.4 0.085 7.37 1.47 9.71
11/5/2022 8:45:00 PM 12.97 55.346 0.085 7.29 1.46 9.72
11/5/2022 9:00:00 PM 12.97 55.346 0.086 7.31 1.55 9.71
11/5/2022 9:15:00 PM 12.95 55.31 0.086 7.34 1.6 9.7
11/5/2022 9:30:00 PM 12.94 55.292 0.086 7.25 1.51 9.71
11/5/2022 9:45:00 PM 12.94 55.292 0.086 7.28 1.5 9.71
11/5/2022 10:00:00 PM 12.95 55.31 0.086 7.32 1.55 9.73
11/5/2022 10:15:00 PM 12.93 55.274 0.086 7.29 1.54 9.69
11/5/2022 10:30:00 PM 12.94 55.292 0.086 7.23 1.4 9.67
11/5/2022 10:45:00 PM 12.94 55.292 0.086 7.29 1.47 9.71
11/5/2022 11:00:00 PM 12.93 55.274 0.087 7.26 1.44 9.71
11/5/2022 11:15:00 PM 12.92 55.256 0.087 7.24 1.43 9.74
11/5/2022 11:30:00 PM 12.91 55.238 0.087 7.29 1.45 9.74
11/5/2022 11:45:00 PM 12.91 55.238 0.087 7.21 1.54 9.76
11/6/2022 12:00:00 AM 12.92 55.256 0.087 7.23 1.52 9.75
11/6/2022 12:15:00 AM 12.93 55.274 0.087 7.28 1.48 9.74
11/6/2022 12:30:00 AM 12.93 55.274 0.087 7.19 1.44 9.74
11/6/2022 12:45:00 AM 12.93 55.274 0.087 7.21 1.47 9.73
11/6/2022 1:00:00 AM 12.94 55.292 0.088 7.27 1.5 9.71
11/6/2022 1:15:00 AM 12.93 55.274 0.087 7.25 1.48 9.71
11/6/2022 1:30:00 AM 12.95 55.31 0.088 7.22 1.45 9.74
11/6/2022 1:45:00 AM 12.97 55.346 0.088 7.27 1.45 9.75
11/6/2022 2:00:00 AM 12.97 55.346 0.087 7.26 1.43 9.73
11/6/2022 2:15:00 AM 12.99 55.382 0.087 7.27 1.49 9.73
11/6/2022 2:30:00 AM 12.99 55.382 0.087 7.25 1.52 9.68
11/6/2022 2:45:00 AM 12.99 55.382 0.087 7.26 1.47 9.71
11/6/2022 3:00:00 AM 12.98 55.364 0.087 7.26 1.62 9.75
11/6/2022 3:15:00 AM 12.99 55.382 0.087 7.19 1.64 9.74
11/6/2022 3:30:00 AM 12.98 55.364 0.087 7.25 1.73 9.71
11/6/2022 3:45:00 AM 13 55.4 0.087 7.27 1.49 9.77
11/6/2022 4:00:00 AM 13 55.4 0.087 7.19 1.58 9.75
11/6/2022 4:15:00 AM 13.02 55.436 0.087 7.27 1.52 9.77
11/6/2022 4:30:00 AM 13.03 55.454 0.087 7.25 1.54 9.75
11/6/2022 4:45:00 AM 13.06 55.508 0.087 7.26 1.48 9.74
11/6/2022 5:00:00 AM 13.06 55.508 0.087 7.22 1.55 9.76
11/6/2022 5:15:00 AM 13.07 55.526 0.088 7.2 1.54 9.72
11/6/2022 5:30:00 AM 13.08 55.544 0.087 7.24 1.69 9.7
11/6/2022 5:45:00 AM 13.09 55.562 0.088 7.25 1.55 9.75
11/6/2022 6:00:00 AM 13.1 55.58 0.087 7.2 1.56 9.73
11/6/2022 6:15:00 AM 13.13 55.634 0.088 7.24 1.61 9.71
11/6/2022 6:30:00 AM 13.15 55.67 0.088 7.19 1.54 9.7
11/6/2022 6:45:00 AM 13.16 55.688 0.088 7.21 1.61 9.72
11/6/2022 7:00:00 AM 13.17 55.706 0.088 7.22 1.66 9.64
11/6/2022 7:15:00 AM 13.17 55.706 0.087 7.17 1.5 9.7
11/6/2022 7:30:00 AM 13.21 55.778 0.088 7.26 1.54 9.72
11/6/2022 7:45:00 AM 13.23 55.814 0.088 7.26 1.59 9.7
11/6/2022 8:00:00 AM 13.26 55.868 0.088 7.17 1.71 9.74
11/6/2022 8:15:00 AM 13.26 55.868 0.088 7.23 1.61 9.75
11/6/2022 8:30:00 AM 13.29 55.922 0.088 7.27 1.58 9.84
11/6/2022 8:45:00 AM 13.28 55.904 0.087 7.27 1.61 9.93
11/6/2022 9:00:00 AM 13.32 55.976 0.088 7.22 1.53 9.89
11/6/2022 9:15:00 AM 13.34 56.012 0.087 7.27 1.59 9.92
11/6/2022 9:30:00 AM 13.36 56.048 0.087 7.22 1.54 9.91
11/6/2022 9:45:00 AM 13.38 56.084 0.087 7.3 1.54 9.96
11/6/2022 10:00:00 AM 13.4 56.12 0.087 7.3 1.51 9.99
11/6/2022 10:15:00 AM 13.42 56.156 0.087 7.32 1.49 10.06
11/6/2022 10:30:00 AM 13.45 56.21 0.087 7.28 1.55 10.21
11/6/2022 10:45:00 AM 13.48 56.264 0.087 7.37 1.57 10.25
11/6/2022 11:00:00 AM 13.52 56.336 0.087 7.36 1.54 10.49
11/6/2022 11:15:00 AM 13.55 56.39 0.086 7.42 1.45 10.62
11/6/2022 11:30:00 AM 13.61 56.498 0.086 7.53 1.45 10.84
11/6/2022 11:45:00 AM 13.72 56.696 0.086 7.6 1.44 11.08
11/6/2022 12:00:00 PM 13.84 56.912 0.085 7.82 1.48 11.38
11/6/2022 12:15:00 PM 13.95 57.11 0.085 7.96 1.5 11.39
11/6/2022 12:30:00 PM 14.06 57.308 0.085 8.05 1.62 11.45
11/6/2022 12:45:00 PM 14.17 57.506 0.084 8.21 1.48 11.49
11/6/2022 1:00:00 PM 14.29 57.722 0.084 8.37 1.69 11.54
11/6/2022 1:15:00 PM 14.39 57.902 0.084 8.49 1.54 11.54
11/6/2022 1:30:00 PM 14.48 58.064 0.083 8.61 1.51 11.49
11/6/2022 1:45:00 PM 14.56 58.208 0.083 8.65 1.59 11.42
11/6/2022 2:00:00 PM 14.66 58.388 0.083 8.72 1.49 11.35
11/6/2022 2:15:00 PM 14.74 58.532 0.083 8.65 1.47 11.2
11/6/2022 2:30:00 PM 14.84 58.712 0.082 8.72 1.5 11.11
11/6/2022 2:45:00 PM 14.93 58.874 0.082 8.83 1.52 11.1
11/6/2022 3:00:00 PM 15.02 59.036 0.082 8.88 1.43 11.01
11/6/2022 3:15:00 PM 15.06 59.108 0.082 8.88 1.49 10.96
11/6/2022 3:30:00 PM 15.1 59.18 0.082 8.94 1.52 10.91
11/6/2022 3:45:00 PM 15.11 59.198 0.082 9 1.87 10.94
11/6/2022 4:00:00 PM 15.13 59.234 0.082 8.98 1.5 10.77
11/6/2022 4:15:00 PM 15.14 59.252 0.082 8.83 1.46 10.68
11/6/2022 4:30:00 PM 15.15 59.27 0.082 8.8 1.51 10.52
11/6/2022 4:45:00 PM 15.18 59.324 0.082 8.74 1.45 10.42
11/6/2022 5:00:00 PM 15.22 59.396 0.082 8.69 1.51 10.3
11/6/2022 5:15:00 PM 15.21 59.378 0.083 8.56 1.5 10.12
11/6/2022 5:30:00 PM 15.18 59.324 0.083 8.4 1.57 9.99
11/6/2022 5:45:00 PM 15.12 59.216 0.083 8.19 1.58 9.88
11/6/2022 6:00:00 PM 15.08 59.144 0.084 7.98 1.49 9.74
11/6/2022 6:15:00 PM 15.05 59.09 0.084 7.86 1.55 9.55
11/6/2022 6:30:00 PM 15 59 0.084 7.71 1.6 9.4
11/6/2022 6:45:00 PM 14.94 58.892 0.085 7.59 1.58 9.33
11/6/2022 7:00:00 PM 14.93 58.874 0.085 7.56 1.54 9.31
11/6/2022 7:15:00 PM 14.91 58.838 0.085 7.57 1.59 9.3
11/6/2022 7:30:00 PM 14.89 58.802 0.086 7.54 1.62 9.3
11/6/2022 7:45:00 PM 14.84 58.712 0.086 7.42 1.52 9.26
11/6/2022 8:00:00 PM 14.81 58.658 0.086 7.43 1.84 9.23
11/6/2022 8:15:00 PM 14.8 58.64 0.086 7.42 1.56 9.13
11/6/2022 8:30:00 PM 14.79 58.622 0.086 7.4 1.53 9.22
11/6/2022 8:45:00 PM 14.8 58.64 0.086 7.4 1.64 9.19
11/6/2022 9:00:00 PM 14.8 58.64 0.087 7.34 1.57 9.22
11/6/2022 9:15:00 PM 14.8 58.64 0.087 7.37 1.65 9.24
11/6/2022 9:30:00 PM 14.81 58.658 0.087 7.36 1.58 9.29
11/6/2022 9:45:00 PM 14.82 58.676 0.087 7.37 1.62 9.3
11/6/2022 10:00:00 PM 14.81 58.658 0.087 7.28 1.55 9.24
11/6/2022 10:15:00 PM 14.8 58.64 0.088 7.34 1.69 9.25
11/6/2022 10:30:00 PM 14.8 58.64 0.088 7.27 1.63 9.27
11/6/2022 10:45:00 PM 14.8 58.64 0.088 7.28 1.67 9.22
11/6/2022 11:00:00 PM 14.8 58.64 0.088 7.33 1.56 9.28
11/6/2022 11:15:00 PM 14.82 58.676 0.088 7.27 1.57 9.25
11/6/2022 11:30:00 PM 14.8 58.64 0.088 7.25 1.75 9.24
11/6/2022 11:45:00 PM 14.81 58.658 0.089 7.26 1.64 9.23
11/7/2022 12:00:00 AM 14.81 58.658 0.089 7.28 1.61 9.2
11/7/2022 12:15:00 AM 14.84 58.712 0.089 7.29 1.55 9.29
11/7/2022 12:30:00 AM 14.83 58.694 0.089 7.28 1.56 9.23
11/7/2022 12:45:00 AM 14.82 58.676 0.089 7.28 1.56 9.21
11/7/2022 1:00:00 AM 14.82 58.676 0.089 7.26 1.58 9.24
11/7/2022 1:15:00 AM 14.82 58.676 0.089 7.2 1.66 9.23
11/7/2022 1:30:00 AM 14.81 58.658 0.089 7.23 1.66 9.24
11/7/2022 1:45:00 AM 14.76 58.568 0.089 7.27 1.68 9.27
11/7/2022 2:00:00 AM 14.7 58.46 0.089 7.27 1.54 9.29
11/7/2022 2:15:00 AM 14.7 58.46 0.089 7.2 1.57 9.27
11/7/2022 2:30:00 AM 14.65 58.37 0.089 7.25 1.61 9.25
11/7/2022 2:45:00 AM 14.66 58.388 0.089 7.25 1.64 9.29
11/7/2022 3:00:00 AM 14.66 58.388 0.089 7.18 1.57 9.31
11/7/2022 3:15:00 AM 14.65 58.37 0.089 7.26 1.67 9.35
11/7/2022 3:30:00 AM 14.63 58.334 0.089 7.23 1.63 9.33
11/7/2022 3:45:00 AM 14.59 58.262 0.088 7.22 1.61 9.25
11/7/2022 4:00:00 AM 14.6 58.28 0.088 7.26 1.65 9.32
11/7/2022 4:15:00 AM 14.57 58.226 0.088 7.22 1.61 9.29
11/7/2022 4:30:00 AM 14.58 58.244 0.088 7.14 1.6 9.22
11/7/2022 4:45:00 AM 14.58 58.244 0.088 7.19 1.81 9.34
11/7/2022 5:00:00 AM 14.56 58.208 0.088 7.24 1.58 9.33
11/7/2022 5:15:00 AM 14.51 58.118 0.088 7.19 1.62 9.36
11/7/2022 5:30:00 AM 14.46 58.028 0.088 7.2 1.61 9.31
11/7/2022 5:45:00 AM 14.4 57.92 0.088 7.2 1.64 9.29
11/7/2022 6:00:00 AM 14.36 57.848 0.088 7.22 3.91 9.36
11/7/2022 6:15:00 AM 14.33 57.794 0.088 7.23 1.6 9.37
11/7/2022 6:30:00 AM 14.28 57.704 0.089 7.17 1.66 9.44
11/7/2022 6:45:00 AM 14.22 57.596 0.088 7.23 1.6 9.43
11/7/2022 7:00:00 AM 14.16 57.488 0.088 7.15 1.66 9.44
11/7/2022 7:15:00 AM 14.1 57.38 0.088 7.18 1.67 9.48
11/7/2022 7:30:00 AM 14.03 57.254 0.088 7.21 1.72 9.48
11/7/2022 7:45:00 AM 13.98 57.164 0.089 7.17 1.65 9.51
11/7/2022 8:00:00 AM 13.91 57.038 0.088 7.17 1.64 9.55
11/7/2022 8:15:00 AM 13.83 56.894 0.088 7.21 1.68 9.64
11/7/2022 8:30:00 AM 13.77 56.786 0.088 7.2 1.66 9.75
11/7/2022 8:45:00 AM 13.7 56.66 0.088 7.19 1.72 9.85
11/7/2022 9:00:00 AM 13.66 56.588 0.088 7.25 1.66 10.01
11/7/2022 9:15:00 AM 13.62 56.516 0.088 7.29 1.71 10.14
11/7/2022 9:30:00 AM 13.6 56.48 0.088 7.4 1.65 10.5
11/7/2022 9:45:00 AM 13.57 56.426 0.087 7.43 1.62 10.65
11/7/2022 10:00:00 AM 13.58 56.444 0.087 7.49 1.63 10.86
11/7/2022 10:15:00 AM 13.61 56.498 0.087 7.6 1.62 11.09
11/7/2022 10:30:00 AM 13.66 56.588 0.086 7.73 1.62 11.21
11/7/2022 10:45:00 AM 13.72 56.696 0.086 7.76 1.64 11.28
11/7/2022 11:00:00 AM 13.78 56.804 0.086 7.88 1.6 11.35
11/7/2022 11:15:00 AM 13.86 56.948 0.085 7.99 1.78 11.34
11/7/2022 11:30:00 AM 14.48 58.064 0.084 8.51 1.64 11.29
11/7/2022 11:45:00 AM 14.6 58.28 0.084 8.51 1.58 11.19
11/7/2022 12:00:00 PM 14.71 58.478 0.084 8.53 1.68 11.22
11/7/2022 12:15:00 PM 14.75 58.55 0.084 8.48 1.59 11.05
11/7/2022 12:30:00 PM 14.85 58.73 0.084 8.72 1.48 11.14
11/7/2022 12:45:00 PM 14.83 58.694 0.083 8.71 1.59 11.06
11/7/2022 1:00:00 PM 14.85 58.73 0.084 8.7 1.54 11.04
11/7/2022 1:15:00 PM 14.8 58.64 0.083 8.73 1.4 10.93
11/7/2022 1:30:00 PM 14.73 58.514 0.083 8.74 1.59 10.93
11/7/2022 1:45:00 PM 14.66 58.388 0.083 8.82 1.58 10.89
11/7/2022 2:00:00 PM 14.58 58.244 0.083 8.66 1.56 10.79
11/7/2022 2:15:00 PM 14.48 58.064 0.083 8.66 1.52 10.79
11/7/2022 2:30:00 PM 14.41 57.938 0.084 8.68 1.59 10.81
11/7/2022 2:45:00 PM 14.3 57.74 0.083 8.47 1.49 10.7
11/7/2022 3:00:00 PM 14.17 57.506 0.083 8.42 1.54 10.63
11/7/2022 3:15:00 PM 14.06 57.308 0.084 8.38 1.59 10.57
11/7/2022 3:30:00 PM 13.94 57.092 0.084 8.18 1.52 10.46
11/7/2022 3:45:00 PM 13.81 56.858 0.084 8.1 1.51 10.39
11/7/2022 4:00:00 PM 13.7 56.66 0.084 7.93 1.52 10.29
11/7/2022 4:15:00 PM 13.58 56.444 0.084 7.85 1.62 10.23
11/7/2022 4:30:00 PM 13.47 56.246 0.084 7.79 1.65 10.21
11/7/2022 4:45:00 PM 13.38 56.084 0.084 7.62 1.62 10.07
11/7/2022 5:00:00 PM 13.29 55.922 0.085 7.61 1.55 10.04
11/7/2022 5:15:00 PM 13.18 55.724 0.085 7.57 1.6 10.01
11/7/2022 5:30:00 PM 13.04 55.472 0.085 7.53 1.67 9.92
11/7/2022 5:45:00 PM 12.93 55.274 0.086 7.48 1.61 9.9
11/7/2022 6:00:00 PM 12.8 55.04 0.086 7.47 1.66 9.9
11/7/2022 6:15:00 PM 12.68 54.824 0.086 7.36 1.64 9.85
11/7/2022 6:30:00 PM 12.54 54.572 0.087 7.39 1.72 9.92
11/7/2022 6:45:00 PM 12.45 54.41 0.087 7.33 1.68 9.82
11/7/2022 7:00:00 PM 12.32 54.176 0.087 7.35 1.82 9.97
11/7/2022 7:15:00 PM 12.19 53.942 0.087 7.25 1.77 9.97
11/7/2022 7:30:00 PM 12.08 53.744 0.087 7.28 1.83 10
11/7/2022 7:45:00 PM 11.98 53.564 0.088 7.22 1.55 10.04
11/7/2022 8:00:00 PM 11.87 53.366 0.088 7.22 1.75 10.09
11/7/2022 8:15:00 PM 11.77 53.186 0.088 7.2 1.72 10.1
11/7/2022 8:30:00 PM 11.67 53.006 0.088 7.21 1.58 10.14
11/7/2022 8:45:00 PM 11.56 52.808 0.088 7.17 1.69 10.17
11/7/2022 9:00:00 PM 11.45 52.61 0.088 7.19 1.71 10.23
11/7/2022 9:15:00 PM 11.34 52.412 0.089 7.2 1.64 10.25
11/7/2022 9:30:00 PM 11.25 52.25 0.089 7.12 1.84 10.27
11/7/2022 9:45:00 PM 11.15 52.07 0.089 7.18 1.65 10.29
11/7/2022 10:00:00 PM 11.05 51.89 0.089 7.11 1.69 10.3
11/7/2022 10:15:00 PM 10.93 51.674 0.089 7.17 1.8 10.38
11/7/2022 10:30:00 PM 10.84 51.512 0.089 7.16 1.72 10.41
11/7/2022 10:45:00 PM 10.74 51.332 0.089 7.12 1.74 10.45
11/7/2022 11:00:00 PM 10.65 51.17 0.089 7.16 1.62 10.46
11/7/2022 11:15:00 PM 10.55 50.99 0.089 7.16 1.85 10.49
11/7/2022 11:30:00 PM 10.44 50.792 0.089 7.14 1.76 10.56
11/7/2022 11:45:00 PM 10.34 50.612 0.089 7.15 1.68 10.57
11/8/2022 12:00:00 AM 10.26 50.468 0.089 7.11 1.64 10.58
11/8/2022 12:15:00 AM 10.16 50.288 0.089 7.16 1.58 10.63
11/8/2022 12:30:00 AM 10.07 50.126 0.089 7.12 1.66 10.67
11/8/2022 12:45:00 AM 9.98 49.964 0.089 7.15 1.63 10.71
11/8/2022 1:00:00 AM 9.89 49.802 0.089 7.15 1.65 10.71
11/8/2022 1:15:00 AM 9.8 49.64 0.089 7.12 1.68 10.77
11/8/2022 1:30:00 AM 9.73 49.514 0.089 7.1 1.6 10.74
11/8/2022 1:45:00 AM 9.64 49.352 0.089 7.14 1.62 10.8
11/8/2022 2:00:00 AM 9.57 49.226 0.089 7.14 1.63 10.79
11/8/2022 2:15:00 AM 9.49 49.082 0.089 7.17 1.57 10.84
11/8/2022 2:30:00 AM 9.41 48.938 0.089 7.09 1.71 10.84
11/8/2022 2:45:00 AM 9.32 48.776 0.089 7.16 1.55 10.88
11/8/2022 3:00:00 AM 9.24 48.632 0.089 7.16 1.67 10.93
11/8/2022 3:15:00 AM 9.17 48.506 0.089 7.15 1.61 10.92
11/8/2022 3:30:00 AM 9.12 48.416 0.089 7.09 1.64 10.91
11/8/2022 3:45:00 AM 9.02 48.236 0.089 7.16 1.67 10.98
11/8/2022 4:00:00 AM 8.94 48.092 0.089 7.1 1.68 11
11/8/2022 4:15:00 AM 8.86 47.948 0.089 7.16 1.69 11.02
11/8/2022 4:30:00 AM 8.79 47.822 0.089 7.15 1.63 11.04
11/8/2022 4:45:00 AM 8.71 47.678 0.089 7.14 1.7 11.08
11/8/2022 5:00:00 AM 8.62 47.516 0.089 7.15 1.62 11.11
11/8/2022 5:15:00 AM 8.55 47.39 0.089 7.15 1.58 11.12
11/8/2022 5:30:00 AM 8.48 47.264 0.089 7.13 1.64 11.15
11/8/2022 5:45:00 AM 8.42 47.156 0.089 7.15 1.74 11.15
11/8/2022 6:00:00 AM 8.33 46.994 0.089 7.15 1.61 11.18
11/8/2022 6:15:00 AM 8.27 46.886 0.089 7.1 1.64 11.17
11/8/2022 6:30:00 AM 8.18 46.724 0.089 7.12 1.64 11.25
11/8/2022 6:45:00 AM 8.11 46.598 0.089 7.12 1.71 11.27
11/8/2022 7:00:00 AM 8.05 46.49 0.089 7.17 1.56 11.35
11/8/2022 7:15:00 AM 7.98 46.364 0.089 7.12 1.56 11.44
11/8/2022 7:30:00 AM 7.93 46.274 0.089 7.18 1.57 11.52
11/8/2022 7:45:00 AM 7.86 46.148 0.089 7.22 1.81 11.7
11/8/2022 8:00:00 AM 7.83 46.094 0.089 7.24 1.58 11.83
11/8/2022 8:15:00 AM 7.82 46.076 0.089 7.26 1.61 12.07
11/8/2022 8:30:00 AM 7.8 46.04 0.088 7.33 2.06 12.26
11/8/2022 8:45:00 AM 7.82 46.076 0.088 7.36 1.56 12.43
11/8/2022 9:00:00 AM 7.87 46.166 0.088 7.45 1.58 12.56
11/8/2022 9:15:00 AM 7.94 46.292 0.088 7.54 1.61 12.75
11/8/2022 9:30:00 AM 8.02 46.436 0.087 7.6 1.48 12.85
11/8/2022 9:45:00 AM 8.11 46.598 0.087 7.71 1.55 12.92
11/8/2022 10:00:00 AM 8.23 46.814 0.087 7.76 1.52 12.92
11/8/2022 10:15:00 AM 8.34 47.012 0.086 7.84 1.57 12.9
11/8/2022 10:30:00 AM 8.49 47.282 0.086 7.94 1.58 12.95
11/8/2022 10:45:00 AM 8.64 47.552 0.086 7.96 1.5 12.89
11/8/2022 11:00:00 AM 8.79 47.822 0.086 8.06 1.52 12.86
11/8/2022 11:15:00 AM 8.98 48.164 0.085 8.17 1.49 12.82
11/8/2022 11:30:00 AM 9.14 48.452 0.085 8.18 1.57 12.74
11/8/2022 11:45:00 AM 9.29 48.722 0.085 8.2 3.56 12.65
11/8/2022 12:00:00 PM 9.46 49.028 0.085 8.36 1.54 12.66
11/8/2022 12:15:00 PM 9.58 49.244 0.085 8.4 1.34 12.58
11/8/2022 12:30:00 PM 9.67 49.406 0.085 8.43 1.36 12.55
11/8/2022 12:45:00 PM 9.74 49.532 0.085 8.48 1.48 12.5
11/8/2022 1:00:00 PM 9.77 49.586 0.085 8.48 1.4 12.44
11/8/2022 1:15:00 PM 9.78 49.604 0.085 8.44 1.43 12.4
11/8/2022 1:30:00 PM 9.76 49.568 0.085 8.48 1.35 12.34
11/8/2022 1:45:00 PM 9.72 49.496 0.085 8.43 1.39 12.32
11/8/2022 2:00:00 PM 9.68 49.424 0.085 8.4 1.33 12.26
11/8/2022 2:15:00 PM 9.64 49.352 0.085 8.21 1.39 12.19
11/8/2022 2:30:00 PM 9.6 49.28 0.085 8.21 1.32 12.16
11/8/2022 2:45:00 PM 9.51 49.118 0.085 8.26 1.38 12.15
11/8/2022 3:00:00 PM 9.42 48.956 0.085 8.18 1.4 12.1
11/8/2022 3:15:00 PM 9.35 48.83 0.085 8.09 1.39 12
11/8/2022 3:30:00 PM 9.25 48.65 0.085 8.05 1.4 11.96
11/8/2022 3:45:00 PM 9.16 48.488 0.085 7.91 1.33 11.83
11/8/2022 4:00:00 PM 9.09 48.362 0.085 7.79 1.4 11.77
11/8/2022 4:15:00 PM 8.99 48.182 0.086 7.78 1.31 11.75
11/8/2022 4:30:00 PM 8.92 48.056 0.086 7.7 1.42 11.67
11/8/2022 4:45:00 PM 8.87 47.966 0.086 7.65 1.43 11.59
11/8/2022 5:00:00 PM 8.8 47.84 0.086 7.64 1.44 11.52
11/8/2022 5:15:00 PM 8.74 47.732 0.086 7.53 1.47 11.41
11/8/2022 5:30:00 PM 8.67 47.606 0.087 7.5 1.44 11.35
11/8/2022 5:45:00 PM 8.62 47.516 0.087 7.48 1.46 11.25
11/8/2022 6:00:00 PM 8.52 47.336 0.087 7.42 1.5 11.23
11/8/2022 6:15:00 PM 8.46 47.228 0.088 7.38 1.6 11.22
11/8/2022 6:30:00 PM 8.38 47.084 0.088 7.39 1.37 11.25
11/8/2022 6:45:00 PM 8.32 46.976 0.088 7.36 1.47 11.23
11/8/2022 7:00:00 PM 8.25 46.85 0.088 7.32 1.44 11.25
11/8/2022 7:15:00 PM 8.22 46.796 0.088 7.32 1.42 11.23
11/8/2022 7:30:00 PM 8.12 46.616 0.088 7.3 1.41 11.29
11/8/2022 7:45:00 PM 8.06 46.508 0.088 7.31 1.53 11.3
11/8/2022 8:00:00 PM 7.99 46.382 0.088 7.3 1.46 11.31
11/8/2022 8:15:00 PM 7.92 46.256 0.089 7.22 1.4 11.31
11/8/2022 8:30:00 PM 7.84 46.112 0.089 7.28 1.4 11.35
11/8/2022 8:45:00 PM 7.76 45.968 0.089 7.26 1.58 11.38
11/8/2022 9:00:00 PM 7.69 45.842 0.089 7.17 1.55 11.38
11/8/2022 9:15:00 PM 7.6 45.68 0.089 7.23 1.5 11.42
11/8/2022 9:30:00 PM 7.51 45.518 0.089 7.23 1.48 11.47
11/8/2022 9:45:00 PM 7.43 45.374 0.089 7.22 1.43 11.49
11/8/2022 10:00:00 PM 7.34 45.212 0.089 7.21 1.43 11.5
11/8/2022 10:15:00 PM 7.25 45.05 0.089 7.16 1.54 11.57
11/8/2022 10:30:00 PM 7.2 44.96 0.089 7.17 1.46 11.52
11/8/2022 10:45:00 PM 7.1 44.78 0.09 7.19 1.45 11.58
11/8/2022 11:00:00 PM 6.99 44.582 0.09 7.16 1.52 11.63
11/8/2022 11:15:00 PM 6.91 44.438 0.09 7.13 1.46 11.68
11/8/2022 11:30:00 PM 6.82 44.276 0.09 7.18 1.48 11.7
11/8/2022 11:45:00 PM 6.74 44.132 0.09 7.11 1.43 11.72
11/9/2022 12:00:00 AM 6.66 43.988 0.09 7.16 1.4 11.74
11/9/2022 12:15:00 AM 6.58 43.844 0.09 7.12 1.42 11.79
11/9/2022 12:30:00 AM 6.51 43.718 0.09 7.16 1.39 11.8
11/9/2022 12:45:00 AM 6.49 43.682 0.09 7.13 1.43 11.79
11/9/2022 1:00:00 AM 6.38 43.484 0.09 7.15 1.4 11.85
11/9/2022 1:15:00 AM 6.31 43.358 0.09 7.12 1.51 11.81
11/9/2022 1:30:00 AM 6.21 43.178 0.09 7.15 1.38 11.93
11/9/2022 1:45:00 AM 6.14 43.052 0.09 7.14 1.4 11.92
11/9/2022 2:00:00 AM 6.07 42.926 0.09 7.15 1.36 11.99
11/9/2022 2:15:00 AM 5.98 42.764 0.09 7.15 1.45 12.03
11/9/2022 2:30:00 AM 5.93 42.674 0.09 7.09 1.45 11.98
11/9/2022 2:45:00 AM 5.86 42.548 0.09 7.13 1.39 12.04
11/9/2022 3:00:00 AM 5.79 42.422 0.09 7.16 1.45 12.06
11/9/2022 3:15:00 AM 5.74 42.332 0.09 7.14 1.45 12.04
11/9/2022 3:30:00 AM 5.65 42.17 0.09 7.09 1.4 12.12
11/9/2022 3:45:00 AM 5.58 42.044 0.09 7.14 1.36 12.16
11/9/2022 4:00:00 AM 5.55 41.99 0.09 7.11 1.41 12.13
11/9/2022 4:15:00 AM 5.49 41.882 0.09 7.15 1.36 12.17
11/9/2022 4:30:00 AM 5.43 41.774 0.09 7.1 1.47 12.17
11/9/2022 4:45:00 AM 5.35 41.63 0.09 7.11 1.44 12.19
11/9/2022 5:00:00 AM 5.28 41.504 0.09 7.12 1.38 12.25
11/9/2022 5:15:00 AM 5.24 41.432 0.09 7.13 1.39 12.27
11/9/2022 5:30:00 AM 5.21 41.378 0.09 7.11 1.31 12.22
11/9/2022 5:45:00 AM 5.13 41.234 0.09 7.1 1.36 12.27
11/9/2022 6:00:00 AM 5.06 41.108 0.09 7.09 1.43 12.29
11/9/2022 6:15:00 AM 5.05 41.09 0.09 7.11 1.42 12.2
11/9/2022 6:30:00 AM 4.94 40.892 0.09 7.11 1.48 12.35
11/9/2022 6:45:00 AM 4.89 40.802 0.09 7.08 1.35 12.29
11/9/2022 7:00:00 AM 4.88 40.784 0.09 7.15 1.36 12.39
11/9/2022 7:15:00 AM 4.81 40.658 0.09 7.11 1.4 12.47
11/9/2022 7:30:00 AM 4.77 40.586 0.09 7.12 1.39 12.55
11/9/2022 7:45:00 AM 4.77 40.586 0.089 7.16 1.36 12.63
11/9/2022 8:00:00 AM 4.69 40.442 0.089 7.16 1.37 12.84
11/9/2022 8:15:00 AM 4.64 40.352 0.089 7.27 1.4 13.13
11/9/2022 8:30:00 AM 4.67 40.406 0.089 7.28 1.37 13.28
11/9/2022 8:45:00 AM 4.7 40.46 0.089 7.32 1.55 13.43
11/9/2022 9:00:00 AM 4.76 40.568 0.089 7.38 1.35 13.54
11/9/2022 9:15:00 AM 4.85 40.73 0.088 7.38 1.3 13.64
11/9/2022 9:30:00 AM 4.94 40.892 0.088 7.51 1.33 13.75
11/9/2022 9:45:00 AM 5.08 41.144 0.088 7.51 1.4 13.8
11/9/2022 10:00:00 AM 5.24 41.432 0.088 7.65 1.34 13.89
11/9/2022 10:15:00 AM 5.43 41.774 0.087 7.65 1.33 13.85
11/9/2022 10:30:00 AM 5.61 42.098 0.087 7.74 1.29 13.83
11/9/2022 10:45:00 AM 5.81 42.458 0.087 7.82 1.35 13.79
11/9/2022 11:00:00 AM 6.02 42.836 0.086 7.84 1.33 13.66
11/9/2022 11:15:00 AM 6.25 43.25 0.086 7.83 1.37 13.61
11/9/2022 11:30:00 AM 6.52 43.736 0.086 7.95 1.32 13.56
11/9/2022 11:45:00 AM 6.76 44.168 0.086 7.92 1.37 13.44
11/9/2022 12:00:00 PM 6.99 44.582 0.086 8.09 1.29 13.43
11/9/2022 12:15:00 PM 7.19 44.942 0.086 7.9 1.36 13.32
11/9/2022 12:30:00 PM 7.37 45.266 0.086 8.08 1.36 13.25
11/9/2022 12:45:00 PM 7.48 45.464 0.085 8.03 1.34 13.14
11/9/2022 1:00:00 PM 7.58 45.644 0.086 8.22 1.34 13.2
11/9/2022 1:15:00 PM 7.67 45.806 0.086 8.14 1.37 13.04
11/9/2022 1:30:00 PM 7.71 45.878 0.085 8.11 1.34 12.96
11/9/2022 1:45:00 PM 7.74 45.932 0.086 8.02 1.34 12.92
11/9/2022 2:00:00 PM 7.76 45.968 0.085 7.94 1.35 12.82
11/9/2022 2:15:00 PM 7.76 45.968 0.086 8.08 1.31 12.83
11/9/2022 2:30:00 PM 7.76 45.968 0.085 8 1.33 12.77
11/9/2022 2:45:00 PM 7.75 45.95 0.085 7.88 1.35 12.62
11/9/2022 3:00:00 PM 7.72 45.896 0.086 7.94 1.41 12.62
11/9/2022 3:15:00 PM 7.68 45.824 0.086 7.79 1.33 12.54
11/9/2022 3:30:00 PM 7.64 45.752 0.086 7.78 1.34 12.44
11/9/2022 3:45:00 PM 7.61 45.698 0.086 7.72 1.34 12.31
11/9/2022 4:00:00 PM 7.51 45.518 0.086 7.67 1.36 12.3
11/9/2022 4:15:00 PM 7.5 45.5 0.086 7.63 1.37 12.16
11/9/2022 4:30:00 PM 7.47 45.446 0.086 7.59 1.33 12.09
11/9/2022 4:45:00 PM 7.44 45.392 0.086 7.58 1.4 12.05
11/9/2022 5:00:00 PM 7.38 45.284 0.086 7.5 1.42 11.9
11/9/2022 5:15:00 PM 7.33 45.194 0.087 7.51 1.37 11.86
11/9/2022 5:30:00 PM 7.28 45.104 0.087 7.39 1.47 11.78
11/9/2022 5:45:00 PM 7.22 44.996 0.087 7.39 1.46 11.72
11/9/2022 6:00:00 PM 7.18 44.924 0.087 7.38 1.44 11.64
11/9/2022 6:15:00 PM 7.18 44.924 0.087 7.36 1.49 11.57
11/9/2022 6:30:00 PM 7.11 44.798 0.088 7.35 1.47 11.56
11/9/2022 6:45:00 PM 7.02 44.636 0.088 7.27 1.45 11.6
11/9/2022 7:00:00 PM 6.99 44.582 0.088 7.31 1.43 11.57
11/9/2022 7:15:00 PM 6.96 44.528 0.088 7.23 1.45 11.53
11/9/2022 7:30:00 PM 6.91 44.438 0.088 7.28 1.42 11.55
11/9/2022 7:45:00 PM 6.84 44.312 0.088 7.23 1.42 11.6
11/9/2022 8:00:00 PM 6.8 44.24 0.088 7.27 1.5 11.56
11/9/2022 8:15:00 PM 6.73 44.114 0.089 7.28 1.51 11.63
11/9/2022 8:30:00 PM 6.72 44.096 0.088 7.24 1.49 11.6
11/9/2022 8:45:00 PM 6.72 44.096 0.088 7.22 1.46 11.57
11/9/2022 9:00:00 PM 6.61 43.898 0.089 7.24 1.46 11.65
11/9/2022 9:15:00 PM 6.57 43.826 0.089 7.17 1.46 11.61
11/9/2022 9:30:00 PM 6.46 43.628 0.089 7.26 1.43 11.73
11/9/2022 9:45:00 PM 6.44 43.592 0.089 7.19 1.5 11.7
11/9/2022 10:00:00 PM 6.37 43.466 0.089 7.26 1.44 11.77
11/9/2022 10:15:00 PM 6.3 43.34 0.089 7.25 1.42 11.77
11/9/2022 10:30:00 PM 6.22 43.196 0.089 7.24 1.5 11.79
11/9/2022 10:45:00 PM 6.23 43.214 0.089 7.22 1.54 11.71
11/9/2022 11:00:00 PM 6.14 43.052 0.089 7.16 1.44 11.78
11/9/2022 11:15:00 PM 6.04 42.872 0.09 7.18 1.46 11.86
11/9/2022 11:30:00 PM 5.96 42.728 0.09 7.21 1.4 11.91
11/9/2022 11:45:00 PM 5.89 42.602 0.09 7.23 1.45 11.94
11/10/2022 12:00:00 AM 5.81 42.458 0.09 7.17 1.44 11.95
11/10/2022 12:15:00 AM 5.8 42.44 0.09 7.18 1.39 11.93
11/10/2022 12:30:00 AM 5.72 42.296 0.09 7.2 1.45 11.97
11/10/2022 12:45:00 AM 5.63 42.134 0.09 7.16 1.44 11.99
11/10/2022 1:00:00 AM 5.56 42.008 0.09 7.19 1.45 12.02
11/10/2022 1:15:00 AM 5.56 42.008 0.09 7.1 1.43 11.99
11/10/2022 1:30:00 AM 5.48 41.864 0.09 7.15 1.45 12.01
11/10/2022 1:45:00 AM 5.45 41.81 0.09 7.08 1.42 11.98
11/10/2022 2:00:00 AM 5.36 41.648 0.09 7.11 1.46 12.06
11/10/2022 2:15:00 AM 5.36 41.648 0.09 7.08 1.48 12.01
11/10/2022 2:30:00 AM 5.27 41.486 0.09 7.1 1.42 12.11
11/10/2022 2:45:00 AM 5.2 41.36 0.09 7.11 1.39 12.16
11/10/2022 3:00:00 AM 5.22 41.396 0.09 7.13 1.39 12.07
11/10/2022 3:15:00 AM 5.12 41.216 0.09 7.11 1.36 12.15
11/10/2022 3:30:00 AM 5.09 41.162 0.09 7.08 1.44 12.15
11/10/2022 3:45:00 AM 5.03 41.054 0.09 7.1 1.42 12.22
11/10/2022 4:00:00 AM 4.98 40.964 0.09 7.14 1.4 12.24
11/10/2022 4:15:00 AM 4.95 40.91 0.09 7.11 1.53 12.22
11/10/2022 4:30:00 AM 4.95 40.91 0.09 7.11 1.48 12.2
11/10/2022 4:45:00 AM 4.91 40.838 0.09 7.09 1.6 12.21
11/10/2022 5:00:00 AM 4.86 40.748 0.09 7.11 1.52 12.24
11/10/2022 5:15:00 AM 4.8 40.64 0.09 7.15 1.41 12.28
11/10/2022 5:30:00 AM 4.81 40.658 0.09 7.07 1.45 12.29
11/10/2022 5:45:00 AM 4.78 40.604 0.09 7.12 1.49 12.26
11/10/2022 6:00:00 AM 4.71 40.478 0.09 7.09 1.44 12.29
11/10/2022 6:15:00 AM 4.65 40.37 0.09 7.11 1.45 12.36
11/10/2022 6:30:00 AM 4.62 40.316 0.09 7.11 1.48 12.36
11/10/2022 6:45:00 AM 4.65 40.37 0.09 7.1 1.51 12.29
11/10/2022 7:00:00 AM 4.57 40.226 0.09 7.11 1.54 12.39
11/10/2022 7:15:00 AM 4.53 40.154 0.09 7.16 1.65 12.51
11/10/2022 7:30:00 AM 4.52 40.136 0.09 7.17 1.5 12.61
11/10/2022 7:45:00 AM 4.53 40.154 0.09 7.19 1.49 12.69
11/10/2022 8:00:00 AM 4.48 40.064 0.09 7.16 1.42 12.92
11/10/2022 8:15:00 AM 4.55 40.19 0.089 7.22 1.44 12.95
11/10/2022 8:30:00 AM 4.58 40.244 0.089 7.22 1.51 13.15
11/10/2022 8:45:00 AM 4.61 40.298 0.089 7.26 1.44 13.3
11/10/2022 9:00:00 AM 4.71 40.478